<?xml version="1.0" encoding="UTF-8" standalone="no" ?><gpx xmlns="http://www.topografix.com/GPX/1/1" xmlns:gpxx="http://www.garmin.com/xmlschemas/GpxExtensions/v3" xmlns:wptx1="http://www.garmin.com/xmlschemas/WaypointExtension/v1" xmlns:gpxtpx="http://www.garmin.com/xmlschemas/TrackPointExtension/v1" creator="GuideVTT.com" version="1.1" xmlns:xsi="http://www.w3.org/2001/XMLSchema-instance" xsi:schemaLocation="http://www.topografix.com/GPX/1/1 http://www.topografix.com/GPX/1/1/gpx.xsd http://www.garmin.com/xmlschemas/GpxExtensions/v3 http://www8.garmin.com/xmlschemas/GpxExtensionsv3.xsd http://www.garmin.com/xmlschemas/WaypointExtension/v1 http://www8.garmin.com/xmlschemas/WaypointExtensionv1.xsd http://www.garmin.com/xmlschemas/TrackPointExtension/v1 http://www.garmin.com/xmlschemas/TrackPointExtensionv1.xsd">
<metadata><link href="http://www.garmin.com"><text>Garmin International</text></link><time>2013-06-22T15:13:50Z</time></metadata>
<trk><name>gollion_dent_vaulion_chatel.gpx</name><extensions><gpxx:TrackExtension><gpxx:DisplayColor>Cyan</gpxx:DisplayColor></gpxx:TrackExtension></extensions><trkseg>
<trkpt lat="46.58477196" lon="6.50596602"><ele>539.919983</ele><time>2008-08-06T13:33:18Z</time></trkpt>
<trkpt lat="46.58484003" lon="6.50595403"><ele>533.669983</ele><time>2008-08-06T13:34:13Z</time></trkpt>
<trkpt lat="46.58497397" lon="6.50611798"><ele>533.190002</ele><time>2008-08-06T13:34:23Z</time></trkpt>
<trkpt lat="46.58504697" lon="6.50626198"><ele>532.710022</ele><time>2008-08-06T13:34:28Z</time></trkpt>
<trkpt lat="46.58523900" lon="6.50619300"><ele>533.190002</ele><time>2008-08-06T13:34:35Z</time></trkpt>
<trkpt lat="46.58540698" lon="6.50582202"><ele>534.630005</ele><time>2008-08-06T13:34:46Z</time></trkpt>
<trkpt lat="46.58553002" lon="6.50525398"><ele>537.51001</ele><time>2008-08-06T13:35:00Z</time></trkpt>
<trkpt lat="46.58560798" lon="6.50480202"><ele>539.919983</ele><time>2008-08-06T13:35:12Z</time></trkpt>
<trkpt lat="46.58574502" lon="6.50446700"><ele>542.320007</ele><time>2008-08-06T13:35:23Z</time></trkpt>
<trkpt lat="46.58618901" lon="6.50448896"><ele>544.23999</ele><time>2008-08-06T13:35:38Z</time></trkpt>
<trkpt lat="46.58661900" lon="6.50450698"><ele>545.690002</ele><time>2008-08-06T13:35:52Z</time></trkpt>
<trkpt lat="46.58713097" lon="6.50460798"><ele>548.570007</ele><time>2008-08-06T13:36:09Z</time></trkpt>
<trkpt lat="46.58755098" lon="6.50465299"><ele>550.01001</ele><time>2008-08-06T13:36:23Z</time></trkpt>
<trkpt lat="46.58793496" lon="6.50434798"><ele>552.409973</ele><time>2008-08-06T13:36:38Z</time></trkpt>
<trkpt lat="46.58842899" lon="6.50432602"><ele>554.340027</ele><time>2008-08-06T13:36:54Z</time></trkpt>
<trkpt lat="46.58906300" lon="6.50428000"><ele>557.219971</ele><time>2008-08-06T13:37:14Z</time></trkpt>
<trkpt lat="46.58959701" lon="6.50395202"><ele>560.109985</ele><time>2008-08-06T13:37:33Z</time></trkpt>
<trkpt lat="46.58992399" lon="6.50363401"><ele>563.469971</ele><time>2008-08-06T13:37:47Z</time></trkpt>
<trkpt lat="46.59024602" lon="6.50342203"><ele>566.830017</ele><time>2008-08-06T13:38:01Z</time></trkpt>
<trkpt lat="46.59077601" lon="6.50313201"><ele>568.76001</ele><time>2008-08-06T13:38:21Z</time></trkpt>
<trkpt lat="46.59143298" lon="6.50290696"><ele>567.320007</ele><time>2008-08-06T13:38:33Z</time></trkpt>
<trkpt lat="46.59225600" lon="6.50256598"><ele>563.950012</ele><time>2008-08-06T13:38:44Z</time></trkpt>
<trkpt lat="46.59310802" lon="6.50167800"><ele>560.590027</ele><time>2008-08-06T13:38:56Z</time></trkpt>
<trkpt lat="46.59318597" lon="6.50158899"><ele>560.109985</ele><time>2008-08-06T13:38:57Z</time></trkpt>
<trkpt lat="46.59400396" lon="6.50044704"><ele>559.140015</ele><time>2008-08-06T13:39:09Z</time></trkpt>
<trkpt lat="46.59473503" lon="6.49923099"><ele>559.619995</ele><time>2008-08-06T13:39:23Z</time></trkpt>
<trkpt lat="46.59542997" lon="6.49853404"><ele>562.030029</ele><time>2008-08-06T13:39:38Z</time></trkpt>
<trkpt lat="46.59550700" lon="6.49844997"><ele>562.030029</ele><time>2008-08-06T13:39:40Z</time></trkpt>
<trkpt lat="46.59584899" lon="6.49776198"><ele>564.909973</ele><time>2008-08-06T13:39:55Z</time></trkpt>
<trkpt lat="46.59604797" lon="6.49715303"><ele>568.280029</ele><time>2008-08-06T13:40:08Z</time></trkpt>
<trkpt lat="46.59628401" lon="6.49662397"><ele>571.159973</ele><time>2008-08-06T13:40:21Z</time></trkpt>
<trkpt lat="46.59668298" lon="6.49650201"><ele>574.530029</ele><time>2008-08-06T13:40:33Z</time></trkpt>
<trkpt lat="46.59727097" lon="6.49646203"><ele>577.409973</ele><time>2008-08-06T13:40:49Z</time></trkpt>
<trkpt lat="46.59773701" lon="6.49630303"><ele>579.809998</ele><time>2008-08-06T13:41:03Z</time></trkpt>
<trkpt lat="46.59777598" lon="6.49580397"><ele>581.25</ele><time>2008-08-06T13:41:13Z</time></trkpt>
<trkpt lat="46.59788797" lon="6.49476201"><ele>583.659973</ele><time>2008-08-06T13:41:33Z</time></trkpt>
<trkpt lat="46.59801504" lon="6.49404100"><ele>586.059998</ele><time>2008-08-06T13:41:48Z</time></trkpt>
<trkpt lat="46.59817496" lon="6.49345804"><ele>587.97998</ele><time>2008-08-06T13:42:01Z</time></trkpt>
<trkpt lat="46.59858400" lon="6.49256101"><ele>588.950012</ele><time>2008-08-06T13:42:19Z</time></trkpt>
<trkpt lat="46.59885398" lon="6.49173003"><ele>588.950012</ele><time>2008-08-06T13:42:33Z</time></trkpt>
<trkpt lat="46.59911902" lon="6.49090198"><ele>589.909973</ele><time>2008-08-06T13:42:47Z</time></trkpt>
<trkpt lat="46.59930401" lon="6.49037501"><ele>591.349976</ele><time>2008-08-06T13:42:59Z</time></trkpt>
<trkpt lat="46.59951598" lon="6.48980001"><ele>593.75</ele><time>2008-08-06T13:43:12Z</time></trkpt>
<trkpt lat="46.59958396" lon="6.48954101"><ele>595.190002</ele><time>2008-08-06T13:43:18Z</time></trkpt>
<trkpt lat="46.59972503" lon="6.48919702"><ele>597.119995</ele><time>2008-08-06T13:43:27Z</time></trkpt>
<trkpt lat="46.59990599" lon="6.48860601"><ele>599.52002</ele><time>2008-08-06T13:43:41Z</time></trkpt>
<trkpt lat="46.59998897" lon="6.48817099"><ele>599.52002</ele><time>2008-08-06T13:43:49Z</time></trkpt>
<trkpt lat="46.60028603" lon="6.48729097"><ele>599.52002</ele><time>2008-08-06T13:44:01Z</time></trkpt>
<trkpt lat="46.60037102" lon="6.48712702"><ele>599.52002</ele><time>2008-08-06T13:44:04Z</time></trkpt>
<trkpt lat="46.60045501" lon="6.48702099"><ele>600</ele><time>2008-08-06T13:44:08Z</time></trkpt>
<trkpt lat="46.60075198" lon="6.48687003"><ele>600.47998</ele><time>2008-08-06T13:44:18Z</time></trkpt>
<trkpt lat="46.60103101" lon="6.48673902"><ele>601.440002</ele><time>2008-08-06T13:44:28Z</time></trkpt>
<trkpt lat="46.60110503" lon="6.48603897"><ele>604.330017</ele><time>2008-08-06T13:44:43Z</time></trkpt>
<trkpt lat="46.60119697" lon="6.48540898"><ele>607.690002</ele><time>2008-08-06T13:44:57Z</time></trkpt>
<trkpt lat="46.60130401" lon="6.48461597"><ele>610.570007</ele><time>2008-08-06T13:45:13Z</time></trkpt>
<trkpt lat="46.60143200" lon="6.48372900"><ele>610.090027</ele><time>2008-08-06T13:45:26Z</time></trkpt>
<trkpt lat="46.60166703" lon="6.48247900"><ele>606.72998</ele><time>2008-08-06T13:45:38Z</time></trkpt>
<trkpt lat="46.60195403" lon="6.48117403"><ele>603.359985</ele><time>2008-08-06T13:45:48Z</time></trkpt>
<trkpt lat="46.60242300" lon="6.47899398"><ele>600</ele><time>2008-08-06T13:46:05Z</time></trkpt>
<trkpt lat="46.60267202" lon="6.47751801"><ele>595.190002</ele><time>2008-08-06T13:46:16Z</time></trkpt>
<trkpt lat="46.60272701" lon="6.47678903"><ele>591.830017</ele><time>2008-08-06T13:46:21Z</time></trkpt>
<trkpt lat="46.60274997" lon="6.47663204"><ele>591.349976</ele><time>2008-08-06T13:46:22Z</time></trkpt>
<trkpt lat="46.60282197" lon="6.47632702"><ele>590.390015</ele><time>2008-08-06T13:46:24Z</time></trkpt>
<trkpt lat="46.60309698" lon="6.47582503"><ele>588.950012</ele><time>2008-08-06T13:46:28Z</time></trkpt>
<trkpt lat="46.60416299" lon="6.47456498"><ele>587.5</ele><time>2008-08-06T13:46:41Z</time></trkpt>
<trkpt lat="46.60509800" lon="6.47341498"><ele>587.97998</ele><time>2008-08-06T13:46:54Z</time></trkpt>
<trkpt lat="46.60558599" lon="6.47277603"><ele>585.580017</ele><time>2008-08-06T13:47:01Z</time></trkpt>
<trkpt lat="46.60574298" lon="6.47259104"><ele>585.580017</ele><time>2008-08-06T13:47:03Z</time></trkpt>
<trkpt lat="46.60593099" lon="6.47169602"><ele>584.619995</ele><time>2008-08-06T13:47:10Z</time></trkpt>
<trkpt lat="46.60603501" lon="6.47043102"><ele>586.539978</ele><time>2008-08-06T13:47:22Z</time></trkpt>
<trkpt lat="46.60610299" lon="6.46959501"><ele>589.429993</ele><time>2008-08-06T13:47:34Z</time></trkpt>
<trkpt lat="46.60623701" lon="6.46832096"><ele>592.309998</ele><time>2008-08-06T13:47:54Z</time></trkpt>
<trkpt lat="46.60629703" lon="6.46793799"><ele>594.22998</ele><time>2008-08-06T13:48:01Z</time></trkpt>
<trkpt lat="46.60632402" lon="6.46771101"><ele>596.150024</ele><time>2008-08-06T13:48:06Z</time></trkpt>
<trkpt lat="46.60645503" lon="6.46685103"><ele>598.080017</ele><time>2008-08-06T13:48:21Z</time></trkpt>
<trkpt lat="46.60669802" lon="6.46532703"><ele>597.119995</ele><time>2008-08-06T13:48:40Z</time></trkpt>
<trkpt lat="46.60684504" lon="6.46401200"><ele>599.039978</ele><time>2008-08-06T13:48:55Z</time></trkpt>
<trkpt lat="46.60670003" lon="6.46267802"><ele>598.080017</ele><time>2008-08-06T13:49:12Z</time></trkpt>
<trkpt lat="46.60666298" lon="6.46244600"><ele>595.669983</ele><time>2008-08-06T13:49:19Z</time></trkpt>
<trkpt lat="46.60659702" lon="6.46207997"><ele>594.710022</ele><time>2008-08-06T13:49:57Z</time></trkpt>
<trkpt lat="46.60656600" lon="6.46181703"><ele>594.22998</ele><time>2008-08-06T13:50:00Z</time></trkpt>
<trkpt lat="46.60658302" lon="6.46134202"><ele>589.909973</ele><time>2008-08-06T13:50:04Z</time></trkpt>
<trkpt lat="46.60661998" lon="6.46120297"><ele>589.429993</ele><time>2008-08-06T13:50:05Z</time></trkpt>
<trkpt lat="46.60670204" lon="6.46091304"><ele>587.5</ele><time>2008-08-06T13:50:07Z</time></trkpt>
<trkpt lat="46.60667103" lon="6.45965802"><ele>587.02002</ele><time>2008-08-06T13:50:16Z</time></trkpt>
<trkpt lat="46.60661898" lon="6.45912903"><ele>587.02002</ele><time>2008-08-06T13:50:21Z</time></trkpt>
<trkpt lat="46.60677597" lon="6.45884296"><ele>587.97998</ele><time>2008-08-06T13:50:28Z</time></trkpt>
<trkpt lat="46.60703103" lon="6.45848203"><ele>587.5</ele><time>2008-08-06T13:50:37Z</time></trkpt>
<trkpt lat="46.60683800" lon="6.45747101"><ele>587.97998</ele><time>2008-08-06T13:50:50Z</time></trkpt>
<trkpt lat="46.60685199" lon="6.45716599"><ele>588.950012</ele><time>2008-08-06T13:50:54Z</time></trkpt>
<trkpt lat="46.60699901" lon="6.45670298"><ele>591.830017</ele><time>2008-08-06T13:51:03Z</time></trkpt>
<trkpt lat="46.60687496" lon="6.45594701"><ele>591.830017</ele><time>2008-08-06T13:51:14Z</time></trkpt>
<trkpt lat="46.60612897" lon="6.45499298"><ele>592.309998</ele><time>2008-08-06T13:51:30Z</time></trkpt>
<trkpt lat="46.60575497" lon="6.45461102"><ele>592.789978</ele><time>2008-08-06T13:51:39Z</time></trkpt>
<trkpt lat="46.60556604" lon="6.45438496"><ele>592.789978</ele><time>2008-08-06T13:51:44Z</time></trkpt>
<trkpt lat="46.60542003" lon="6.45423400"><ele>593.75</ele><time>2008-08-06T13:51:48Z</time></trkpt>
<trkpt lat="46.60514301" lon="6.45378096"><ele>597.119995</ele><time>2008-08-06T13:52:01Z</time></trkpt>
<trkpt lat="46.60467102" lon="6.45334200"><ele>598.080017</ele><time>2008-08-06T13:52:15Z</time></trkpt>
<trkpt lat="46.60403903" lon="6.45278804"><ele>595.669983</ele><time>2008-08-06T13:52:26Z</time></trkpt>
<trkpt lat="46.60339898" lon="6.45170703"><ele>595.190002</ele><time>2008-08-06T13:52:39Z</time></trkpt>
<trkpt lat="46.60328298" lon="6.45127804"><ele>595.669983</ele><time>2008-08-06T13:52:44Z</time></trkpt>
<trkpt lat="46.60324803" lon="6.45093497"><ele>595.669983</ele><time>2008-08-06T13:52:48Z</time></trkpt>
<trkpt lat="46.60324199" lon="6.45077596"><ele>596.150024</ele><time>2008-08-06T13:52:50Z</time></trkpt>
<trkpt lat="46.60328801" lon="6.45047497"><ele>596.640015</ele><time>2008-08-06T13:52:54Z</time></trkpt>
<trkpt lat="46.60336403" lon="6.45029602"><ele>596.640015</ele><time>2008-08-06T13:52:57Z</time></trkpt>
<trkpt lat="46.60350904" lon="6.45015403"><ele>597.599976</ele><time>2008-08-06T13:53:01Z</time></trkpt>
<trkpt lat="46.60382403" lon="6.44989000"><ele>600.47998</ele><time>2008-08-06T13:53:13Z</time></trkpt>
<trkpt lat="46.60413902" lon="6.44939899"><ele>602.880005</ele><time>2008-08-06T13:53:27Z</time></trkpt>
<trkpt lat="46.60443096" lon="6.44877504"><ele>602.880005</ele><time>2008-08-06T13:53:40Z</time></trkpt>
<trkpt lat="46.60449299" lon="6.44855199"><ele>603.359985</ele><time>2008-08-06T13:53:44Z</time></trkpt>
<trkpt lat="46.60452300" lon="6.44769100"><ele>603.849976</ele><time>2008-08-06T13:53:58Z</time></trkpt>
<trkpt lat="46.60457899" lon="6.44730904"><ele>601.919983</ele><time>2008-08-06T13:54:03Z</time></trkpt>
<trkpt lat="46.60464998" lon="6.44680596"><ele>600</ele><time>2008-08-06T13:54:08Z</time></trkpt>
<trkpt lat="46.60478401" lon="6.44648401"><ele>600</ele><time>2008-08-06T13:54:12Z</time></trkpt>
<trkpt lat="46.60497302" lon="6.44621797"><ele>600.960022</ele><time>2008-08-06T13:54:17Z</time></trkpt>
<trkpt lat="46.60512700" lon="6.44605301"><ele>601.440002</ele><time>2008-08-06T13:54:21Z</time></trkpt>
<trkpt lat="46.60546001" lon="6.44548397"><ele>602.880005</ele><time>2008-08-06T13:54:33Z</time></trkpt>
<trkpt lat="46.60575899" lon="6.44509697"><ele>602.880005</ele><time>2008-08-06T13:54:41Z</time></trkpt>
<trkpt lat="46.60632301" lon="6.44485398"><ele>602.400024</ele><time>2008-08-06T13:54:51Z</time></trkpt>
<trkpt lat="46.60650096" lon="6.44472297"><ele>602.880005</ele><time>2008-08-06T13:54:55Z</time></trkpt>
<trkpt lat="46.60659802" lon="6.44449499"><ele>603.359985</ele><time>2008-08-06T13:54:59Z</time></trkpt>
<trkpt lat="46.60694403" lon="6.44386098"><ele>605.77002</ele><time>2008-08-06T13:55:12Z</time></trkpt>
<trkpt lat="46.60717101" lon="6.44363903"><ele>609.130005</ele><time>2008-08-06T13:55:22Z</time></trkpt>
<trkpt lat="46.60736002" lon="6.44341297"><ele>612.02002</ele><time>2008-08-06T13:55:31Z</time></trkpt>
<trkpt lat="46.60767803" lon="6.44312203"><ele>614.900024</ele><time>2008-08-06T13:55:45Z</time></trkpt>
<trkpt lat="46.60799101" lon="6.44302304"><ele>614.419983</ele><time>2008-08-06T13:55:57Z</time></trkpt>
<trkpt lat="46.60836602" lon="6.44308599"><ele>614.419983</ele><time>2008-08-06T13:56:08Z</time></trkpt>
<trkpt lat="46.60872300" lon="6.44301600"><ele>613.460022</ele><time>2008-08-06T13:56:16Z</time></trkpt>
<trkpt lat="46.60939003" lon="6.44271500"><ele>614.900024</ele><time>2008-08-06T13:56:31Z</time></trkpt>
<trkpt lat="46.60977904" lon="6.44240504"><ele>616.820007</ele><time>2008-08-06T13:56:45Z</time></trkpt>
<trkpt lat="46.60997903" lon="6.44217303"><ele>615.859985</ele><time>2008-08-06T13:56:51Z</time></trkpt>
<trkpt lat="46.61018003" lon="6.44195502"><ele>615.380005</ele><time>2008-08-06T13:56:56Z</time></trkpt>
<trkpt lat="46.61033400" lon="6.44180104"><ele>615.859985</ele><time>2008-08-06T13:57:00Z</time></trkpt>
<trkpt lat="46.61042897" lon="6.44161203"><ele>615.859985</ele><time>2008-08-06T13:57:03Z</time></trkpt>
<trkpt lat="46.61052603" lon="6.44144800"><ele>615.380005</ele><time>2008-08-06T13:57:06Z</time></trkpt>
<trkpt lat="46.61058001" lon="6.44131799"><ele>614.900024</ele><time>2008-08-06T13:57:08Z</time></trkpt>
<trkpt lat="46.61066299" lon="6.44103301"><ele>613.460022</ele><time>2008-08-06T13:57:11Z</time></trkpt>
<trkpt lat="46.61068998" lon="6.44081801"><ele>612.5</ele><time>2008-08-06T13:57:13Z</time></trkpt>
<trkpt lat="46.61072703" lon="6.44061299"><ele>612.5</ele><time>2008-08-06T13:57:15Z</time></trkpt>
<trkpt lat="46.61088000" lon="6.44002098"><ele>613.460022</ele><time>2008-08-06T13:57:24Z</time></trkpt>
<trkpt lat="46.61106801" lon="6.43939300"><ele>615.859985</ele><time>2008-08-06T13:57:37Z</time></trkpt>
<trkpt lat="46.61112601" lon="6.43924397"><ele>615.859985</ele><time>2008-08-06T13:57:39Z</time></trkpt>
<trkpt lat="46.61114998" lon="6.43897299"><ele>614.419983</ele><time>2008-08-06T13:57:43Z</time></trkpt>
<trkpt lat="46.61102400" lon="6.43823999"><ele>612.97998</ele><time>2008-08-06T13:57:50Z</time></trkpt>
<trkpt lat="46.61087397" lon="6.43782299"><ele>612.97998</ele><time>2008-08-06T13:57:55Z</time></trkpt>
<trkpt lat="46.61081403" lon="6.43737900"><ele>613.940002</ele><time>2008-08-06T13:58:03Z</time></trkpt>
<trkpt lat="46.61071404" lon="6.43702897"><ele>613.940002</ele><time>2008-08-06T13:58:09Z</time></trkpt>
<trkpt lat="46.61041497" lon="6.43639002"><ele>614.419983</ele><time>2008-08-06T13:58:19Z</time></trkpt>
<trkpt lat="46.61009604" lon="6.43610696"><ele>614.900024</ele><time>2008-08-06T13:58:30Z</time></trkpt>
<trkpt lat="46.60981298" lon="6.43592298"><ele>615.859985</ele><time>2008-08-06T13:58:37Z</time></trkpt>
<trkpt lat="46.60946597" lon="6.43574604"><ele>617.299988</ele><time>2008-08-06T13:58:45Z</time></trkpt>
<trkpt lat="46.60903397" lon="6.43537204"><ele>620.190002</ele><time>2008-08-06T13:58:58Z</time></trkpt>
<trkpt lat="46.60890397" lon="6.43510298"><ele>622.109985</ele><time>2008-08-06T13:59:07Z</time></trkpt>
<trkpt lat="46.60880498" lon="6.43490701"><ele>623.549988</ele><time>2008-08-06T13:59:15Z</time></trkpt>
<trkpt lat="46.60862996" lon="6.43472303"><ele>624.51001</ele><time>2008-08-06T13:59:22Z</time></trkpt>
<trkpt lat="46.60827097" lon="6.43433201"><ele>626.440002</ele><time>2008-08-06T13:59:38Z</time></trkpt>
<trkpt lat="46.60811800" lon="6.43408399"><ele>628.359985</ele><time>2008-08-06T13:59:48Z</time></trkpt>
<trkpt lat="46.60793301" lon="6.43381300"><ele>629.799988</ele><time>2008-08-06T14:00:00Z</time></trkpt>
<trkpt lat="46.60781298" lon="6.43353900"><ele>630.76001</ele><time>2008-08-06T14:00:10Z</time></trkpt>
<trkpt lat="46.60767803" lon="6.43311697"><ele>632.679993</ele><time>2008-08-06T14:00:25Z</time></trkpt>
<trkpt lat="46.60757904" lon="6.43270601"><ele>634.130005</ele><time>2008-08-06T14:00:35Z</time></trkpt>
<trkpt lat="46.60751902" lon="6.43249403"><ele>635.090027</ele><time>2008-08-06T14:00:41Z</time></trkpt>
<trkpt lat="46.60746303" lon="6.43208097"><ele>636.530029</ele><time>2008-08-06T14:00:53Z</time></trkpt>
<trkpt lat="46.60740796" lon="6.43192498"><ele>637.48999</ele><time>2008-08-06T14:01:02Z</time></trkpt>
<trkpt lat="46.60709700" lon="6.43189296"><ele>638.929993</ele><time>2008-08-06T14:01:15Z</time></trkpt>
<trkpt lat="46.60695601" lon="6.43177704"><ele>639.409973</ele><time>2008-08-06T14:01:23Z</time></trkpt>
<trkpt lat="46.60683598" lon="6.43136197"><ele>639.890015</ele><time>2008-08-06T14:01:30Z</time></trkpt>
<trkpt lat="46.60681796" lon="6.43121696"><ele>639.890015</ele><time>2008-08-06T14:01:32Z</time></trkpt>
<trkpt lat="46.60651697" lon="6.43056401"><ele>641.340027</ele><time>2008-08-06T14:01:45Z</time></trkpt>
<trkpt lat="46.60622704" lon="6.43005699"><ele>641.820007</ele><time>2008-08-06T14:01:57Z</time></trkpt>
<trkpt lat="46.60583904" lon="6.42961702"><ele>641.820007</ele><time>2008-08-06T14:02:08Z</time></trkpt>
<trkpt lat="46.60571901" lon="6.42949699"><ele>641.820007</ele><time>2008-08-06T14:02:11Z</time></trkpt>
<trkpt lat="46.60525700" lon="6.42903197"><ele>642.780029</ele><time>2008-08-06T14:02:23Z</time></trkpt>
<trkpt lat="46.60482902" lon="6.42843098"><ele>644.219971</ele><time>2008-08-06T14:02:35Z</time></trkpt>
<trkpt lat="46.60449400" lon="6.42786504"><ele>644.219971</ele><time>2008-08-06T14:02:46Z</time></trkpt>
<trkpt lat="46.60450104" lon="6.42771098"><ele>643.73999</ele><time>2008-08-06T14:02:48Z</time></trkpt>
<trkpt lat="46.60449098" lon="6.42741401"><ele>643.26001</ele><time>2008-08-06T14:02:51Z</time></trkpt>
<trkpt lat="46.60438797" lon="6.42691000"><ele>640.859985</ele><time>2008-08-06T14:02:55Z</time></trkpt>
<trkpt lat="46.60440397" lon="6.42634297"><ele>637.01001</ele><time>2008-08-06T14:02:59Z</time></trkpt>
<trkpt lat="46.60458804" lon="6.42555499"><ele>633.650024</ele><time>2008-08-06T14:03:04Z</time></trkpt>
<trkpt lat="46.60459902" lon="6.42509398"><ele>632.200012</ele><time>2008-08-06T14:03:07Z</time></trkpt>
<trkpt lat="46.60464898" lon="6.42464999"><ele>631.719971</ele><time>2008-08-06T14:03:10Z</time></trkpt>
<trkpt lat="46.60473296" lon="6.42430801"><ele>631.719971</ele><time>2008-08-06T14:03:13Z</time></trkpt>
<trkpt lat="46.60497302" lon="6.42408497"><ele>631.23999</ele><time>2008-08-06T14:03:17Z</time></trkpt>
<trkpt lat="46.60512197" lon="6.42395304"><ele>631.719971</ele><time>2008-08-06T14:03:20Z</time></trkpt>
<trkpt lat="46.60530302" lon="6.42344099"><ele>635.090027</ele><time>2008-08-06T14:03:32Z</time></trkpt>
<trkpt lat="46.60532900" lon="6.42287102"><ele>637.48999</ele><time>2008-08-06T14:03:45Z</time></trkpt>
<trkpt lat="46.60553796" lon="6.42247799"><ele>640.380005</ele><time>2008-08-06T14:03:57Z</time></trkpt>
<trkpt lat="46.60585002" lon="6.42204104"><ele>643.73999</ele><time>2008-08-06T14:04:12Z</time></trkpt>
<trkpt lat="46.60598204" lon="6.42156403"><ele>646.619995</ele><time>2008-08-06T14:04:25Z</time></trkpt>
<trkpt lat="46.60593099" lon="6.42117896"><ele>648.549988</ele><time>2008-08-06T14:04:35Z</time></trkpt>
<trkpt lat="46.60585899" lon="6.42058703"><ele>650.469971</ele><time>2008-08-06T14:04:49Z</time></trkpt>
<trkpt lat="46.60563796" lon="6.41964197"><ele>652.390015</ele><time>2008-08-06T14:05:05Z</time></trkpt>
<trkpt lat="46.60551801" lon="6.41915004"><ele>652.869995</ele><time>2008-08-06T14:05:13Z</time></trkpt>
<trkpt lat="46.60548901" lon="6.41889397"><ele>652.869995</ele><time>2008-08-06T14:05:17Z</time></trkpt>
<trkpt lat="46.60546303" lon="6.41845602"><ele>652.869995</ele><time>2008-08-06T14:05:24Z</time></trkpt>
<trkpt lat="46.60544199" lon="6.41726302"><ele>654.309998</ele><time>2008-08-06T14:05:43Z</time></trkpt>
<trkpt lat="46.60543797" lon="6.41663999"><ele>654.799988</ele><time>2008-08-06T14:05:52Z</time></trkpt>
<trkpt lat="46.60541902" lon="6.41516402"><ele>655.76001</ele><time>2008-08-06T14:06:13Z</time></trkpt>
<trkpt lat="46.60542598" lon="6.41393901"><ele>657.200012</ele><time>2008-08-06T14:06:31Z</time></trkpt>
<trkpt lat="46.60543696" lon="6.41360398"><ele>657.679993</ele><time>2008-08-06T14:06:36Z</time></trkpt>
<trkpt lat="46.60555498" lon="6.41248399"><ele>659.599976</ele><time>2008-08-06T14:06:54Z</time></trkpt>
<trkpt lat="46.60548700" lon="6.41130500"><ele>661.52002</ele><time>2008-08-06T14:07:13Z</time></trkpt>
<trkpt lat="46.60541399" lon="6.41096000"><ele>661.52002</ele><time>2008-08-06T14:07:18Z</time></trkpt>
<trkpt lat="46.60513496" lon="6.40978301"><ele>662.48999</ele><time>2008-08-06T14:07:36Z</time></trkpt>
<trkpt lat="46.60501300" lon="6.40920499"><ele>663.450012</ele><time>2008-08-06T14:07:45Z</time></trkpt>
<trkpt lat="46.60514100" lon="6.40872999"><ele>662.969971</ele><time>2008-08-06T14:07:53Z</time></trkpt>
<trkpt lat="46.60531199" lon="6.40865799"><ele>662.969971</ele><time>2008-08-06T14:07:56Z</time></trkpt>
<trkpt lat="46.60602001" lon="6.40800697"><ele>661.52002</ele><time>2008-08-06T14:08:09Z</time></trkpt>
<trkpt lat="46.60654304" lon="6.40735704"><ele>662.48999</ele><time>2008-08-06T14:08:21Z</time></trkpt>
<trkpt lat="46.60675602" lon="6.40697398"><ele>664.890015</ele><time>2008-08-06T14:08:30Z</time></trkpt>
<trkpt lat="46.60681704" lon="6.40663502"><ele>666.330017</ele><time>2008-08-06T14:08:38Z</time></trkpt>
<trkpt lat="46.60687001" lon="6.40649102"><ele>666.809998</ele><time>2008-08-06T14:08:41Z</time></trkpt>
<trkpt lat="46.60718501" lon="6.40584201"><ele>669.700012</ele><time>2008-08-06T14:08:55Z</time></trkpt>
<trkpt lat="46.60758499" lon="6.40555501"><ele>671.619995</ele><time>2008-08-06T14:09:08Z</time></trkpt>
<trkpt lat="46.60810702" lon="6.40542199"><ele>674.5</ele><time>2008-08-06T14:09:24Z</time></trkpt>
<trkpt lat="46.60868696" lon="6.40531302"><ele>674.02002</ele><time>2008-08-06T14:09:37Z</time></trkpt>
<trkpt lat="46.60885401" lon="6.40521403"><ele>673.539978</ele><time>2008-08-06T14:09:40Z</time></trkpt>
<trkpt lat="46.60951199" lon="6.40434198"><ele>670.179993</ele><time>2008-08-06T14:09:52Z</time></trkpt>
<trkpt lat="46.61008498" lon="6.40348099"><ele>667.289978</ele><time>2008-08-06T14:10:01Z</time></trkpt>
<trkpt lat="46.61057498" lon="6.40228104"><ele>666.330017</ele><time>2008-08-06T14:10:13Z</time></trkpt>
<trkpt lat="46.61107999" lon="6.40160403"><ele>667.289978</ele><time>2008-08-06T14:10:26Z</time></trkpt>
<trkpt lat="46.61127697" lon="6.40137596"><ele>668.25</ele><time>2008-08-06T14:10:32Z</time></trkpt>
<trkpt lat="46.61184903" lon="6.40091596"><ele>670.659973</ele><time>2008-08-06T14:10:48Z</time></trkpt>
<trkpt lat="46.61200301" lon="6.40083902"><ele>671.140015</ele><time>2008-08-06T14:10:52Z</time></trkpt>
<trkpt lat="46.61251699" lon="6.40039000"><ele>674.02002</ele><time>2008-08-06T14:11:09Z</time></trkpt>
<trkpt lat="46.61275797" lon="6.40009403"><ele>676.909973</ele><time>2008-08-06T14:11:21Z</time></trkpt>
<trkpt lat="46.61316801" lon="6.39968198"><ele>679.789978</ele><time>2008-08-06T14:11:36Z</time></trkpt>
<trkpt lat="46.61355601" lon="6.39920899"><ele>683.150024</ele><time>2008-08-06T14:11:52Z</time></trkpt>
<trkpt lat="46.61394702" lon="6.39907898"><ele>685.559998</ele><time>2008-08-06T14:12:05Z</time></trkpt>
<trkpt lat="46.61437802" lon="6.39896700"><ele>688.440002</ele><time>2008-08-06T14:12:19Z</time></trkpt>
<trkpt lat="46.61471003" lon="6.39869300"><ele>691.809998</ele><time>2008-08-06T14:12:33Z</time></trkpt>
<trkpt lat="46.61495302" lon="6.39842796"><ele>694.690002</ele><time>2008-08-06T14:12:46Z</time></trkpt>
<trkpt lat="46.61520598" lon="6.39816301"><ele>698.049988</ele><time>2008-08-06T14:12:59Z</time></trkpt>
<trkpt lat="46.61546297" lon="6.39789697"><ele>701.419983</ele><time>2008-08-06T14:13:12Z</time></trkpt>
<trkpt lat="46.61571401" lon="6.39755398"><ele>704.780029</ele><time>2008-08-06T14:13:26Z</time></trkpt>
<trkpt lat="46.61595901" lon="6.39713497"><ele>707.669983</ele><time>2008-08-06T14:13:41Z</time></trkpt>
<trkpt lat="46.61627501" lon="6.39662401"><ele>710.549988</ele><time>2008-08-06T14:13:59Z</time></trkpt>
<trkpt lat="46.61652002" lon="6.39616996"><ele>712.469971</ele><time>2008-08-06T14:14:14Z</time></trkpt>
<trkpt lat="46.61673903" lon="6.39567199"><ele>715.840027</ele><time>2008-08-06T14:14:30Z</time></trkpt>
<trkpt lat="46.61691799" lon="6.39527997"><ele>718.23999</ele><time>2008-08-06T14:14:43Z</time></trkpt>
<trkpt lat="46.61718797" lon="6.39471796"><ele>720.159973</ele><time>2008-08-06T14:14:59Z</time></trkpt>
<trkpt lat="46.61756298" lon="6.39404196"><ele>723.049988</ele><time>2008-08-06T14:15:18Z</time></trkpt>
<trkpt lat="46.61784201" lon="6.39350904"><ele>725.450012</ele><time>2008-08-06T14:15:34Z</time></trkpt>
<trkpt lat="46.61815298" lon="6.39320302"><ele>728.340027</ele><time>2008-08-06T14:15:49Z</time></trkpt>
<trkpt lat="46.61855900" lon="6.39347803"><ele>728.820007</ele><time>2008-08-06T14:16:02Z</time></trkpt>
<trkpt lat="46.61875899" lon="6.39363997"><ele>729.780029</ele><time>2008-08-06T14:16:08Z</time></trkpt>
<trkpt lat="46.61902201" lon="6.39392797"><ele>729.780029</ele><time>2008-08-06T14:16:14Z</time></trkpt>
<trkpt lat="46.61917800" lon="6.39413601"><ele>729.299988</ele><time>2008-08-06T14:16:18Z</time></trkpt>
<trkpt lat="46.61925101" lon="6.39425000"><ele>729.780029</ele><time>2008-08-06T14:16:20Z</time></trkpt>
<trkpt lat="46.61943398" lon="6.39458000"><ele>730.26001</ele><time>2008-08-06T14:16:26Z</time></trkpt>
<trkpt lat="46.61956298" lon="6.39493698"><ele>730.73999</ele><time>2008-08-06T14:16:32Z</time></trkpt>
<trkpt lat="46.61984000" lon="6.39548097"><ele>733.140015</ele><time>2008-08-06T14:16:44Z</time></trkpt>
<trkpt lat="46.62005399" lon="6.39592404"><ele>735.070007</ele><time>2008-08-06T14:16:56Z</time></trkpt>
<trkpt lat="46.62029698" lon="6.39615797"><ele>736.030029</ele><time>2008-08-06T14:17:07Z</time></trkpt>
<trkpt lat="46.62053604" lon="6.39573804"><ele>739.869995</ele><time>2008-08-06T14:17:20Z</time></trkpt>
<trkpt lat="46.62088498" lon="6.39533797"><ele>742.76001</ele><time>2008-08-06T14:17:32Z</time></trkpt>
<trkpt lat="46.62109000" lon="6.39485803"><ele>745.640015</ele><time>2008-08-06T14:17:43Z</time></trkpt>
<trkpt lat="46.62110299" lon="6.39464404"><ele>747.080017</ele><time>2008-08-06T14:17:47Z</time></trkpt>
<trkpt lat="46.62125898" lon="6.39464303"><ele>748.52002</ele><time>2008-08-06T14:17:54Z</time></trkpt>
<trkpt lat="46.62182601" lon="6.39565598"><ele>747.559998</ele><time>2008-08-06T14:18:11Z</time></trkpt>
<trkpt lat="46.62245600" lon="6.39681897"><ele>746.599976</ele><time>2008-08-06T14:18:27Z</time></trkpt>
<trkpt lat="46.62326099" lon="6.39807299"><ele>745.640015</ele><time>2008-08-06T14:18:44Z</time></trkpt>
<trkpt lat="46.62394797" lon="6.39915601"><ele>742.280029</ele><time>2008-08-06T14:18:57Z</time></trkpt>
<trkpt lat="46.62409902" lon="6.39943899"><ele>741.309998</ele><time>2008-08-06T14:19:00Z</time></trkpt>
<trkpt lat="46.62466597" lon="6.40056803"><ele>738.909973</ele><time>2008-08-06T14:19:12Z</time></trkpt>
<trkpt lat="46.62493201" lon="6.40086601"><ele>737.469971</ele><time>2008-08-06T14:19:16Z</time></trkpt>
<trkpt lat="46.62576903" lon="6.40161300"><ele>736.98999</ele><time>2008-08-06T14:19:29Z</time></trkpt>
<trkpt lat="46.62642902" lon="6.40226704"><ele>739.869995</ele><time>2008-08-06T14:19:44Z</time></trkpt>
<trkpt lat="46.62663404" lon="6.40245496"><ele>740.830017</ele><time>2008-08-06T14:19:49Z</time></trkpt>
<trkpt lat="46.62700703" lon="6.40290096"><ele>742.280029</ele><time>2008-08-06T14:19:59Z</time></trkpt>
<trkpt lat="46.62718398" lon="6.40279703"><ele>743.23999</ele><time>2008-08-06T14:20:04Z</time></trkpt>
<trkpt lat="46.62731700" lon="6.40227098"><ele>746.599976</ele><time>2008-08-06T14:20:19Z</time></trkpt>
<trkpt lat="46.62738397" lon="6.40203402"><ele>748.039978</ele><time>2008-08-06T14:20:29Z</time></trkpt>
<trkpt lat="46.62743904" lon="6.40179698"><ele>749</ele><time>2008-08-06T14:20:38Z</time></trkpt>
<trkpt lat="46.62746804" lon="6.40163898"><ele>749.969971</ele><time>2008-08-06T14:20:44Z</time></trkpt>
<trkpt lat="46.62772201" lon="6.40132299"><ele>752.849976</ele><time>2008-08-06T14:21:03Z</time></trkpt>
<trkpt lat="46.62779602" lon="6.40121100"><ele>753.809998</ele><time>2008-08-06T14:21:09Z</time></trkpt>
<trkpt lat="46.62791496" lon="6.40091797"><ele>757.179993</ele><time>2008-08-06T14:21:25Z</time></trkpt>
<trkpt lat="46.62794203" lon="6.40064003"><ele>759.580017</ele><time>2008-08-06T14:21:39Z</time></trkpt>
<trkpt lat="46.62791597" lon="6.40026603"><ele>762.460022</ele><time>2008-08-06T14:21:54Z</time></trkpt>
<trkpt lat="46.62792401" lon="6.39993402"><ele>764.869995</ele><time>2008-08-06T14:22:07Z</time></trkpt>
<trkpt lat="46.62796500" lon="6.39973504"><ele>766.309998</ele><time>2008-08-06T14:22:16Z</time></trkpt>
<trkpt lat="46.62808302" lon="6.39947201"><ele>769.669983</ele><time>2008-08-06T14:22:31Z</time></trkpt>
<trkpt lat="46.62816298" lon="6.39913799"><ele>773.039978</ele><time>2008-08-06T14:22:49Z</time></trkpt>
<trkpt lat="46.62829500" lon="6.39902903"><ele>774.960022</ele><time>2008-08-06T14:23:02Z</time></trkpt>
<trkpt lat="46.62839399" lon="6.39883599"><ele>776.400024</ele><time>2008-08-06T14:23:14Z</time></trkpt>
<trkpt lat="46.62860102" lon="6.39884002"><ele>777.840027</ele><time>2008-08-06T14:23:24Z</time></trkpt>
<trkpt lat="46.62877796" lon="6.39883901"><ele>779.77002</ele><time>2008-08-06T14:23:39Z</time></trkpt>
<trkpt lat="46.62891601" lon="6.39890699"><ele>781.690002</ele><time>2008-08-06T14:23:52Z</time></trkpt>
<trkpt lat="46.62895197" lon="6.39858001"><ele>783.130005</ele><time>2008-08-06T14:24:15Z</time></trkpt>
<trkpt lat="46.62894602" lon="6.39834104"><ele>784.090027</ele><time>2008-08-06T14:24:23Z</time></trkpt>
<trkpt lat="46.62903696" lon="6.39807902"><ele>786.02002</ele><time>2008-08-06T14:24:36Z</time></trkpt>
<trkpt lat="46.62904400" lon="6.39788297"><ele>788.419983</ele><time>2008-08-06T14:24:47Z</time></trkpt>
<trkpt lat="46.62906303" lon="6.39775498"><ele>788.900024</ele><time>2008-08-06T14:24:53Z</time></trkpt>
<trkpt lat="46.62906102" lon="6.39756898"><ele>791.299988</ele><time>2008-08-06T14:25:05Z</time></trkpt>
<trkpt lat="46.62903302" lon="6.39741199"><ele>793.219971</ele><time>2008-08-06T14:25:15Z</time></trkpt>
<trkpt lat="46.62923402" lon="6.39712600"><ele>795.150024</ele><time>2008-08-06T14:25:33Z</time></trkpt>
<trkpt lat="46.62929898" lon="6.39703103"><ele>796.109985</ele><time>2008-08-06T14:25:39Z</time></trkpt>
<trkpt lat="46.62936201" lon="6.39674303"><ele>796.590027</ele><time>2008-08-06T14:25:52Z</time></trkpt>
<trkpt lat="46.62935698" lon="6.39654103"><ele>797.070007</ele><time>2008-08-06T14:26:00Z</time></trkpt>
<trkpt lat="46.62944198" lon="6.39622503"><ele>798.030029</ele><time>2008-08-06T14:26:15Z</time></trkpt>
<trkpt lat="46.62959201" lon="6.39607701"><ele>798.51001</ele><time>2008-08-06T14:26:25Z</time></trkpt>
<trkpt lat="46.62970098" lon="6.39604004"><ele>799.950012</ele><time>2008-08-06T14:26:33Z</time></trkpt>
<trkpt lat="46.62980902" lon="6.39607097"><ele>800.919983</ele><time>2008-08-06T14:26:41Z</time></trkpt>
<trkpt lat="46.62998697" lon="6.39611397"><ele>802.359985</ele><time>2008-08-06T14:26:53Z</time></trkpt>
<trkpt lat="46.63021102" lon="6.39614297"><ele>804.76001</ele><time>2008-08-06T14:27:15Z</time></trkpt>
<trkpt lat="46.63039701" lon="6.39615001"><ele>807.159973</ele><time>2008-08-06T14:27:40Z</time></trkpt>
<trkpt lat="46.63049399" lon="6.39612101"><ele>809.570007</ele><time>2008-08-06T14:28:05Z</time></trkpt>
<trkpt lat="46.63064302" lon="6.39617801"><ele>812.450012</ele><time>2008-08-06T14:28:32Z</time></trkpt>
<trkpt lat="46.63081803" lon="6.39635797"><ele>813.890015</ele><time>2008-08-06T14:28:53Z</time></trkpt>
<trkpt lat="46.63102699" lon="6.39632503"><ele>815.820007</ele><time>2008-08-06T14:29:15Z</time></trkpt>
<trkpt lat="46.63116002" lon="6.39628798"><ele>817.73999</ele><time>2008-08-06T14:29:28Z</time></trkpt>
<trkpt lat="46.63128499" lon="6.39626803"><ele>820.140015</ele><time>2008-08-06T14:29:41Z</time></trkpt>
<trkpt lat="46.63139999" lon="6.39625998"><ele>821.580017</ele><time>2008-08-06T14:29:53Z</time></trkpt>
<trkpt lat="46.63149102" lon="6.39618203"><ele>822.549988</ele><time>2008-08-06T14:30:01Z</time></trkpt>
<trkpt lat="46.63146403" lon="6.39601297"><ele>822.059998</ele><time>2008-08-06T14:30:16Z</time></trkpt>
<trkpt lat="46.63124601" lon="6.39587400"><ele>820.619995</ele><time>2008-08-06T14:30:32Z</time></trkpt>
<trkpt lat="46.63115398" lon="6.39561097"><ele>820.140015</ele><time>2008-08-06T14:30:41Z</time></trkpt>
<trkpt lat="46.63103102" lon="6.39548700"><ele>819.179993</ele><time>2008-08-06T14:30:50Z</time></trkpt>
<trkpt lat="46.63205001" lon="6.39418303"><ele>818.700012</ele><time>2008-08-06T14:31:04Z</time></trkpt>
<trkpt lat="46.63178799" lon="6.39444103"><ele>818.700012</ele><time>2008-08-06T14:31:09Z</time></trkpt>
<trkpt lat="46.63152899" lon="6.39462803"><ele>819.659973</ele><time>2008-08-06T14:31:20Z</time></trkpt>
<trkpt lat="46.63143000" lon="6.39438998"><ele>820.619995</ele><time>2008-08-06T14:31:32Z</time></trkpt>
<trkpt lat="46.63137702" lon="6.39416300"><ele>821.099976</ele><time>2008-08-06T14:31:37Z</time></trkpt>
<trkpt lat="46.63137903" lon="6.39378397"><ele>821.580017</ele><time>2008-08-06T14:31:49Z</time></trkpt>
<trkpt lat="46.63144299" lon="6.39326697"><ele>823.030029</ele><time>2008-08-06T14:33:49Z</time></trkpt>
<trkpt lat="46.63154097" lon="6.39260103"><ele>823.98999</ele><time>2008-08-06T14:33:58Z</time></trkpt>
<trkpt lat="46.63164801" lon="6.39193199"><ele>825.429993</ele><time>2008-08-06T14:34:11Z</time></trkpt>
<trkpt lat="46.63168799" lon="6.39143896"><ele>827.830017</ele><time>2008-08-06T14:34:24Z</time></trkpt>
<trkpt lat="46.63179100" lon="6.39101400"><ele>830.23999</ele><time>2008-08-06T14:34:36Z</time></trkpt>
<trkpt lat="46.63191598" lon="6.39071099"><ele>832.159973</ele><time>2008-08-06T14:34:48Z</time></trkpt>
<trkpt lat="46.63198697" lon="6.39025703"><ele>834.559998</ele><time>2008-08-06T14:35:01Z</time></trkpt>
<trkpt lat="46.63198102" lon="6.38980701"><ele>836.960022</ele><time>2008-08-06T14:35:15Z</time></trkpt>
<trkpt lat="46.63198496" lon="6.38928096"><ele>839.849976</ele><time>2008-08-06T14:35:29Z</time></trkpt>
<trkpt lat="46.63224304" lon="6.38895004"><ele>842.72998</ele><time>2008-08-06T14:35:46Z</time></trkpt>
<trkpt lat="46.63233901" lon="6.38887603"><ele>847.539978</ele><time>2008-08-06T14:39:13Z</time></trkpt>
<trkpt lat="46.63253197" lon="6.38860303"><ele>849.460022</ele><time>2008-08-06T14:39:27Z</time></trkpt>
<trkpt lat="46.63263699" lon="6.38826197"><ele>851.380005</ele><time>2008-08-06T14:39:40Z</time></trkpt>
<trkpt lat="46.63278703" lon="6.38788302"><ele>853.789978</ele><time>2008-08-06T14:39:52Z</time></trkpt>
<trkpt lat="46.63293798" lon="6.38777004"><ele>857.150024</ele><time>2008-08-06T14:42:54Z</time></trkpt>
<trkpt lat="46.63320998" lon="6.38768203"><ele>858.590027</ele><time>2008-08-06T14:43:06Z</time></trkpt>
<trkpt lat="46.63343302" lon="6.38758304"><ele>859.559998</ele><time>2008-08-06T14:43:16Z</time></trkpt>
<trkpt lat="46.63356696" lon="6.38749603"><ele>860.52002</ele><time>2008-08-06T14:43:22Z</time></trkpt>
<trkpt lat="46.63382102" lon="6.38734097"><ele>862.440002</ele><time>2008-08-06T14:43:34Z</time></trkpt>
<trkpt lat="46.63414900" lon="6.38708599"><ele>864.840027</ele><time>2008-08-06T14:43:45Z</time></trkpt>
<trkpt lat="46.63440297" lon="6.38676496"><ele>866.77002</ele><time>2008-08-06T14:43:56Z</time></trkpt>
<trkpt lat="46.63469802" lon="6.38654200"><ele>868.690002</ele><time>2008-08-06T14:44:07Z</time></trkpt>
<trkpt lat="46.63496498" lon="6.38635500"><ele>870.609985</ele><time>2008-08-06T14:44:18Z</time></trkpt>
<trkpt lat="46.63515802" lon="6.38616004"><ele>872.049988</ele><time>2008-08-06T14:44:27Z</time></trkpt>
<trkpt lat="46.63536496" lon="6.38585100"><ele>873.97998</ele><time>2008-08-06T14:44:38Z</time></trkpt>
<trkpt lat="46.63556001" lon="6.38553802"><ele>875.900024</ele><time>2008-08-06T14:44:49Z</time></trkpt>
<trkpt lat="46.63567300" lon="6.38523099"><ele>877.340027</ele><time>2008-08-06T14:44:59Z</time></trkpt>
<trkpt lat="46.63572002" lon="6.38495598"><ele>878.780029</ele><time>2008-08-06T14:45:07Z</time></trkpt>
<trkpt lat="46.63591599" lon="6.38438400"><ele>881.669983</ele><time>2008-08-06T14:45:22Z</time></trkpt>
<trkpt lat="46.63596000" lon="6.38424000"><ele>882.630005</ele><time>2008-08-06T14:45:27Z</time></trkpt>
<trkpt lat="46.63604197" lon="6.38387396"><ele>884.070007</ele><time>2008-08-06T14:45:39Z</time></trkpt>
<trkpt lat="46.63606301" lon="6.38355503"><ele>885.98999</ele><time>2008-08-06T14:45:49Z</time></trkpt>
<trkpt lat="46.63624599" lon="6.38324599"><ele>888.400024</ele><time>2008-08-06T14:46:02Z</time></trkpt>
<trkpt lat="46.63639803" lon="6.38289303"><ele>890.799988</ele><time>2008-08-06T14:46:15Z</time></trkpt>
<trkpt lat="46.63662803" lon="6.38254199"><ele>894.640015</ele><time>2008-08-06T14:46:34Z</time></trkpt>
<trkpt lat="46.63689299" lon="6.38232800"><ele>897.049988</ele><time>2008-08-06T14:46:47Z</time></trkpt>
<trkpt lat="46.63719499" lon="6.38209800"><ele>899.929993</ele><time>2008-08-06T14:47:04Z</time></trkpt>
<trkpt lat="46.63725500" lon="6.38198300"><ele>901.369995</ele><time>2008-08-06T14:47:11Z</time></trkpt>
<trkpt lat="46.63732298" lon="6.38186499"><ele>902.330017</ele><time>2008-08-06T14:47:16Z</time></trkpt>
<trkpt lat="46.63750403" lon="6.38176398"><ele>905.219971</ele><time>2008-08-06T14:47:31Z</time></trkpt>
<trkpt lat="46.63766596" lon="6.38151797"><ele>907.619995</ele><time>2008-08-06T14:47:45Z</time></trkpt>
<trkpt lat="46.63771600" lon="6.38137800"><ele>908.580017</ele><time>2008-08-06T14:47:53Z</time></trkpt>
<trkpt lat="46.63786897" lon="6.38082798"><ele>910.98999</ele><time>2008-08-06T14:48:09Z</time></trkpt>
<trkpt lat="46.63792698" lon="6.38044601"><ele>913.390015</ele><time>2008-08-06T14:48:22Z</time></trkpt>
<trkpt lat="46.63797501" lon="6.38028801"><ele>914.349976</ele><time>2008-08-06T14:48:28Z</time></trkpt>
<trkpt lat="46.63787803" lon="6.37998803"><ele>915.309998</ele><time>2008-08-06T14:48:39Z</time></trkpt>
<trkpt lat="46.63796302" lon="6.37989398"><ele>916.75</ele><time>2008-08-06T14:48:54Z</time></trkpt>
<trkpt lat="46.63796503" lon="6.37965702"><ele>918.200012</ele><time>2008-08-06T14:49:04Z</time></trkpt>
<trkpt lat="46.63799797" lon="6.37940498"><ele>919.159973</ele><time>2008-08-06T14:49:10Z</time></trkpt>
<trkpt lat="46.63796503" lon="6.37905202"><ele>920.599976</ele><time>2008-08-06T14:49:24Z</time></trkpt>
<trkpt lat="46.63782396" lon="6.37871498"><ele>922.039978</ele><time>2008-08-06T14:49:38Z</time></trkpt>
<trkpt lat="46.63786403" lon="6.37854600"><ele>923.960022</ele><time>2008-08-06T14:49:53Z</time></trkpt>
<trkpt lat="46.63789001" lon="6.37836403"><ele>925.409973</ele><time>2008-08-06T14:50:08Z</time></trkpt>
<trkpt lat="46.63788398" lon="6.37809799"><ele>926.849976</ele><time>2008-08-06T14:50:23Z</time></trkpt>
<trkpt lat="46.63796101" lon="6.37792197"><ele>928.289978</ele><time>2008-08-06T14:50:40Z</time></trkpt>
<trkpt lat="46.63793704" lon="6.37768300"><ele>929.72998</ele><time>2008-08-06T14:50:55Z</time></trkpt>
<trkpt lat="46.63789102" lon="6.37751101"><ele>931.169983</ele><time>2008-08-06T14:51:12Z</time></trkpt>
<trkpt lat="46.63786302" lon="6.37734303"><ele>931.650024</ele><time>2008-08-06T14:51:21Z</time></trkpt>
<trkpt lat="46.63761199" lon="6.37728796"><ele>932.140015</ele><time>2008-08-06T14:51:29Z</time></trkpt>
<trkpt lat="46.63751098" lon="6.37719098"><ele>932.140015</ele><time>2008-08-06T14:51:33Z</time></trkpt>
<trkpt lat="46.63744602" lon="6.37692704"><ele>932.619995</ele><time>2008-08-06T14:51:52Z</time></trkpt>
<trkpt lat="46.63857498" lon="6.37595499"><ele>933.099976</ele><time>2008-08-06T14:52:12Z</time></trkpt>
<trkpt lat="46.63907002" lon="6.37581501"><ele>933.580017</ele><time>2008-08-06T14:52:28Z</time></trkpt>
<trkpt lat="46.63907999" lon="6.37566498"><ele>934.059998</ele><time>2008-08-06T14:52:39Z</time></trkpt>
<trkpt lat="46.63917303" lon="6.37558602"><ele>934.059998</ele><time>2008-08-06T14:52:48Z</time></trkpt>
<trkpt lat="46.63924201" lon="6.37500297"><ele>934.539978</ele><time>2008-08-06T14:53:03Z</time></trkpt>
<trkpt lat="46.63936498" lon="6.37471204"><ele>935.02002</ele><time>2008-08-06T14:53:14Z</time></trkpt>
<trkpt lat="46.63952901" lon="6.37444499"><ele>935.5</ele><time>2008-08-06T14:53:25Z</time></trkpt>
<trkpt lat="46.63970796" lon="6.37422698"><ele>935.97998</ele><time>2008-08-06T14:53:29Z</time></trkpt>
<trkpt lat="46.63979304" lon="6.37410996"><ele>935.97998</ele><time>2008-08-06T14:53:33Z</time></trkpt>
<trkpt lat="46.63980997" lon="6.37388902"><ele>936.460022</ele><time>2008-08-06T14:53:48Z</time></trkpt>
<trkpt lat="46.63980603" lon="6.37369003"><ele>936.460022</ele><time>2008-08-06T14:53:54Z</time></trkpt>
<trkpt lat="46.63981399" lon="6.37340999"><ele>936.940002</ele><time>2008-08-06T14:54:07Z</time></trkpt>
<trkpt lat="46.63982498" lon="6.37317899"><ele>937.419983</ele><time>2008-08-06T14:54:21Z</time></trkpt>
<trkpt lat="46.63954603" lon="6.37296500"><ele>937.900024</ele><time>2008-08-06T14:54:28Z</time></trkpt>
<trkpt lat="46.63711502" lon="6.37096097"><ele>938.380005</ele><time>2008-08-06T14:54:40Z</time></trkpt>
<trkpt lat="46.63664103" lon="6.37070197"><ele>938.859985</ele><time>2008-08-06T14:54:49Z</time></trkpt>
<trkpt lat="46.63679198" lon="6.37063701"><ele>940.309998</ele><time>2008-08-06T14:55:01Z</time></trkpt>
<trkpt lat="46.63878202" lon="6.37158701"><ele>941.75</ele><time>2008-08-06T14:55:11Z</time></trkpt>
<trkpt lat="46.63888603" lon="6.37155399"><ele>942.710022</ele><time>2008-08-06T14:55:16Z</time></trkpt>
<trkpt lat="46.63884597" lon="6.37137101"><ele>943.669983</ele><time>2008-08-06T14:55:29Z</time></trkpt>
<trkpt lat="46.63889903" lon="6.37122600"><ele>944.630005</ele><time>2008-08-06T14:55:53Z</time></trkpt>
<trkpt lat="46.63911100" lon="6.37125702"><ele>951.840027</ele><time>2008-08-06T14:56:49Z</time></trkpt>
<trkpt lat="46.63940898" lon="6.37144997"><ele>954.25</ele><time>2008-08-06T14:57:10Z</time></trkpt>
<trkpt lat="46.63950403" lon="6.37145198"><ele>955.210022</ele><time>2008-08-06T14:57:15Z</time></trkpt>
<trkpt lat="46.63970796" lon="6.37144502"><ele>957.609985</ele><time>2008-08-06T14:57:31Z</time></trkpt>
<trkpt lat="46.63985297" lon="6.37133304"><ele>960.97998</ele><time>2008-08-06T14:57:47Z</time></trkpt>
<trkpt lat="46.64008800" lon="6.37104504"><ele>965.780029</ele><time>2008-08-06T14:58:07Z</time></trkpt>
<trkpt lat="46.64017299" lon="6.37087103"><ele>968.669983</ele><time>2008-08-06T14:58:21Z</time></trkpt>
<trkpt lat="46.64020501" lon="6.37071102"><ele>970.590027</ele><time>2008-08-06T14:58:33Z</time></trkpt>
<trkpt lat="46.64042604" lon="6.37046803"><ele>972.98999</ele><time>2008-08-06T14:58:46Z</time></trkpt>
<trkpt lat="46.64052696" lon="6.37054204"><ele>973.950012</ele><time>2008-08-06T14:58:54Z</time></trkpt>
<trkpt lat="46.64042403" lon="6.37103397"><ele>974.909973</ele><time>2008-08-06T14:59:12Z</time></trkpt>
<trkpt lat="46.64043702" lon="6.37128099"><ele>975.390015</ele><time>2008-08-06T14:59:19Z</time></trkpt>
<trkpt lat="46.64052302" lon="6.37156597"><ele>974.909973</ele><time>2008-08-06T14:59:25Z</time></trkpt>
<trkpt lat="46.64060097" lon="6.37172598"><ele>974.909973</ele><time>2008-08-06T14:59:29Z</time></trkpt>
<trkpt lat="46.64092300" lon="6.37215799"><ele>972.98999</ele><time>2008-08-06T14:59:38Z</time></trkpt>
<trkpt lat="46.64154704" lon="6.37294102"><ele>971.070007</ele><time>2008-08-06T14:59:51Z</time></trkpt>
<trkpt lat="46.64163999" lon="6.37309299"><ele>970.590027</ele><time>2008-08-06T14:59:53Z</time></trkpt>
<trkpt lat="46.64172197" lon="6.37377201"><ele>970.109985</ele><time>2008-08-06T15:00:03Z</time></trkpt>
<trkpt lat="46.64174200" lon="6.37405196"><ele>970.109985</ele><time>2008-08-06T15:00:07Z</time></trkpt>
<trkpt lat="46.64178299" lon="6.37441398"><ele>970.109985</ele><time>2008-08-06T15:00:12Z</time></trkpt>
<trkpt lat="46.64176798" lon="6.37527798"><ele>972.030029</ele><time>2008-08-06T15:00:27Z</time></trkpt>
<trkpt lat="46.64166799" lon="6.37573698"><ele>972.98999</ele><time>2008-08-06T15:00:37Z</time></trkpt>
<trkpt lat="46.64150597" lon="6.37599497"><ele>974.429993</ele><time>2008-08-06T15:00:45Z</time></trkpt>
<trkpt lat="46.64135601" lon="6.37643997"><ele>975.880005</ele><time>2008-08-06T15:00:57Z</time></trkpt>
<trkpt lat="46.64128703" lon="6.37676502"><ele>977.320007</ele><time>2008-08-06T15:01:06Z</time></trkpt>
<trkpt lat="46.64115300" lon="6.37699996"><ele>978.280029</ele><time>2008-08-06T15:01:12Z</time></trkpt>
<trkpt lat="46.64100003" lon="6.37740699"><ele>981.159973</ele><time>2008-08-06T15:01:26Z</time></trkpt>
<trkpt lat="46.64089400" lon="6.37795298"><ele>983.090027</ele><time>2008-08-06T15:01:39Z</time></trkpt>
<trkpt lat="46.64085000" lon="6.37855598"><ele>982.119995</ele><time>2008-08-06T15:01:50Z</time></trkpt>
<trkpt lat="46.64092996" lon="6.37884297"><ele>980.679993</ele><time>2008-08-06T15:01:55Z</time></trkpt>
<trkpt lat="46.64103298" lon="6.37968603"><ele>977.320007</ele><time>2008-08-06T15:02:04Z</time></trkpt>
<trkpt lat="46.64107304" lon="6.38056001"><ele>974.429993</ele><time>2008-08-06T15:02:13Z</time></trkpt>
<trkpt lat="46.64138703" lon="6.38103199"><ele>973.469971</ele><time>2008-08-06T15:02:20Z</time></trkpt>
<trkpt lat="46.64151301" lon="6.38120499"><ele>973.469971</ele><time>2008-08-06T15:02:23Z</time></trkpt>
<trkpt lat="46.64195498" lon="6.38184001"><ele>975.880005</ele><time>2008-08-06T15:02:38Z</time></trkpt>
<trkpt lat="46.64210997" lon="6.38210999"><ele>976.359985</ele><time>2008-08-06T15:02:44Z</time></trkpt>
<trkpt lat="46.64217501" lon="6.38230696"><ele>975.880005</ele><time>2008-08-06T15:02:47Z</time></trkpt>
<trkpt lat="46.64225799" lon="6.38274601"><ele>973.950012</ele><time>2008-08-06T15:02:53Z</time></trkpt>
<trkpt lat="46.64228397" lon="6.38292002"><ele>972.98999</ele><time>2008-08-06T15:02:55Z</time></trkpt>
<trkpt lat="46.64230904" lon="6.38342997"><ele>971.070007</ele><time>2008-08-06T15:03:00Z</time></trkpt>
<trkpt lat="46.64229202" lon="6.38375997"><ele>970.109985</ele><time>2008-08-06T15:03:04Z</time></trkpt>
<trkpt lat="46.64224802" lon="6.38412902"><ele>969.630005</ele><time>2008-08-06T15:03:09Z</time></trkpt>
<trkpt lat="46.64228297" lon="6.38440403"><ele>969.630005</ele><time>2008-08-06T15:03:13Z</time></trkpt>
<trkpt lat="46.64240199" lon="6.38448198"><ele>970.590027</ele><time>2008-08-06T15:03:18Z</time></trkpt>
<trkpt lat="46.64255697" lon="6.38438199"><ele>971.549988</ele><time>2008-08-06T15:03:24Z</time></trkpt>
<trkpt lat="46.64255697" lon="6.38420898"><ele>972.51001</ele><time>2008-08-06T15:03:29Z</time></trkpt>
<trkpt lat="46.64262503" lon="6.38395501"><ele>974.909973</ele><time>2008-08-06T15:03:44Z</time></trkpt>
<trkpt lat="46.64280700" lon="6.38370599"><ele>978.76001</ele><time>2008-08-06T15:04:03Z</time></trkpt>
<trkpt lat="46.64299199" lon="6.38351798"><ele>982.119995</ele><time>2008-08-06T15:04:21Z</time></trkpt>
<trkpt lat="46.64315100" lon="6.38342000"><ele>985.01001</ele><time>2008-08-06T15:04:42Z</time></trkpt>
<trkpt lat="46.64321504" lon="6.38322998"><ele>988.369995</ele><time>2008-08-06T15:05:01Z</time></trkpt>
<trkpt lat="46.64334504" lon="6.38312101"><ele>991.73999</ele><time>2008-08-06T15:05:24Z</time></trkpt>
<trkpt lat="46.64360798" lon="6.38300199"><ele>994.619995</ele><time>2008-08-06T15:05:45Z</time></trkpt>
<trkpt lat="46.64378299" lon="6.38286000"><ele>997.02002</ele><time>2008-08-06T15:06:00Z</time></trkpt>
<trkpt lat="46.64399497" lon="6.38262204"><ele>999.909973</ele><time>2008-08-06T15:06:20Z</time></trkpt>
<trkpt lat="46.64407804" lon="6.38237896"><ele>1003.27002</ele><time>2008-08-06T15:06:41Z</time></trkpt>
<trkpt lat="46.64417996" lon="6.38239204"><ele>1006.159973</ele><time>2008-08-06T15:06:59Z</time></trkpt>
<trkpt lat="46.64436696" lon="6.38256798"><ele>1009.52002</ele><time>2008-08-06T15:07:18Z</time></trkpt>
<trkpt lat="46.64451004" lon="6.38286796"><ele>1012.409973</ele><time>2008-08-06T15:07:40Z</time></trkpt>
<trkpt lat="46.64465203" lon="6.38318698"><ele>1014.809998</ele><time>2008-08-06T15:08:01Z</time></trkpt>
<trkpt lat="46.64477499" lon="6.38345503"><ele>1018.169983</ele><time>2008-08-06T15:08:21Z</time></trkpt>
<trkpt lat="46.64485697" lon="6.38363902"><ele>1021.539978</ele><time>2008-08-06T15:08:38Z</time></trkpt>
<trkpt lat="46.64495101" lon="6.38368403"><ele>1024.900024</ele><time>2008-08-06T15:08:57Z</time></trkpt>
<trkpt lat="46.64509602" lon="6.38360297"><ele>1030.189941</ele><time>2008-08-06T15:09:33Z</time></trkpt>
<trkpt lat="46.64524304" lon="6.38338597"><ele>1032.109985</ele><time>2008-08-06T15:09:52Z</time></trkpt>
<trkpt lat="46.64522602" lon="6.38318103"><ele>1033.550049</ele><time>2008-08-06T15:10:11Z</time></trkpt>
<trkpt lat="46.64518604" lon="6.38296301"><ele>1037.880005</ele><time>2008-08-06T15:10:47Z</time></trkpt>
<trkpt lat="46.64507104" lon="6.38273997"><ele>1039.800049</ele><time>2008-08-06T15:11:03Z</time></trkpt>
<trkpt lat="46.64506400" lon="6.38255498"><ele>1040.76001</ele><time>2008-08-06T15:11:13Z</time></trkpt>
<trkpt lat="46.64506702" lon="6.38232800"><ele>1043.170044</ele><time>2008-08-06T15:11:32Z</time></trkpt>
<trkpt lat="46.64502704" lon="6.38213304"><ele>1045.089966</ele><time>2008-08-06T15:11:48Z</time></trkpt>
<trkpt lat="46.64496300" lon="6.38199599"><ele>1045.569946</ele><time>2008-08-06T15:11:53Z</time></trkpt>
<trkpt lat="46.64491204" lon="6.38188301"><ele>1046.050049</ele><time>2008-08-06T15:11:58Z</time></trkpt>
<trkpt lat="46.64484800" lon="6.38173498"><ele>1047.48999</ele><time>2008-08-06T15:12:06Z</time></trkpt>
<trkpt lat="46.64467399" lon="6.38131396"><ele>1049.900024</ele><time>2008-08-06T15:12:25Z</time></trkpt>
<trkpt lat="46.64457198" lon="6.38115303"><ele>1051.339966</ele><time>2008-08-06T15:12:36Z</time></trkpt>
<trkpt lat="46.64446402" lon="6.38097399"><ele>1053.26001</ele><time>2008-08-06T15:12:51Z</time></trkpt>
<trkpt lat="46.64441197" lon="6.38083301"><ele>1054.699951</ele><time>2008-08-06T15:13:03Z</time></trkpt>
<trkpt lat="46.64443301" lon="6.38064601"><ele>1057.109985</ele><time>2008-08-06T15:13:19Z</time></trkpt>
<trkpt lat="46.64444500" lon="6.38032498"><ele>1059.51001</ele><time>2008-08-06T15:13:41Z</time></trkpt>
<trkpt lat="46.64436503" lon="6.38009498"><ele>1061.430054</ele><time>2008-08-06T15:14:00Z</time></trkpt>
<trkpt lat="46.64427199" lon="6.37997998"><ele>1062.390015</ele><time>2008-08-06T15:14:06Z</time></trkpt>
<trkpt lat="46.64429597" lon="6.37960296"><ele>1065.280029</ele><time>2008-08-06T15:14:28Z</time></trkpt>
<trkpt lat="46.64400897" lon="6.37922896"><ele>1066.23999</ele><time>2008-08-06T15:14:41Z</time></trkpt>
<trkpt lat="46.64748000" lon="6.37796396"><ele>1067.199951</ele><time>2008-08-06T15:14:49Z</time></trkpt>
<trkpt lat="46.64771302" lon="6.37785600"><ele>1068.160034</ele><time>2008-08-06T15:14:58Z</time></trkpt>
<trkpt lat="46.64699100" lon="6.37767102"><ele>1069.599976</ele><time>2008-08-06T15:15:12Z</time></trkpt>
<trkpt lat="46.64719200" lon="6.37809799"><ele>1070.079956</ele><time>2008-08-06T15:15:29Z</time></trkpt>
<trkpt lat="46.64734103" lon="6.37836202"><ele>1071.050049</ele><time>2008-08-06T15:15:39Z</time></trkpt>
<trkpt lat="46.64763196" lon="6.37869403"><ele>1072.01001</ele><time>2008-08-06T15:15:52Z</time></trkpt>
<trkpt lat="46.64783103" lon="6.37888203"><ele>1072.48999</ele><time>2008-08-06T15:16:04Z</time></trkpt>
<trkpt lat="46.64817603" lon="6.37937497"><ele>1074.410034</ele><time>2008-08-06T15:16:21Z</time></trkpt>
<trkpt lat="46.64838701" lon="6.37957103"><ele>1076.329956</ele><time>2008-08-06T15:16:32Z</time></trkpt>
<trkpt lat="46.64868398" lon="6.37959198"><ele>1077.780029</ele><time>2008-08-06T15:16:43Z</time></trkpt>
<trkpt lat="46.64897399" lon="6.37977697"><ele>1079.219971</ele><time>2008-08-06T15:16:53Z</time></trkpt>
<trkpt lat="46.64915504" lon="6.38024300"><ele>1080.180054</ele><time>2008-08-06T15:17:05Z</time></trkpt>
<trkpt lat="46.64946400" lon="6.38057803"><ele>1081.619995</ele><time>2008-08-06T15:17:17Z</time></trkpt>
<trkpt lat="46.64960699" lon="6.38054299"><ele>1082.579956</ele><time>2008-08-06T15:17:24Z</time></trkpt>
<trkpt lat="46.64993204" lon="6.38049899"><ele>1084.02002</ele><time>2008-08-06T15:17:35Z</time></trkpt>
<trkpt lat="46.65020898" lon="6.38058800"><ele>1084.98999</ele><time>2008-08-06T15:17:44Z</time></trkpt>
<trkpt lat="46.65063998" lon="6.38078297"><ele>1088.349976</ele><time>2008-08-06T15:17:59Z</time></trkpt>
<trkpt lat="46.65091398" lon="6.38095203"><ele>1091.709961</ele><time>2008-08-06T15:18:13Z</time></trkpt>
<trkpt lat="46.65122604" lon="6.38093803"><ele>1093.640015</ele><time>2008-08-06T15:18:27Z</time></trkpt>
<trkpt lat="46.65150700" lon="6.38091397"><ele>1096.040039</ele><time>2008-08-06T15:18:39Z</time></trkpt>
<trkpt lat="46.65185200" lon="6.38094599"><ele>1098.920044</ele><time>2008-08-06T15:18:54Z</time></trkpt>
<trkpt lat="46.65208502" lon="6.38099704"><ele>1101.329956</ele><time>2008-08-06T15:19:06Z</time></trkpt>
<trkpt lat="46.65237503" lon="6.38108396"><ele>1104.209961</ele><time>2008-08-06T15:19:21Z</time></trkpt>
<trkpt lat="46.65265599" lon="6.38098799"><ele>1107.579956</ele><time>2008-08-06T15:19:34Z</time></trkpt>
<trkpt lat="46.65296604" lon="6.38088799"><ele>1110.459961</ele><time>2008-08-06T15:19:48Z</time></trkpt>
<trkpt lat="46.65337499" lon="6.38094298"><ele>1113.339966</ele><time>2008-08-06T15:20:06Z</time></trkpt>
<trkpt lat="46.65370499" lon="6.38126702"><ele>1116.22998</ele><time>2008-08-06T15:20:23Z</time></trkpt>
<trkpt lat="46.65399500" lon="6.38187798"><ele>1117.670044</ele><time>2008-08-06T15:20:39Z</time></trkpt>
<trkpt lat="46.65422601" lon="6.38225399"><ele>1120.069946</ele><time>2008-08-06T15:20:51Z</time></trkpt>
<trkpt lat="46.65451803" lon="6.38234703"><ele>1122.47998</ele><time>2008-08-06T15:21:02Z</time></trkpt>
<trkpt lat="46.65485800" lon="6.38248902"><ele>1125.839966</ele><time>2008-08-06T15:21:15Z</time></trkpt>
<trkpt lat="46.65508398" lon="6.38267200"><ele>1127.76001</ele><time>2008-08-06T15:21:25Z</time></trkpt>
<trkpt lat="46.65533602" lon="6.38312596"><ele>1129.689941</ele><time>2008-08-06T15:21:38Z</time></trkpt>
<trkpt lat="46.65541397" lon="6.38365502"><ele>1130.650024</ele><time>2008-08-06T15:21:50Z</time></trkpt>
<trkpt lat="46.65579996" lon="6.38393003"><ele>1131.609985</ele><time>2008-08-06T15:22:03Z</time></trkpt>
<trkpt lat="46.65622098" lon="6.38411502"><ele>1134.01001</ele><time>2008-08-06T15:22:16Z</time></trkpt>
<trkpt lat="46.65667696" lon="6.38405300"><ele>1135.939941</ele><time>2008-08-06T15:22:30Z</time></trkpt>
<trkpt lat="46.65704300" lon="6.38423002"><ele>1137.380005</ele><time>2008-08-06T15:22:42Z</time></trkpt>
<trkpt lat="46.65731097" lon="6.38466203"><ele>1140.73999</ele><time>2008-08-06T15:22:56Z</time></trkpt>
<trkpt lat="46.65762504" lon="6.38481097"><ele>1143.630005</ele><time>2008-08-06T15:23:09Z</time></trkpt>
<trkpt lat="46.65797297" lon="6.38498900"><ele>1146.98999</ele><time>2008-08-06T15:23:23Z</time></trkpt>
<trkpt lat="46.65833197" lon="6.38523200"><ele>1149.869995</ele><time>2008-08-06T15:23:37Z</time></trkpt>
<trkpt lat="46.65865601" lon="6.38557599"><ele>1153.23999</ele><time>2008-08-06T15:23:53Z</time></trkpt>
<trkpt lat="46.65880504" lon="6.38578000"><ele>1156.599976</ele><time>2008-08-06T15:24:03Z</time></trkpt>
<trkpt lat="46.65896002" lon="6.38587103"><ele>1159.48999</ele><time>2008-08-06T15:24:12Z</time></trkpt>
<trkpt lat="46.65920301" lon="6.38565201"><ele>1160.930054</ele><time>2008-08-06T15:24:24Z</time></trkpt>
<trkpt lat="46.65942203" lon="6.38528799"><ele>1162.849976</ele><time>2008-08-06T15:24:39Z</time></trkpt>
<trkpt lat="46.65962798" lon="6.38527701"><ele>1164.77002</ele><time>2008-08-06T15:25:21Z</time></trkpt>
<trkpt lat="46.65976997" lon="6.38542696"><ele>1166.219971</ele><time>2008-08-06T15:25:28Z</time></trkpt>
<trkpt lat="46.65992402" lon="6.38598100"><ele>1168.140015</ele><time>2008-08-06T15:25:43Z</time></trkpt>
<trkpt lat="46.66009996" lon="6.38652197"><ele>1170.540039</ele><time>2008-08-06T15:25:55Z</time></trkpt>
<trkpt lat="46.66028797" lon="6.38736301"><ele>1171.5</ele><time>2008-08-06T15:26:11Z</time></trkpt>
<trkpt lat="46.66060899" lon="6.38781102"><ele>1174.390015</ele><time>2008-08-06T15:26:25Z</time></trkpt>
<trkpt lat="46.66090999" lon="6.38792703"><ele>1177.27002</ele><time>2008-08-06T15:26:37Z</time></trkpt>
<trkpt lat="46.66112096" lon="6.38808603"><ele>1178.22998</ele><time>2008-08-06T15:26:49Z</time></trkpt>
<trkpt lat="46.66122397" lon="6.38824596"><ele>1179.189941</ele><time>2008-08-06T15:27:21Z</time></trkpt>
<trkpt lat="46.66129304" lon="6.38850898"><ele>1179.189941</ele><time>2008-08-06T15:27:29Z</time></trkpt>
<trkpt lat="46.66142103" lon="6.38850203"><ele>1179.670044</ele><time>2008-08-06T15:27:44Z</time></trkpt>
<trkpt lat="46.66129698" lon="6.38846196"><ele>1181.119995</ele><time>2008-08-06T15:28:29Z</time></trkpt>
<trkpt lat="46.66145003" lon="6.38846003"><ele>1180.640015</ele><time>2008-08-06T15:28:47Z</time></trkpt>
<trkpt lat="46.66167903" lon="6.38817698"><ele>1189.77002</ele><time>2008-08-06T15:33:58Z</time></trkpt>
<trkpt lat="46.66207599" lon="6.38782100"><ele>1190.25</ele><time>2008-08-06T15:34:11Z</time></trkpt>
<trkpt lat="46.66213400" lon="6.38722798"><ele>1188.810059</ele><time>2008-08-06T15:34:19Z</time></trkpt>
<trkpt lat="46.66211204" lon="6.38685398"><ele>1186.880005</ele><time>2008-08-06T15:34:23Z</time></trkpt>
<trkpt lat="46.66217297" lon="6.38663697"><ele>1185.439941</ele><time>2008-08-06T15:34:25Z</time></trkpt>
<trkpt lat="46.66226802" lon="6.38640102"><ele>1184</ele><time>2008-08-06T15:34:27Z</time></trkpt>
<trkpt lat="46.66243499" lon="6.38581797"><ele>1181.599976</ele><time>2008-08-06T15:34:31Z</time></trkpt>
<trkpt lat="46.66257698" lon="6.38535001"><ele>1176.790039</ele><time>2008-08-06T15:34:35Z</time></trkpt>
<trkpt lat="46.66271201" lon="6.38508498"><ele>1174.869995</ele><time>2008-08-06T15:34:38Z</time></trkpt>
<trkpt lat="46.66295903" lon="6.38473998"><ele>1171.02002</ele><time>2008-08-06T15:34:42Z</time></trkpt>
<trkpt lat="46.66309398" lon="6.38457502"><ele>1168.140015</ele><time>2008-08-06T15:34:44Z</time></trkpt>
<trkpt lat="46.66344199" lon="6.38451702"><ele>1165.26001</ele><time>2008-08-06T15:34:50Z</time></trkpt>
<trkpt lat="46.66368398" lon="6.38442499"><ele>1163.810059</ele><time>2008-08-06T15:34:54Z</time></trkpt>
<trkpt lat="46.66387299" lon="6.38424897"><ele>1159.969971</ele><time>2008-08-06T15:34:57Z</time></trkpt>
<trkpt lat="46.66402102" lon="6.38407504"><ele>1154.680054</ele><time>2008-08-06T15:35:01Z</time></trkpt>
<trkpt lat="46.66439300" lon="6.38363097"><ele>1148.910034</ele><time>2008-08-06T15:35:07Z</time></trkpt>
<trkpt lat="46.66461999" lon="6.38339703"><ele>1146.51001</ele><time>2008-08-06T15:35:10Z</time></trkpt>
<trkpt lat="46.66473297" lon="6.38297299"><ele>1141.699951</ele><time>2008-08-06T15:35:14Z</time></trkpt>
<trkpt lat="46.66501896" lon="6.38276604"><ele>1139.780029</ele><time>2008-08-06T15:35:20Z</time></trkpt>
<trkpt lat="46.66521200" lon="6.38290904"><ele>1139.300049</ele><time>2008-08-06T15:35:24Z</time></trkpt>
<trkpt lat="46.66542004" lon="6.38326996"><ele>1139.780029</ele><time>2008-08-06T15:35:30Z</time></trkpt>
<trkpt lat="46.66618899" lon="6.38364497"><ele>1136.420044</ele><time>2008-08-06T15:35:40Z</time></trkpt>
<trkpt lat="46.66628597" lon="6.38367598"><ele>1135.939941</ele><time>2008-08-06T15:35:41Z</time></trkpt>
<trkpt lat="46.66661798" lon="6.38362602"><ele>1131.609985</ele><time>2008-08-06T15:35:45Z</time></trkpt>
<trkpt lat="46.66687799" lon="6.38358403"><ele>1129.209961</ele><time>2008-08-06T15:35:51Z</time></trkpt>
<trkpt lat="46.66699399" lon="6.38362803"><ele>1127.280029</ele><time>2008-08-06T15:35:53Z</time></trkpt>
<trkpt lat="46.66720597" lon="6.38382602"><ele>1122.959961</ele><time>2008-08-06T15:35:57Z</time></trkpt>
<trkpt lat="46.66754200" lon="6.38404503"><ele>1117.670044</ele><time>2008-08-06T15:36:02Z</time></trkpt>
<trkpt lat="46.66791801" lon="6.38424997"><ele>1113.339966</ele><time>2008-08-06T15:36:07Z</time></trkpt>
<trkpt lat="46.66827701" lon="6.38443102"><ele>1109.5</ele><time>2008-08-06T15:36:10Z</time></trkpt>
<trkpt lat="46.66850600" lon="6.38453403"><ele>1106.130005</ele><time>2008-08-06T15:36:12Z</time></trkpt>
<trkpt lat="46.66884304" lon="6.38470796"><ele>1101.810059</ele><time>2008-08-06T15:36:15Z</time></trkpt>
<trkpt lat="46.66924696" lon="6.38479698"><ele>1096.52002</ele><time>2008-08-06T15:36:19Z</time></trkpt>
<trkpt lat="46.66948501" lon="6.38476102"><ele>1093.160034</ele><time>2008-08-06T15:36:23Z</time></trkpt>
<trkpt lat="46.66961099" lon="6.38488297"><ele>1093.160034</ele><time>2008-08-06T15:36:31Z</time></trkpt>
<trkpt lat="46.66979598" lon="6.38526100"><ele>1094.119995</ele><time>2008-08-06T15:36:44Z</time></trkpt>
<trkpt lat="46.67014500" lon="6.38583097"><ele>1095.560059</ele><time>2008-08-06T15:36:56Z</time></trkpt>
<trkpt lat="46.67029898" lon="6.38606398"><ele>1096.040039</ele><time>2008-08-06T15:37:01Z</time></trkpt>
<trkpt lat="46.67039604" lon="6.38620396"><ele>1097</ele><time>2008-08-06T15:37:04Z</time></trkpt>
<trkpt lat="46.67098403" lon="6.38666597"><ele>1093.160034</ele><time>2008-08-06T15:37:14Z</time></trkpt>
<trkpt lat="46.67172801" lon="6.38680402"><ele>1088.829956</ele><time>2008-08-06T15:37:21Z</time></trkpt>
<trkpt lat="46.67224199" lon="6.38705003"><ele>1085.469971</ele><time>2008-08-06T15:37:26Z</time></trkpt>
<trkpt lat="46.67233502" lon="6.38712698"><ele>1085.469971</ele><time>2008-08-06T15:37:27Z</time></trkpt>
<trkpt lat="46.67282696" lon="6.38748304"><ele>1081.619995</ele><time>2008-08-06T15:37:32Z</time></trkpt>
<trkpt lat="46.67328704" lon="6.38797497"><ele>1077.290039</ele><time>2008-08-06T15:37:37Z</time></trkpt>
<trkpt lat="46.67357999" lon="6.38828804"><ele>1075.369995</ele><time>2008-08-06T15:37:40Z</time></trkpt>
<trkpt lat="46.67393102" lon="6.38873999"><ele>1072.01001</ele><time>2008-08-06T15:37:44Z</time></trkpt>
<trkpt lat="46.67448096" lon="6.38907200"><ele>1068.640015</ele><time>2008-08-06T15:37:49Z</time></trkpt>
<trkpt lat="46.67507499" lon="6.38908197"><ele>1064.319946</ele><time>2008-08-06T15:37:54Z</time></trkpt>
<trkpt lat="46.67518102" lon="6.38899899"><ele>1063.359985</ele><time>2008-08-06T15:37:55Z</time></trkpt>
<trkpt lat="46.67560598" lon="6.38870403"><ele>1058.550049</ele><time>2008-08-06T15:37:59Z</time></trkpt>
<trkpt lat="46.67585802" lon="6.38836901"><ele>1055.180054</ele><time>2008-08-06T15:38:03Z</time></trkpt>
<trkpt lat="46.67598199" lon="6.38817597"><ele>1054.219971</ele><time>2008-08-06T15:38:05Z</time></trkpt>
<trkpt lat="46.67622297" lon="6.38797296"><ele>1052.300049</ele><time>2008-08-06T15:38:08Z</time></trkpt>
<trkpt lat="46.67638902" lon="6.38785704"><ele>1050.859985</ele><time>2008-08-06T15:38:10Z</time></trkpt>
<trkpt lat="46.67703099" lon="6.38778898"><ele>1047.01001</ele><time>2008-08-06T15:38:17Z</time></trkpt>
<trkpt lat="46.67716300" lon="6.38780097"><ele>1045.569946</ele><time>2008-08-06T15:38:19Z</time></trkpt>
<trkpt lat="46.67736299" lon="6.38777498"><ele>1045.089966</ele><time>2008-08-06T15:38:23Z</time></trkpt>
<trkpt lat="46.67753298" lon="6.38763400"><ele>1043.170044</ele><time>2008-08-06T15:38:27Z</time></trkpt>
<trkpt lat="46.67767203" lon="6.38739998"><ele>1041.25</ele><time>2008-08-06T15:38:36Z</time></trkpt>
<trkpt lat="46.67751596" lon="6.38720401"><ele>1041.25</ele><time>2008-08-06T15:38:41Z</time></trkpt>
<trkpt lat="46.67734698" lon="6.38698197"><ele>1041.25</ele><time>2008-08-06T15:38:45Z</time></trkpt>
<trkpt lat="46.67673100" lon="6.38605996"><ele>1040.280029</ele><time>2008-08-06T15:38:58Z</time></trkpt>
<trkpt lat="46.67651500" lon="6.38572996"><ele>1039.319946</ele><time>2008-08-06T15:39:02Z</time></trkpt>
<trkpt lat="46.67604301" lon="6.38499596"><ele>1035.47998</ele><time>2008-08-06T15:39:10Z</time></trkpt>
<trkpt lat="46.67599004" lon="6.38487702"><ele>1035.47998</ele><time>2008-08-06T15:39:11Z</time></trkpt>
<trkpt lat="46.67578300" lon="6.38436900"><ele>1032.109985</ele><time>2008-08-06T15:39:15Z</time></trkpt>
<trkpt lat="46.67571100" lon="6.38424796"><ele>1031.630005</ele><time>2008-08-06T15:39:16Z</time></trkpt>
<trkpt lat="46.67547497" lon="6.38387999"><ele>1028.27002</ele><time>2008-08-06T15:39:19Z</time></trkpt>
<trkpt lat="46.67505504" lon="6.38325403"><ele>1024.900024</ele><time>2008-08-06T15:39:24Z</time></trkpt>
<trkpt lat="46.67488597" lon="6.38298104"><ele>1022.97998</ele><time>2008-08-06T15:39:28Z</time></trkpt>
<trkpt lat="46.67463301" lon="6.38234803"><ele>1021.059998</ele><time>2008-08-06T15:39:37Z</time></trkpt>
<trkpt lat="46.67477600" lon="6.38191997"><ele>1019.130005</ele><time>2008-08-06T15:39:43Z</time></trkpt>
<trkpt lat="46.67517297" lon="6.38181704"><ele>1018.650024</ele><time>2008-08-06T15:39:48Z</time></trkpt>
<trkpt lat="46.67544798" lon="6.38164697"><ele>1019.130005</ele><time>2008-08-06T15:39:52Z</time></trkpt>
<trkpt lat="46.67564001" lon="6.38145100"><ele>1019.619995</ele><time>2008-08-06T15:39:55Z</time></trkpt>
<trkpt lat="46.67597302" lon="6.38132502"><ele>1019.619995</ele><time>2008-08-06T15:40:01Z</time></trkpt>
<trkpt lat="46.67620503" lon="6.38147598"><ele>1020.580017</ele><time>2008-08-06T15:40:06Z</time></trkpt>
<trkpt lat="46.67651701" lon="6.38145603"><ele>1020.580017</ele><time>2008-08-06T15:40:12Z</time></trkpt>
<trkpt lat="46.67661399" lon="6.38141203"><ele>1021.059998</ele><time>2008-08-06T15:40:14Z</time></trkpt>
<trkpt lat="46.67684097" lon="6.38124799"><ele>1021.059998</ele><time>2008-08-06T15:40:19Z</time></trkpt>
<trkpt lat="46.67714800" lon="6.38089604"><ele>1021.539978</ele><time>2008-08-06T15:40:25Z</time></trkpt>
<trkpt lat="46.67744103" lon="6.38063997"><ele>1021.059998</ele><time>2008-08-06T15:40:30Z</time></trkpt>
<trkpt lat="46.67770598" lon="6.38035599"><ele>1020.580017</ele><time>2008-08-06T15:40:34Z</time></trkpt>
<trkpt lat="46.67819498" lon="6.37978300"><ele>1019.130005</ele><time>2008-08-06T15:40:43Z</time></trkpt>
<trkpt lat="46.67847896" lon="6.37974797"><ele>1019.619995</ele><time>2008-08-06T15:40:48Z</time></trkpt>
<trkpt lat="46.67879001" lon="6.37973799"><ele>1019.619995</ele><time>2008-08-06T15:40:53Z</time></trkpt>
<trkpt lat="46.67950901" lon="6.37997797"><ele>1021.539978</ele><time>2008-08-06T15:41:04Z</time></trkpt>
<trkpt lat="46.68004998" lon="6.37993103"><ele>1022.02002</ele><time>2008-08-06T15:41:16Z</time></trkpt>
<trkpt lat="46.68026296" lon="6.37979298"><ele>1022.5</ele><time>2008-08-06T15:41:21Z</time></trkpt>
<trkpt lat="46.67994898" lon="6.37958704"><ele>1024.900024</ele><time>2008-08-06T15:41:32Z</time></trkpt>
<trkpt lat="46.67982903" lon="6.37933097"><ele>1026.339966</ele><time>2008-08-06T15:41:40Z</time></trkpt>
<trkpt lat="46.67985904" lon="6.37917498"><ele>1027.790039</ele><time>2008-08-06T15:41:45Z</time></trkpt>
<trkpt lat="46.67998703" lon="6.37871599"><ele>1031.150024</ele><time>2008-08-06T15:41:58Z</time></trkpt>
<trkpt lat="46.68005803" lon="6.37829396"><ele>1033.550049</ele><time>2008-08-06T15:42:09Z</time></trkpt>
<trkpt lat="46.68017303" lon="6.37803898"><ele>1034.52002</ele><time>2008-08-06T15:42:14Z</time></trkpt>
<trkpt lat="46.68039599" lon="6.37771603"><ele>1036.439941</ele><time>2008-08-06T15:42:25Z</time></trkpt>
<trkpt lat="46.68053504" lon="6.37760497"><ele>1037.880005</ele><time>2008-08-06T15:42:32Z</time></trkpt>
<trkpt lat="46.68082103" lon="6.37730297"><ele>1040.76001</ele><time>2008-08-06T15:42:47Z</time></trkpt>
<trkpt lat="46.68108498" lon="6.37678304"><ele>1044.130005</ele><time>2008-08-06T15:43:04Z</time></trkpt>
<trkpt lat="46.68127500" lon="6.37626504"><ele>1047.01001</ele><time>2008-08-06T15:43:20Z</time></trkpt>
<trkpt lat="46.68152000" lon="6.37589003"><ele>1050.380005</ele><time>2008-08-06T15:43:37Z</time></trkpt>
<trkpt lat="46.68176500" lon="6.37555601"><ele>1053.73999</ele><time>2008-08-06T15:43:52Z</time></trkpt>
<trkpt lat="46.68191001" lon="6.37512996"><ele>1056.150024</ele><time>2008-08-06T15:44:07Z</time></trkpt>
<trkpt lat="46.68202199" lon="6.37452101"><ele>1058.550049</ele><time>2008-08-06T15:44:25Z</time></trkpt>
<trkpt lat="46.68206600" lon="6.37394803"><ele>1059.51001</ele><time>2008-08-06T15:44:40Z</time></trkpt>
<trkpt lat="46.68185201" lon="6.37341100"><ele>1062.390015</ele><time>2008-08-06T15:44:55Z</time></trkpt>
<trkpt lat="46.68171203" lon="6.37289400"><ele>1065.280029</ele><time>2008-08-06T15:45:10Z</time></trkpt>
<trkpt lat="46.68155101" lon="6.37222999"><ele>1068.160034</ele><time>2008-08-06T15:45:27Z</time></trkpt>
<trkpt lat="46.68139301" lon="6.37165600"><ele>1070.569946</ele><time>2008-08-06T15:45:42Z</time></trkpt>
<trkpt lat="46.68127500" lon="6.37104797"><ele>1073.930054</ele><time>2008-08-06T15:45:57Z</time></trkpt>
<trkpt lat="46.68122797" lon="6.37065796"><ele>1076.810059</ele><time>2008-08-06T15:46:08Z</time></trkpt>
<trkpt lat="46.68110501" lon="6.37031799"><ele>1080.180054</ele><time>2008-08-06T15:46:19Z</time></trkpt>
<trkpt lat="46.68093201" lon="6.36989697"><ele>1083.060059</ele><time>2008-08-06T15:46:35Z</time></trkpt>
<trkpt lat="46.68077703" lon="6.36944200"><ele>1084.98999</ele><time>2008-08-06T15:46:50Z</time></trkpt>
<trkpt lat="46.68063001" lon="6.36896499"><ele>1087.390015</ele><time>2008-08-06T15:47:05Z</time></trkpt>
<trkpt lat="46.68043496" lon="6.36846098"><ele>1089.310059</ele><time>2008-08-06T15:47:20Z</time></trkpt>
<trkpt lat="46.68024000" lon="6.36791297"><ele>1091.22998</ele><time>2008-08-06T15:47:35Z</time></trkpt>
<trkpt lat="46.68005300" lon="6.36740000"><ele>1094.599976</ele><time>2008-08-06T15:47:50Z</time></trkpt>
<trkpt lat="46.67987497" lon="6.36690798"><ele>1097.47998</ele><time>2008-08-06T15:48:06Z</time></trkpt>
<trkpt lat="46.67976701" lon="6.36626601"><ele>1099.400024</ele><time>2008-08-06T15:48:24Z</time></trkpt>
<trkpt lat="46.67972904" lon="6.36575002"><ele>1101.329956</ele><time>2008-08-06T15:48:39Z</time></trkpt>
<trkpt lat="46.67964396" lon="6.36531299"><ele>1104.209961</ele><time>2008-08-06T15:48:52Z</time></trkpt>
<trkpt lat="46.67941396" lon="6.36486297"><ele>1107.099976</ele><time>2008-08-06T15:49:08Z</time></trkpt>
<trkpt lat="46.67923300" lon="6.36449701"><ele>1110.459961</ele><time>2008-08-06T15:49:22Z</time></trkpt>
<trkpt lat="46.67908003" lon="6.36403198"><ele>1113.339966</ele><time>2008-08-06T15:49:37Z</time></trkpt>
<trkpt lat="46.67902504" lon="6.36359101"><ele>1116.22998</ele><time>2008-08-06T15:49:51Z</time></trkpt>
<trkpt lat="46.67908598" lon="6.36336001"><ele>1118.150024</ele><time>2008-08-06T15:50:00Z</time></trkpt>
<trkpt lat="46.67921497" lon="6.36329496"><ele>1119.589966</ele><time>2008-08-06T15:50:06Z</time></trkpt>
<trkpt lat="46.67948202" lon="6.36332799"><ele>1122</ele><time>2008-08-06T15:50:20Z</time></trkpt>
<trkpt lat="46.67975997" lon="6.36344098"><ele>1123.439941</ele><time>2008-08-06T15:50:34Z</time></trkpt>
<trkpt lat="46.67991503" lon="6.36350300"><ele>1124.880005</ele><time>2008-08-06T15:50:43Z</time></trkpt>
<trkpt lat="46.68016699" lon="6.36360501"><ele>1126.800049</ele><time>2008-08-06T15:50:54Z</time></trkpt>
<trkpt lat="46.68040403" lon="6.36368204"><ele>1128.72998</ele><time>2008-08-06T15:51:04Z</time></trkpt>
<trkpt lat="46.68079002" lon="6.36366402"><ele>1132.089966</ele><time>2008-08-06T15:51:23Z</time></trkpt>
<trkpt lat="46.68105497" lon="6.36365798"><ele>1135.449951</ele><time>2008-08-06T15:51:35Z</time></trkpt>
<trkpt lat="46.68137499" lon="6.36362001"><ele>1138.339966</ele><time>2008-08-06T15:51:49Z</time></trkpt>
<trkpt lat="46.68171697" lon="6.36348900"><ele>1140.73999</ele><time>2008-08-06T15:52:02Z</time></trkpt>
<trkpt lat="46.68210899" lon="6.36332698"><ele>1144.109985</ele><time>2008-08-06T15:52:17Z</time></trkpt>
<trkpt lat="46.68224797" lon="6.36292398"><ele>1146.51001</ele><time>2008-08-06T15:52:29Z</time></trkpt>
<trkpt lat="46.68241502" lon="6.36251704"><ele>1149.390015</ele><time>2008-08-06T15:52:42Z</time></trkpt>
<trkpt lat="46.68264703" lon="6.36227597"><ele>1152.280029</ele><time>2008-08-06T15:52:54Z</time></trkpt>
<trkpt lat="46.68286999" lon="6.36211001"><ele>1155.160034</ele><time>2008-08-06T15:53:08Z</time></trkpt>
<trkpt lat="46.68305900" lon="6.36196199"><ele>1157.560059</ele><time>2008-08-06T15:53:22Z</time></trkpt>
<trkpt lat="46.68326796" lon="6.36182897"><ele>1160.449951</ele><time>2008-08-06T15:53:36Z</time></trkpt>
<trkpt lat="46.68353400" lon="6.36168899"><ele>1162.849976</ele><time>2008-08-06T15:53:50Z</time></trkpt>
<trkpt lat="46.68382502" lon="6.36174900"><ele>1165.26001</ele><time>2008-08-06T15:54:04Z</time></trkpt>
<trkpt lat="46.68409299" lon="6.36203801"><ele>1166.219971</ele><time>2008-08-06T15:54:16Z</time></trkpt>
<trkpt lat="46.68443204" lon="6.36231202"><ele>1167.660034</ele><time>2008-08-06T15:54:30Z</time></trkpt>
<trkpt lat="46.68472096" lon="6.36251796"><ele>1170.540039</ele><time>2008-08-06T15:54:44Z</time></trkpt>
<trkpt lat="46.68498499" lon="6.36267101"><ele>1173.430054</ele><time>2008-08-06T15:54:58Z</time></trkpt>
<trkpt lat="46.68525296" lon="6.36288802"><ele>1175.829956</ele><time>2008-08-06T15:55:12Z</time></trkpt>
<trkpt lat="46.68551900" lon="6.36302004"><ele>1178.709961</ele><time>2008-08-06T15:55:25Z</time></trkpt>
<trkpt lat="46.68588202" lon="6.36312800"><ele>1181.599976</ele><time>2008-08-06T15:55:41Z</time></trkpt>
<trkpt lat="46.68620397" lon="6.36321399"><ele>1184.47998</ele><time>2008-08-06T15:55:56Z</time></trkpt>
<trkpt lat="46.68649700" lon="6.36336797"><ele>1187.369995</ele><time>2008-08-06T15:56:11Z</time></trkpt>
<trkpt lat="46.68679104" lon="6.36362001"><ele>1190.25</ele><time>2008-08-06T15:56:27Z</time></trkpt>
<trkpt lat="46.68701903" lon="6.36388798"><ele>1193.609985</ele><time>2008-08-06T15:56:42Z</time></trkpt>
<trkpt lat="46.68725196" lon="6.36412402"><ele>1196.02002</ele><time>2008-08-06T15:56:56Z</time></trkpt>
<trkpt lat="46.68756100" lon="6.36441797"><ele>1198.900024</ele><time>2008-08-06T15:57:13Z</time></trkpt>
<trkpt lat="46.68792604" lon="6.36476297"><ele>1202.27002</ele><time>2008-08-06T15:57:32Z</time></trkpt>
<trkpt lat="46.68816802" lon="6.36472198"><ele>1204.670044</ele><time>2008-08-06T15:57:45Z</time></trkpt>
<trkpt lat="46.68810801" lon="6.36430398"><ele>1208.030029</ele><time>2008-08-06T15:57:59Z</time></trkpt>
<trkpt lat="46.68785697" lon="6.36395403"><ele>1210.439941</ele><time>2008-08-06T15:58:15Z</time></trkpt>
<trkpt lat="46.68768103" lon="6.36366603"><ele>1212.839966</ele><time>2008-08-06T15:58:28Z</time></trkpt>
<trkpt lat="46.68747199" lon="6.36325297"><ele>1215.719971</ele><time>2008-08-06T15:58:45Z</time></trkpt>
<trkpt lat="46.68730896" lon="6.36291903"><ele>1218.130005</ele><time>2008-08-06T15:58:59Z</time></trkpt>
<trkpt lat="46.68715004" lon="6.36261603"><ele>1220.050049</ele><time>2008-08-06T15:59:13Z</time></trkpt>
<trkpt lat="46.68700201" lon="6.36241201"><ele>1221.969971</ele><time>2008-08-06T15:59:26Z</time></trkpt>
<trkpt lat="46.68687796" lon="6.36218998"><ele>1223.900024</ele><time>2008-08-06T15:59:36Z</time></trkpt>
<trkpt lat="46.68674704" lon="6.36194103"><ele>1225.819946</ele><time>2008-08-06T15:59:48Z</time></trkpt>
<trkpt lat="46.68654302" lon="6.36158598"><ele>1228.219971</ele><time>2008-08-06T16:00:04Z</time></trkpt>
<trkpt lat="46.68640598" lon="6.36136201"><ele>1229.660034</ele><time>2008-08-06T16:00:16Z</time></trkpt>
<trkpt lat="46.68631797" lon="6.36109999"><ele>1232.069946</ele><time>2008-08-06T16:00:28Z</time></trkpt>
<trkpt lat="46.68621898" lon="6.36068199"><ele>1234.469971</ele><time>2008-08-06T16:00:40Z</time></trkpt>
<trkpt lat="46.68623398" lon="6.36028997"><ele>1236.869995</ele><time>2008-08-06T16:00:52Z</time></trkpt>
<trkpt lat="46.68616902" lon="6.35999098"><ele>1239.280029</ele><time>2008-08-06T16:01:04Z</time></trkpt>
<trkpt lat="46.68609099" lon="6.35992200"><ele>1240.23999</ele><time>2008-08-06T16:01:09Z</time></trkpt>
<trkpt lat="46.68580801" lon="6.35969401"><ele>1242.640015</ele><time>2008-08-06T16:01:22Z</time></trkpt>
<trkpt lat="46.68573702" lon="6.35957600"><ele>1243.599976</ele><time>2008-08-06T16:01:27Z</time></trkpt>
<trkpt lat="46.68551297" lon="6.35938698"><ele>1246.01001</ele><time>2008-08-06T16:01:40Z</time></trkpt>
<trkpt lat="46.68531499" lon="6.35913502"><ele>1248.410034</ele><time>2008-08-06T16:01:51Z</time></trkpt>
<trkpt lat="46.68520804" lon="6.35895196"><ele>1249.369995</ele><time>2008-08-06T16:01:58Z</time></trkpt>
<trkpt lat="46.68507501" lon="6.35861199"><ele>1251.77002</ele><time>2008-08-06T16:02:12Z</time></trkpt>
<trkpt lat="46.68495004" lon="6.35831703"><ele>1253.699951</ele><time>2008-08-06T16:02:25Z</time></trkpt>
<trkpt lat="46.68478299" lon="6.35799198"><ele>1256.579956</ele><time>2008-08-06T16:02:39Z</time></trkpt>
<trkpt lat="46.68452801" lon="6.35776198"><ele>1258.97998</ele><time>2008-08-06T16:02:54Z</time></trkpt>
<trkpt lat="46.68433003" lon="6.35757498"><ele>1261.390015</ele><time>2008-08-06T16:03:08Z</time></trkpt>
<trkpt lat="46.68421897" lon="6.35752503"><ele>1262.829956</ele><time>2008-08-06T16:03:15Z</time></trkpt>
<trkpt lat="46.68400398" lon="6.35732696"><ele>1264.75</ele><time>2008-08-06T16:03:27Z</time></trkpt>
<trkpt lat="46.68379300" lon="6.35726603"><ele>1266.670044</ele><time>2008-08-06T16:03:39Z</time></trkpt>
<trkpt lat="46.68367901" lon="6.35730299"><ele>1267.640015</ele><time>2008-08-06T16:03:46Z</time></trkpt>
<trkpt lat="46.68344197" lon="6.35743903"><ele>1270.52002</ele><time>2008-08-06T16:04:00Z</time></trkpt>
<trkpt lat="46.68308599" lon="6.35732898"><ele>1273.400024</ele><time>2008-08-06T16:04:17Z</time></trkpt>
<trkpt lat="46.68281802" lon="6.35724398"><ele>1275.329956</ele><time>2008-08-06T16:04:30Z</time></trkpt>
<trkpt lat="46.68254703" lon="6.35713996"><ele>1276.77002</ele><time>2008-08-06T16:04:43Z</time></trkpt>
<trkpt lat="46.68229901" lon="6.35704701"><ele>1279.170044</ele><time>2008-08-06T16:04:55Z</time></trkpt>
<trkpt lat="46.68201101" lon="6.35694802"><ele>1281.089966</ele><time>2008-08-06T16:05:09Z</time></trkpt>
<trkpt lat="46.68167599" lon="6.35679698"><ele>1283.97998</ele><time>2008-08-06T16:05:23Z</time></trkpt>
<trkpt lat="46.68138597" lon="6.35662297"><ele>1287.819946</ele><time>2008-08-06T16:05:39Z</time></trkpt>
<trkpt lat="46.68115597" lon="6.35642700"><ele>1290.22998</ele><time>2008-08-06T16:05:53Z</time></trkpt>
<trkpt lat="46.68095497" lon="6.35624100"><ele>1293.109985</ele><time>2008-08-06T16:06:08Z</time></trkpt>
<trkpt lat="46.68076596" lon="6.35604504"><ele>1295.98999</ele><time>2008-08-06T16:06:27Z</time></trkpt>
<trkpt lat="46.68057804" lon="6.35584597"><ele>1298.400024</ele><time>2008-08-06T16:06:39Z</time></trkpt>
<trkpt lat="46.68043404" lon="6.35572602"><ele>1300.800049</ele><time>2008-08-06T16:06:52Z</time></trkpt>
<trkpt lat="46.68015702" lon="6.35561404"><ele>1304.170044</ele><time>2008-08-06T16:07:12Z</time></trkpt>
<trkpt lat="46.67989902" lon="6.35543299"><ele>1307.050049</ele><time>2008-08-06T16:07:26Z</time></trkpt>
<trkpt lat="46.67984697" lon="6.35532302"><ele>1308.48999</ele><time>2008-08-06T16:07:31Z</time></trkpt>
<trkpt lat="46.67990900" lon="6.35510400"><ele>1309.930054</ele><time>2008-08-06T16:07:54Z</time></trkpt>
<trkpt lat="46.67988603" lon="6.35499897"><ele>1311.380005</ele><time>2008-08-06T16:09:42Z</time></trkpt>
<trkpt lat="46.67976600" lon="6.35474299"><ele>1314.26001</ele><time>2008-08-06T16:09:59Z</time></trkpt>
<trkpt lat="46.67960004" lon="6.35456404"><ele>1316.660034</ele><time>2008-08-06T16:10:11Z</time></trkpt>
<trkpt lat="46.67944900" lon="6.35437201"><ele>1319.069946</ele><time>2008-08-06T16:10:24Z</time></trkpt>
<trkpt lat="46.67935797" lon="6.35404998"><ele>1321.949951</ele><time>2008-08-06T16:10:38Z</time></trkpt>
<trkpt lat="46.67931103" lon="6.35383297"><ele>1323.390015</ele><time>2008-08-06T16:10:48Z</time></trkpt>
<trkpt lat="46.67918799" lon="6.35361504"><ele>1325.800049</ele><time>2008-08-06T16:11:00Z</time></trkpt>
<trkpt lat="46.67906201" lon="6.35348302"><ele>1328.199951</ele><time>2008-08-06T16:11:13Z</time></trkpt>
<trkpt lat="46.67896796" lon="6.35328303"><ele>1330.119995</ele><time>2008-08-06T16:11:22Z</time></trkpt>
<trkpt lat="46.67884600" lon="6.35309896"><ele>1332.040039</ele><time>2008-08-06T16:11:32Z</time></trkpt>
<trkpt lat="46.67872899" lon="6.35304398"><ele>1333.01001</ele><time>2008-08-06T16:11:40Z</time></trkpt>
<trkpt lat="46.67864299" lon="6.35296703"><ele>1333.969971</ele><time>2008-08-06T16:11:47Z</time></trkpt>
<trkpt lat="46.67845197" lon="6.35280099"><ele>1335.890015</ele><time>2008-08-06T16:12:01Z</time></trkpt>
<trkpt lat="46.67834803" lon="6.35270803"><ele>1337.810059</ele><time>2008-08-06T16:12:10Z</time></trkpt>
<trkpt lat="46.67813103" lon="6.35253101"><ele>1340.219971</ele><time>2008-08-06T16:12:26Z</time></trkpt>
<trkpt lat="46.67801603" lon="6.35237896"><ele>1342.619995</ele><time>2008-08-06T16:12:36Z</time></trkpt>
<trkpt lat="46.67782601" lon="6.35223504"><ele>1344.540039</ele><time>2008-08-06T16:12:50Z</time></trkpt>
<trkpt lat="46.67770699" lon="6.35209800"><ele>1346.939941</ele><time>2008-08-06T16:13:00Z</time></trkpt>
<trkpt lat="46.67749199" lon="6.35190404"><ele>1349.829956</ele><time>2008-08-06T16:13:16Z</time></trkpt>
<trkpt lat="46.67738998" lon="6.35184604"><ele>1350.790039</ele><time>2008-08-06T16:13:22Z</time></trkpt>
<trkpt lat="46.67730197" lon="6.35173104"><ele>1351.75</ele><time>2008-08-06T16:13:29Z</time></trkpt>
<trkpt lat="46.67725403" lon="6.35158000"><ele>1353.670044</ele><time>2008-08-06T16:13:37Z</time></trkpt>
<trkpt lat="46.67709100" lon="6.35125201"><ele>1357.040039</ele><time>2008-08-06T16:13:54Z</time></trkpt>
<trkpt lat="46.67711397" lon="6.35093501"><ele>1359.439941</ele><time>2008-08-06T16:14:07Z</time></trkpt>
<trkpt lat="46.67725797" lon="6.35059102"><ele>1362.810059</ele><time>2008-08-06T16:14:23Z</time></trkpt>
<trkpt lat="46.67738898" lon="6.35061398"><ele>1365.209961</ele><time>2008-08-06T16:15:40Z</time></trkpt>
<trkpt lat="46.67760598" lon="6.35071700"><ele>1368.569946</ele><time>2008-08-06T16:15:54Z</time></trkpt>
<trkpt lat="46.67786700" lon="6.35078900"><ele>1371.459961</ele><time>2008-08-06T16:16:08Z</time></trkpt>
<trkpt lat="46.67815299" lon="6.35083401"><ele>1374.339966</ele><time>2008-08-06T16:16:24Z</time></trkpt>
<trkpt lat="46.67839497" lon="6.35089302"><ele>1377.709961</ele><time>2008-08-06T16:16:38Z</time></trkpt>
<trkpt lat="46.67872304" lon="6.35089503"><ele>1380.589966</ele><time>2008-08-06T16:16:55Z</time></trkpt>
<trkpt lat="46.67894701" lon="6.35091296"><ele>1383.469971</ele><time>2008-08-06T16:17:09Z</time></trkpt>
<trkpt lat="46.67922202" lon="6.35089603"><ele>1386.839966</ele><time>2008-08-06T16:17:25Z</time></trkpt>
<trkpt lat="46.67953701" lon="6.35076100"><ele>1390.199951</ele><time>2008-08-06T16:17:41Z</time></trkpt>
<trkpt lat="46.67973700" lon="6.35067299"><ele>1393.089966</ele><time>2008-08-06T16:17:54Z</time></trkpt>
<trkpt lat="46.67998703" lon="6.35082596"><ele>1395.01001</ele><time>2008-08-06T16:18:11Z</time></trkpt>
<trkpt lat="46.68004797" lon="6.35076502"><ele>1396.449951</ele><time>2008-08-06T16:18:38Z</time></trkpt>
<trkpt lat="46.68016397" lon="6.35058599"><ele>1397.410034</ele><time>2008-08-06T16:18:46Z</time></trkpt>
<trkpt lat="46.68038199" lon="6.35052899"><ele>1400.780029</ele><time>2008-08-06T16:19:00Z</time></trkpt>
<trkpt lat="46.68059296" lon="6.35048700"><ele>1402.699951</ele><time>2008-08-06T16:19:14Z</time></trkpt>
<trkpt lat="46.68080997" lon="6.35050904"><ele>1405.099976</ele><time>2008-08-06T16:19:29Z</time></trkpt>
<trkpt lat="46.68098900" lon="6.35054198"><ele>1408.469971</ele><time>2008-08-06T16:19:43Z</time></trkpt>
<trkpt lat="46.68103997" lon="6.35066503"><ele>1409.910034</ele><time>2008-08-06T16:19:52Z</time></trkpt>
<trkpt lat="46.68114499" lon="6.35073300"><ele>1411.349976</ele><time>2008-08-06T16:20:02Z</time></trkpt>
<trkpt lat="46.68132504" lon="6.35086301"><ele>1413.76001</ele><time>2008-08-06T16:20:17Z</time></trkpt>
<trkpt lat="46.68148597" lon="6.35095898"><ele>1416.640015</ele><time>2008-08-06T16:20:30Z</time></trkpt>
<trkpt lat="46.68169602" lon="6.35103702"><ele>1419.52002</ele><time>2008-08-06T16:20:49Z</time></trkpt>
<trkpt lat="46.68198301" lon="6.35114598"><ele>1422.410034</ele><time>2008-08-06T16:21:14Z</time></trkpt>
<trkpt lat="46.68217697" lon="6.35121102"><ele>1425.77002</ele><time>2008-08-06T16:21:30Z</time></trkpt>
<trkpt lat="46.68231703" lon="6.35118898"><ele>1429.140015</ele><time>2008-08-06T16:22:08Z</time></trkpt>
<trkpt lat="46.68246799" lon="6.35121899"><ele>1431.060059</ele><time>2008-08-06T16:22:24Z</time></trkpt>
<trkpt lat="46.68263798" lon="6.35127598"><ele>1432.97998</ele><time>2008-08-06T16:22:37Z</time></trkpt>
<trkpt lat="46.68272498" lon="6.35130901"><ele>1434.910034</ele><time>2008-08-06T16:22:44Z</time></trkpt>
<trkpt lat="46.68282498" lon="6.35134698"><ele>1438.27002</ele><time>2008-08-06T16:22:56Z</time></trkpt>
<trkpt lat="46.68297602" lon="6.35137397"><ele>1441.150024</ele><time>2008-08-06T16:23:11Z</time></trkpt>
<trkpt lat="46.68314600" lon="6.35146902"><ele>1444.52002</ele><time>2008-08-06T16:23:27Z</time></trkpt>
<trkpt lat="46.68328900" lon="6.35153096"><ele>1447.400024</ele><time>2008-08-06T16:23:38Z</time></trkpt>
<trkpt lat="46.68345999" lon="6.35164697"><ele>1450.77002</ele><time>2008-08-06T16:23:52Z</time></trkpt>
<trkpt lat="46.68364397" lon="6.35175099"><ele>1451.25</ele><time>2008-08-06T16:24:07Z</time></trkpt>
<trkpt lat="46.68363601" lon="6.35160397"><ele>1454.130005</ele><time>2008-08-06T16:24:29Z</time></trkpt>
<trkpt lat="46.68357097" lon="6.35127800"><ele>1457.5</ele><time>2008-08-06T16:24:51Z</time></trkpt>
<trkpt lat="46.68357298" lon="6.35110902"><ele>1459.420044</ele><time>2008-08-06T16:25:04Z</time></trkpt>
<trkpt lat="46.68378797" lon="6.35101103"><ele>1463.73999</ele><time>2008-08-06T16:25:32Z</time></trkpt>
<trkpt lat="46.68388797" lon="6.35101698"><ele>1466.150024</ele><time>2008-08-06T16:25:40Z</time></trkpt>
<trkpt lat="46.68403700" lon="6.35122703"><ele>1468.550049</ele><time>2008-08-06T16:25:55Z</time></trkpt>
<trkpt lat="46.68417497" lon="6.35111304"><ele>1468.550049</ele><time>2008-08-06T16:26:06Z</time></trkpt>
<trkpt lat="46.68421302" lon="6.35091498"><ele>1468.550049</ele><time>2008-08-06T16:26:14Z</time></trkpt>
<trkpt lat="46.68420003" lon="6.35070501"><ele>1468.550049</ele><time>2008-08-06T16:26:29Z</time></trkpt>
<trkpt lat="46.68405804" lon="6.35075999"><ele>1469.030029</ele><time>2008-08-06T16:26:56Z</time></trkpt>
<trkpt lat="46.68395896" lon="6.35096099"><ele>1469.030029</ele><time>2008-08-06T16:27:15Z</time></trkpt>
<trkpt lat="46.68387196" lon="6.35093300"><ele>1474.800049</ele><time>2008-08-06T16:44:23Z</time></trkpt>
<trkpt lat="46.68373701" lon="6.35091196"><ele>1471.920044</ele><time>2008-08-06T16:44:26Z</time></trkpt>
<trkpt lat="46.68354699" lon="6.35081800"><ele>1467.109985</ele><time>2008-08-06T16:44:31Z</time></trkpt>
<trkpt lat="46.68340098" lon="6.35076100"><ele>1463.73999</ele><time>2008-08-06T16:44:39Z</time></trkpt>
<trkpt lat="46.68327198" lon="6.35073200"><ele>1460.380005</ele><time>2008-08-06T16:44:45Z</time></trkpt>
<trkpt lat="46.68305196" lon="6.35074600"><ele>1456.530029</ele><time>2008-08-06T16:44:52Z</time></trkpt>
<trkpt lat="46.68288901" lon="6.35075999"><ele>1453.170044</ele><time>2008-08-06T16:44:55Z</time></trkpt>
<trkpt lat="46.68261300" lon="6.35075597"><ele>1449.810059</ele><time>2008-08-06T16:44:59Z</time></trkpt>
<trkpt lat="46.68226096" lon="6.35057501"><ele>1443.560059</ele><time>2008-08-06T16:45:04Z</time></trkpt>
<trkpt lat="46.68200799" lon="6.35057199"><ele>1439.22998</ele><time>2008-08-06T16:45:09Z</time></trkpt>
<trkpt lat="46.68188000" lon="6.35059697"><ele>1436.349976</ele><time>2008-08-06T16:45:13Z</time></trkpt>
<trkpt lat="46.68166299" lon="6.35065799"><ele>1432.5</ele><time>2008-08-06T16:45:17Z</time></trkpt>
<trkpt lat="46.68134398" lon="6.35057903"><ele>1428.180054</ele><time>2008-08-06T16:45:22Z</time></trkpt>
<trkpt lat="46.68104399" lon="6.35047099"><ele>1422.890015</ele><time>2008-08-06T16:45:27Z</time></trkpt>
<trkpt lat="46.68083000" lon="6.35046101"><ele>1420</ele><time>2008-08-06T16:45:30Z</time></trkpt>
<trkpt lat="46.68063001" lon="6.35045598"><ele>1418.079956</ele><time>2008-08-06T16:45:33Z</time></trkpt>
<trkpt lat="46.68050797" lon="6.35045900"><ele>1416.640015</ele><time>2008-08-06T16:45:35Z</time></trkpt>
<trkpt lat="46.68041199" lon="6.35050099"><ele>1415.680054</ele><time>2008-08-06T16:45:37Z</time></trkpt>
<trkpt lat="46.68011804" lon="6.35061599"><ele>1411.349976</ele><time>2008-08-06T16:45:43Z</time></trkpt>
<trkpt lat="46.68004101" lon="6.35083099"><ele>1409.910034</ele><time>2008-08-06T16:45:50Z</time></trkpt>
<trkpt lat="46.67983398" lon="6.35071498"><ele>1407.98999</ele><time>2008-08-06T16:46:28Z</time></trkpt>
<trkpt lat="46.67974102" lon="6.35065597"><ele>1407.51001</ele><time>2008-08-06T16:46:32Z</time></trkpt>
<trkpt lat="46.67953801" lon="6.35075497"><ele>1405.099976</ele><time>2008-08-06T16:46:37Z</time></trkpt>
<trkpt lat="46.67943802" lon="6.35079897"><ele>1404.619995</ele><time>2008-08-06T16:46:39Z</time></trkpt>
<trkpt lat="46.67924498" lon="6.35087097"><ele>1402.699951</ele><time>2008-08-06T16:46:42Z</time></trkpt>
<trkpt lat="46.67901599" lon="6.35091003"><ele>1400.780029</ele><time>2008-08-06T16:46:45Z</time></trkpt>
<trkpt lat="46.67859002" lon="6.35088799"><ele>1396.930054</ele><time>2008-08-06T16:46:50Z</time></trkpt>
<trkpt lat="46.67828299" lon="6.35083904"><ele>1394.050049</ele><time>2008-08-06T16:46:53Z</time></trkpt>
<trkpt lat="46.67797999" lon="6.35078003"><ele>1390.680054</ele><time>2008-08-06T16:46:56Z</time></trkpt>
<trkpt lat="46.67771202" lon="6.35072596"><ele>1386.359985</ele><time>2008-08-06T16:46:59Z</time></trkpt>
<trkpt lat="46.67743600" lon="6.35062999"><ele>1382.98999</ele><time>2008-08-06T16:47:03Z</time></trkpt>
<trkpt lat="46.67725998" lon="6.35057501"><ele>1379.630005</ele><time>2008-08-06T16:47:07Z</time></trkpt>
<trkpt lat="46.67722000" lon="6.35031500"><ele>1378.670044</ele><time>2008-08-06T16:47:31Z</time></trkpt>
<trkpt lat="46.67701598" lon="6.35025197"><ele>1377.22998</ele><time>2008-08-06T16:47:39Z</time></trkpt>
<trkpt lat="46.67669303" lon="6.35022104"><ele>1373.859985</ele><time>2008-08-06T16:47:49Z</time></trkpt>
<trkpt lat="46.67657300" lon="6.35014200"><ele>1370.97998</ele><time>2008-08-06T16:48:01Z</time></trkpt>
<trkpt lat="46.67646303" lon="6.35020997"><ele>1369.050049</ele><time>2008-08-06T16:48:05Z</time></trkpt>
<trkpt lat="46.67630604" lon="6.35019396"><ele>1367.130005</ele><time>2008-08-06T16:48:09Z</time></trkpt>
<trkpt lat="46.67616203" lon="6.35015801"><ele>1363.77002</ele><time>2008-08-06T16:48:17Z</time></trkpt>
<trkpt lat="46.67597403" lon="6.35022003"><ele>1359.439941</ele><time>2008-08-06T16:48:38Z</time></trkpt>
<trkpt lat="46.67578602" lon="6.35027703"><ele>1355.599976</ele><time>2008-08-06T16:48:51Z</time></trkpt>
<trkpt lat="46.67554404" lon="6.35028801"><ele>1351.27002</ele><time>2008-08-06T16:48:56Z</time></trkpt>
<trkpt lat="46.67540800" lon="6.35024501"><ele>1349.349976</ele><time>2008-08-06T16:49:00Z</time></trkpt>
<trkpt lat="46.67515201" lon="6.35023101"><ele>1344.540039</ele><time>2008-08-06T16:49:05Z</time></trkpt>
<trkpt lat="46.67490098" lon="6.35022397"><ele>1340.699951</ele><time>2008-08-06T16:49:10Z</time></trkpt>
<trkpt lat="46.67459303" lon="6.35012800"><ele>1335.410034</ele><time>2008-08-06T16:49:17Z</time></trkpt>
<trkpt lat="46.67436697" lon="6.35002398"><ele>1331.079956</ele><time>2008-08-06T16:49:54Z</time></trkpt>
<trkpt lat="46.67420997" lon="6.34998500"><ele>1328.199951</ele><time>2008-08-06T16:50:11Z</time></trkpt>
<trkpt lat="46.67408098" lon="6.35000302"><ele>1324.829956</ele><time>2008-08-06T16:50:28Z</time></trkpt>
<trkpt lat="46.67395198" lon="6.34997897"><ele>1321.469971</ele><time>2008-08-06T16:50:47Z</time></trkpt>
<trkpt lat="46.67373103" lon="6.34997897"><ele>1316.180054</ele><time>2008-08-06T16:51:12Z</time></trkpt>
<trkpt lat="46.67362399" lon="6.35006103"><ele>1313.300049</ele><time>2008-08-06T16:51:27Z</time></trkpt>
<trkpt lat="46.67353297" lon="6.35014501"><ele>1311.380005</ele><time>2008-08-06T16:51:40Z</time></trkpt>
<trkpt lat="46.67338897" lon="6.35033201"><ele>1308.48999</ele><time>2008-08-06T16:51:52Z</time></trkpt>
<trkpt lat="46.67328302" lon="6.35036102"><ele>1305.609985</ele><time>2008-08-06T16:52:06Z</time></trkpt>
<trkpt lat="46.67316601" lon="6.35037996"><ele>1302.23999</ele><time>2008-08-06T16:52:18Z</time></trkpt>
<trkpt lat="46.67292897" lon="6.35029203"><ele>1298.880005</ele><time>2008-08-06T16:52:40Z</time></trkpt>
<trkpt lat="46.67318403" lon="6.34996204"><ele>1295.98999</ele><time>2008-08-06T16:52:56Z</time></trkpt>
<trkpt lat="46.67321898" lon="6.34977797"><ele>1294.550049</ele><time>2008-08-06T16:53:01Z</time></trkpt>
<trkpt lat="46.67300901" lon="6.34984000"><ele>1289.27002</ele><time>2008-08-06T16:53:17Z</time></trkpt>
<trkpt lat="46.67282403" lon="6.34988199"><ele>1285.900024</ele><time>2008-08-06T16:53:23Z</time></trkpt>
<trkpt lat="46.67254298" lon="6.34978602"><ele>1282.060059</ele><time>2008-08-06T16:53:32Z</time></trkpt>
<trkpt lat="46.67239898" lon="6.34971603"><ele>1279.650024</ele><time>2008-08-06T16:53:42Z</time></trkpt>
<trkpt lat="46.67215800" lon="6.34957203"><ele>1272.920044</ele><time>2008-08-06T16:54:12Z</time></trkpt>
<trkpt lat="46.67200604" lon="6.34955300"><ele>1270.52002</ele><time>2008-08-06T16:54:28Z</time></trkpt>
<trkpt lat="46.67167101" lon="6.34953800"><ele>1267.160034</ele><time>2008-08-06T16:54:40Z</time></trkpt>
<trkpt lat="46.67140396" lon="6.34956499"><ele>1263.790039</ele><time>2008-08-06T16:54:46Z</time></trkpt>
<trkpt lat="46.67121001" lon="6.34959399"><ele>1261.390015</ele><time>2008-08-06T16:54:50Z</time></trkpt>
<trkpt lat="46.67099602" lon="6.34962198"><ele>1257.540039</ele><time>2008-08-06T16:54:56Z</time></trkpt>
<trkpt lat="46.67088898" lon="6.34954596"><ele>1254.180054</ele><time>2008-08-06T16:55:01Z</time></trkpt>
<trkpt lat="46.67076300" lon="6.34947698"><ele>1251.290039</ele><time>2008-08-06T16:55:06Z</time></trkpt>
<trkpt lat="46.67060098" lon="6.34951503"><ele>1248.410034</ele><time>2008-08-06T16:55:19Z</time></trkpt>
<trkpt lat="46.67046804" lon="6.34938000"><ele>1246.969971</ele><time>2008-08-06T16:55:23Z</time></trkpt>
<trkpt lat="46.67034399" lon="6.34915100"><ele>1245.530029</ele><time>2008-08-06T16:55:27Z</time></trkpt>
<trkpt lat="46.67028699" lon="6.34887398"><ele>1244.079956</ele><time>2008-08-06T16:55:31Z</time></trkpt>
<trkpt lat="46.67035203" lon="6.34834902"><ele>1243.599976</ele><time>2008-08-06T16:55:41Z</time></trkpt>
<trkpt lat="46.67016604" lon="6.34830804"><ele>1239.76001</ele><time>2008-08-06T16:55:54Z</time></trkpt>
<trkpt lat="46.66996001" lon="6.34813604"><ele>1240.23999</ele><time>2008-08-06T16:56:14Z</time></trkpt>
<trkpt lat="46.66982196" lon="6.34800000"><ele>1245.530029</ele><time>2008-08-06T16:57:18Z</time></trkpt>
<trkpt lat="46.66970604" lon="6.34802196"><ele>1246.01001</ele><time>2008-08-06T16:57:30Z</time></trkpt>
<trkpt lat="46.66959599" lon="6.34802196"><ele>1246.01001</ele><time>2008-08-06T16:57:36Z</time></trkpt>
<trkpt lat="46.66939599" lon="6.34800101"><ele>1243.599976</ele><time>2008-08-06T16:57:46Z</time></trkpt>
<trkpt lat="46.66902099" lon="6.34801400"><ele>1243.119995</ele><time>2008-08-06T16:57:57Z</time></trkpt>
<trkpt lat="46.66887900" lon="6.34806303"><ele>1245.040039</ele><time>2008-08-06T16:58:09Z</time></trkpt>
<trkpt lat="46.66869803" lon="6.34807896"><ele>1246.48999</ele><time>2008-08-06T16:58:30Z</time></trkpt>
<trkpt lat="46.66842202" lon="6.34827401"><ele>1244.560059</ele><time>2008-08-06T16:58:40Z</time></trkpt>
<trkpt lat="46.66828103" lon="6.34830301"><ele>1243.599976</ele><time>2008-08-06T16:58:45Z</time></trkpt>
<trkpt lat="46.66800401" lon="6.34833897"><ele>1245.040039</ele><time>2008-08-06T16:58:54Z</time></trkpt>
<trkpt lat="46.66789304" lon="6.34838004"><ele>1242.160034</ele><time>2008-08-06T16:59:17Z</time></trkpt>
<trkpt lat="46.66778097" lon="6.34842899"><ele>1239.280029</ele><time>2008-08-06T16:59:32Z</time></trkpt>
<trkpt lat="46.66766496" lon="6.34853804"><ele>1237.349976</ele><time>2008-08-06T16:59:42Z</time></trkpt>
<trkpt lat="46.66761803" lon="6.34868799"><ele>1234.469971</ele><time>2008-08-06T16:59:57Z</time></trkpt>
<trkpt lat="46.66727001" lon="6.34864097"><ele>1231.109985</ele><time>2008-08-06T17:00:11Z</time></trkpt>
<trkpt lat="46.66701998" lon="6.34855396"><ele>1228.699951</ele><time>2008-08-06T17:00:20Z</time></trkpt>
<trkpt lat="46.66691503" lon="6.34853099"><ele>1226.300049</ele><time>2008-08-06T17:00:35Z</time></trkpt>
<trkpt lat="46.66671596" lon="6.34851004"><ele>1222.930054</ele><time>2008-08-06T17:00:50Z</time></trkpt>
<trkpt lat="46.66652704" lon="6.34862202"><ele>1220.050049</ele><time>2008-08-06T17:00:58Z</time></trkpt>
<trkpt lat="46.66651899" lon="6.34879301"><ele>1216.689941</ele><time>2008-08-06T17:01:05Z</time></trkpt>
<trkpt lat="46.66648697" lon="6.34892201"><ele>1212.359985</ele><time>2008-08-06T17:01:11Z</time></trkpt>
<trkpt lat="46.66636904" lon="6.34895504"><ele>1211.400024</ele><time>2008-08-06T17:01:16Z</time></trkpt>
<trkpt lat="46.66595204" lon="6.34873199"><ele>1207.550049</ele><time>2008-08-06T17:01:27Z</time></trkpt>
<trkpt lat="46.66578398" lon="6.34869704"><ele>1203.709961</ele><time>2008-08-06T17:01:32Z</time></trkpt>
<trkpt lat="46.66569304" lon="6.34856301"><ele>1200.819946</ele><time>2008-08-06T17:01:36Z</time></trkpt>
<trkpt lat="46.66562598" lon="6.34835397"><ele>1196.97998</ele><time>2008-08-06T17:01:41Z</time></trkpt>
<trkpt lat="46.66558097" lon="6.34809899"><ele>1193.609985</ele><time>2008-08-06T17:01:46Z</time></trkpt>
<trkpt lat="46.66547997" lon="6.34786899"><ele>1190.25</ele><time>2008-08-06T17:01:50Z</time></trkpt>
<trkpt lat="46.66524796" lon="6.34763799"><ele>1188.810059</ele><time>2008-08-06T17:01:54Z</time></trkpt>
<trkpt lat="46.66475804" lon="6.34731403"><ele>1185.920044</ele><time>2008-08-06T17:02:02Z</time></trkpt>
<trkpt lat="46.66436903" lon="6.34720598"><ele>1184.47998</ele><time>2008-08-06T17:02:07Z</time></trkpt>
<trkpt lat="46.66384902" lon="6.34721998"><ele>1184</ele><time>2008-08-06T17:02:15Z</time></trkpt>
<trkpt lat="46.66355599" lon="6.34725099"><ele>1181.119995</ele><time>2008-08-06T17:02:20Z</time></trkpt>
<trkpt lat="46.66324301" lon="6.34724001"><ele>1179.189941</ele><time>2008-08-06T17:02:24Z</time></trkpt>
<trkpt lat="46.66290103" lon="6.34722300"><ele>1177.27002</ele><time>2008-08-06T17:02:28Z</time></trkpt>
<trkpt lat="46.66235603" lon="6.34741402"><ele>1175.349976</ele><time>2008-08-06T17:02:37Z</time></trkpt>
<trkpt lat="46.66218496" lon="6.34744001"><ele>1174.390015</ele><time>2008-08-06T17:02:40Z</time></trkpt>
<trkpt lat="46.66180098" lon="6.34759096"><ele>1172.949951</ele><time>2008-08-06T17:02:46Z</time></trkpt>
<trkpt lat="46.66109799" lon="6.34771602"><ele>1169.579956</ele><time>2008-08-06T17:02:57Z</time></trkpt>
<trkpt lat="46.66069097" lon="6.34773002"><ele>1165.26001</ele><time>2008-08-06T17:03:03Z</time></trkpt>
<trkpt lat="46.66048997" lon="6.34772600"><ele>1163.329956</ele><time>2008-08-06T17:03:06Z</time></trkpt>
<trkpt lat="46.66012997" lon="6.34767604"><ele>1161.410034</ele><time>2008-08-06T17:03:13Z</time></trkpt>
<trkpt lat="46.65990399" lon="6.34764796"><ele>1160.449951</ele><time>2008-08-06T17:03:17Z</time></trkpt>
<trkpt lat="46.65957198" lon="6.34771996"><ele>1157.079956</ele><time>2008-08-06T17:03:24Z</time></trkpt>
<trkpt lat="46.65934903" lon="6.34771099"><ele>1154.680054</ele><time>2008-08-06T17:03:33Z</time></trkpt>
<trkpt lat="46.65919203" lon="6.34794200"><ele>1156.119995</ele><time>2008-08-06T17:04:00Z</time></trkpt>
<trkpt lat="46.65890898" lon="6.34845397"><ele>1157.560059</ele><time>2008-08-06T17:04:13Z</time></trkpt>
<trkpt lat="46.65875601" lon="6.34864197"><ele>1159.01001</ele><time>2008-08-06T17:04:25Z</time></trkpt>
<trkpt lat="46.65888299" lon="6.34845598"><ele>1157.079956</ele><time>2008-08-06T17:05:03Z</time></trkpt>
<trkpt lat="46.65897402" lon="6.34824702"><ele>1155.160034</ele><time>2008-08-06T17:05:06Z</time></trkpt>
<trkpt lat="46.65911802" lon="6.34823998"><ele>1155.160034</ele><time>2008-08-06T17:05:13Z</time></trkpt>
<trkpt lat="46.65875399" lon="6.34878203"><ele>1156.599976</ele><time>2008-08-06T17:05:27Z</time></trkpt>
<trkpt lat="46.65833398" lon="6.34890097"><ele>1157.560059</ele><time>2008-08-06T17:05:37Z</time></trkpt>
<trkpt lat="46.65769402" lon="6.34893802"><ele>1158.530029</ele><time>2008-08-06T17:05:50Z</time></trkpt>
<trkpt lat="46.65745304" lon="6.34893802"><ele>1158.530029</ele><time>2008-08-06T17:05:55Z</time></trkpt>
<trkpt lat="46.65721298" lon="6.34889703"><ele>1159.01001</ele><time>2008-08-06T17:06:00Z</time></trkpt>
<trkpt lat="46.65686597" lon="6.34875001"><ele>1159.48999</ele><time>2008-08-06T17:06:08Z</time></trkpt>
<trkpt lat="46.65643598" lon="6.34839596"><ele>1159.48999</ele><time>2008-08-06T17:06:17Z</time></trkpt>
<trkpt lat="46.65577800" lon="6.34810100"><ele>1160.449951</ele><time>2008-08-06T17:06:31Z</time></trkpt>
<trkpt lat="46.65551196" lon="6.34818801"><ele>1160.930054</ele><time>2008-08-06T17:06:37Z</time></trkpt>
<trkpt lat="46.65537600" lon="6.34825297"><ele>1160.930054</ele><time>2008-08-06T17:06:40Z</time></trkpt>
<trkpt lat="46.65482498" lon="6.34890902"><ele>1161.890015</ele><time>2008-08-06T17:06:53Z</time></trkpt>
<trkpt lat="46.65413800" lon="6.34966297"><ele>1162.849976</ele><time>2008-08-06T17:07:08Z</time></trkpt>
<trkpt lat="46.65380096" lon="6.35019396"><ele>1163.810059</ele><time>2008-08-06T17:07:17Z</time></trkpt>
<trkpt lat="46.65374598" lon="6.35032900"><ele>1163.810059</ele><time>2008-08-06T17:07:19Z</time></trkpt>
<trkpt lat="46.65350801" lon="6.35091900"><ele>1164.290039</ele><time>2008-08-06T17:07:27Z</time></trkpt>
<trkpt lat="46.65333400" lon="6.35111103"><ele>1164.77002</ele><time>2008-08-06T17:07:31Z</time></trkpt>
<trkpt lat="46.65284199" lon="6.35147598"><ele>1166.219971</ele><time>2008-08-06T17:07:41Z</time></trkpt>
<trkpt lat="46.65266002" lon="6.35177496"><ele>1166.699951</ele><time>2008-08-06T17:07:46Z</time></trkpt>
<trkpt lat="46.65260998" lon="6.35226304"><ele>1166.699951</ele><time>2008-08-06T17:07:52Z</time></trkpt>
<trkpt lat="46.65261199" lon="6.35243403"><ele>1167.180054</ele><time>2008-08-06T17:07:54Z</time></trkpt>
<trkpt lat="46.65259497" lon="6.35260703"><ele>1167.660034</ele><time>2008-08-06T17:07:56Z</time></trkpt>
<trkpt lat="46.65240697" lon="6.35310399"><ele>1168.140015</ele><time>2008-08-06T17:08:03Z</time></trkpt>
<trkpt lat="46.65173700" lon="6.35390002"><ele>1170.060059</ele><time>2008-08-06T17:08:19Z</time></trkpt>
<trkpt lat="46.65117298" lon="6.35464098"><ele>1171.5</ele><time>2008-08-06T17:08:33Z</time></trkpt>
<trkpt lat="46.65072296" lon="6.35528396"><ele>1172.949951</ele><time>2008-08-06T17:08:45Z</time></trkpt>
<trkpt lat="46.65064802" lon="6.35536401"><ele>1172.949951</ele><time>2008-08-06T17:08:47Z</time></trkpt>
<trkpt lat="46.65029498" lon="6.35566399"><ele>1173.430054</ele><time>2008-08-06T17:08:58Z</time></trkpt>
<trkpt lat="46.65023404" lon="6.35588896"><ele>1173.910034</ele><time>2008-08-06T17:10:16Z</time></trkpt>
<trkpt lat="46.65013396" lon="6.35649598"><ele>1175.349976</ele><time>2008-08-06T17:10:29Z</time></trkpt>
<trkpt lat="46.65006104" lon="6.35720098"><ele>1176.310059</ele><time>2008-08-06T17:10:42Z</time></trkpt>
<trkpt lat="46.65002902" lon="6.35746300"><ele>1176.790039</ele><time>2008-08-06T17:10:46Z</time></trkpt>
<trkpt lat="46.64994403" lon="6.35810204"><ele>1177.27002</ele><time>2008-08-06T17:10:58Z</time></trkpt>
<trkpt lat="46.64985702" lon="6.35805996"><ele>1175.829956</ele><time>2008-08-06T17:14:37Z</time></trkpt>
<trkpt lat="46.64971302" lon="6.35785704"><ele>1176.310059</ele><time>2008-08-06T17:14:58Z</time></trkpt>
<trkpt lat="46.64946299" lon="6.35794898"><ele>1178.709961</ele><time>2008-08-06T17:15:13Z</time></trkpt>
<trkpt lat="46.64930399" lon="6.35806499"><ele>1181.599976</ele><time>2008-08-06T17:16:12Z</time></trkpt>
<trkpt lat="46.64916602" lon="6.35810397"><ele>1183.52002</ele><time>2008-08-06T17:16:19Z</time></trkpt>
<trkpt lat="46.64907700" lon="6.35808603"><ele>1184.959961</ele><time>2008-08-06T17:16:24Z</time></trkpt>
<trkpt lat="46.64889998" lon="6.35806600"><ele>1187.369995</ele><time>2008-08-06T17:17:12Z</time></trkpt>
<trkpt lat="46.64869102" lon="6.35788403"><ele>1190.72998</ele><time>2008-08-06T17:17:23Z</time></trkpt>
<trkpt lat="46.64841198" lon="6.35780599"><ele>1192.650024</ele><time>2008-08-06T17:17:35Z</time></trkpt>
<trkpt lat="46.64809699" lon="6.35777003"><ele>1194.579956</ele><time>2008-08-06T17:19:22Z</time></trkpt>
<trkpt lat="46.64774302" lon="6.35789199"><ele>1197.459961</ele><time>2008-08-06T17:19:35Z</time></trkpt>
<trkpt lat="46.64755904" lon="6.35802601"><ele>1200.339966</ele><time>2008-08-06T17:19:48Z</time></trkpt>
<trkpt lat="46.64730800" lon="6.35799601"><ele>1202.75</ele><time>2008-08-06T17:20:02Z</time></trkpt>
<trkpt lat="46.64713299" lon="6.35776500"><ele>1206.109985</ele><time>2008-08-06T17:20:15Z</time></trkpt>
<trkpt lat="46.64707004" lon="6.35763399"><ele>1206.589966</ele><time>2008-08-06T17:20:23Z</time></trkpt>
<trkpt lat="46.64707499" lon="6.35746904"><ele>1207.550049</ele><time>2008-08-06T17:20:30Z</time></trkpt>
<trkpt lat="46.64694498" lon="6.35708104"><ele>1209.47998</ele><time>2008-08-06T17:20:42Z</time></trkpt>
<trkpt lat="46.64659303" lon="6.35693000"><ele>1211.400024</ele><time>2008-08-06T17:20:56Z</time></trkpt>
<trkpt lat="46.64625901" lon="6.35697400"><ele>1213.800049</ele><time>2008-08-06T17:21:12Z</time></trkpt>
<trkpt lat="46.64594502" lon="6.35696000"><ele>1216.689941</ele><time>2008-08-06T17:21:28Z</time></trkpt>
<trkpt lat="46.64571603" lon="6.35668600"><ele>1219.089966</ele><time>2008-08-06T17:21:41Z</time></trkpt>
<trkpt lat="46.64547698" lon="6.35633203"><ele>1221.01001</ele><time>2008-08-06T17:21:56Z</time></trkpt>
<trkpt lat="46.64516802" lon="6.35612902"><ele>1223.900024</ele><time>2008-08-06T17:22:11Z</time></trkpt>
<trkpt lat="46.64486996" lon="6.35599198"><ele>1226.780029</ele><time>2008-08-06T17:22:26Z</time></trkpt>
<trkpt lat="46.64461498" lon="6.35578101"><ele>1229.180054</ele><time>2008-08-06T17:22:40Z</time></trkpt>
<trkpt lat="46.64433997" lon="6.35558797"><ele>1232.550049</ele><time>2008-08-06T17:22:55Z</time></trkpt>
<trkpt lat="46.64411400" lon="6.35547096"><ele>1234.949951</ele><time>2008-08-06T17:23:09Z</time></trkpt>
<trkpt lat="46.64387100" lon="6.35527298"><ele>1237.829956</ele><time>2008-08-06T17:23:26Z</time></trkpt>
<trkpt lat="46.64357998" lon="6.35503703"><ele>1240.23999</ele><time>2008-08-06T17:23:43Z</time></trkpt>
<trkpt lat="46.64327798" lon="6.35482497"><ele>1242.640015</ele><time>2008-08-06T17:24:00Z</time></trkpt>
<trkpt lat="46.64300800" lon="6.35476604"><ele>1245.040039</ele><time>2008-08-06T17:24:14Z</time></trkpt>
<trkpt lat="46.64262403" lon="6.35475598"><ele>1246.969971</ele><time>2008-08-06T17:24:30Z</time></trkpt>
<trkpt lat="46.64225103" lon="6.35465104"><ele>1246.969971</ele><time>2008-08-06T17:24:42Z</time></trkpt>
<trkpt lat="46.64162398" lon="6.35471500"><ele>1247.449951</ele><time>2008-08-06T17:24:58Z</time></trkpt>
<trkpt lat="46.64118502" lon="6.35454803"><ele>1247.449951</ele><time>2008-08-06T17:25:10Z</time></trkpt>
<trkpt lat="46.64082502" lon="6.35434996"><ele>1246.969971</ele><time>2008-08-06T17:25:19Z</time></trkpt>
<trkpt lat="46.64026896" lon="6.35424502"><ele>1248.410034</ele><time>2008-08-06T17:25:31Z</time></trkpt>
<trkpt lat="46.64001097" lon="6.35401703"><ele>1250.329956</ele><time>2008-08-06T17:25:41Z</time></trkpt>
<trkpt lat="46.63993997" lon="6.35390304"><ele>1251.290039</ele><time>2008-08-06T17:25:47Z</time></trkpt>
<trkpt lat="46.63972104" lon="6.35356198"><ele>1253.219971</ele><time>2008-08-06T17:25:58Z</time></trkpt>
<trkpt lat="46.63932198" lon="6.35325696"><ele>1254.660034</ele><time>2008-08-06T17:26:10Z</time></trkpt>
<trkpt lat="46.63890003" lon="6.35317398"><ele>1257.540039</ele><time>2008-08-06T17:26:23Z</time></trkpt>
<trkpt lat="46.63854296" lon="6.35315898"><ele>1259.939941</ele><time>2008-08-06T17:26:34Z</time></trkpt>
<trkpt lat="46.63825496" lon="6.35300299"><ele>1261.869995</ele><time>2008-08-06T17:26:45Z</time></trkpt>
<trkpt lat="46.63799403" lon="6.35283200"><ele>1264.75</ele><time>2008-08-06T17:27:00Z</time></trkpt>
<trkpt lat="46.63773000" lon="6.35252003"><ele>1267.640015</ele><time>2008-08-06T17:27:15Z</time></trkpt>
<trkpt lat="46.63764300" lon="6.35245800"><ele>1267.640015</ele><time>2008-08-06T17:27:18Z</time></trkpt>
<trkpt lat="46.63744703" lon="6.35240704"><ele>1269.079956</ele><time>2008-08-06T17:27:26Z</time></trkpt>
<trkpt lat="46.63717696" lon="6.35246303"><ele>1271.959961</ele><time>2008-08-06T17:27:39Z</time></trkpt>
<trkpt lat="46.63683004" lon="6.35239799"><ele>1275.329956</ele><time>2008-08-06T17:27:56Z</time></trkpt>
<trkpt lat="46.63660599" lon="6.35245599"><ele>1276.77002</ele><time>2008-08-06T17:28:11Z</time></trkpt>
<trkpt lat="46.63640097" lon="6.35249396"><ele>1279.650024</ele><time>2008-08-06T17:30:33Z</time></trkpt>
<trkpt lat="46.63605798" lon="6.35284600"><ele>1283.02002</ele><time>2008-08-06T17:30:50Z</time></trkpt>
<trkpt lat="46.63576604" lon="6.35294298"><ele>1285.900024</ele><time>2008-08-06T17:31:05Z</time></trkpt>
<trkpt lat="46.63549203" lon="6.35278699"><ele>1288.780029</ele><time>2008-08-06T17:31:20Z</time></trkpt>
<trkpt lat="46.63525801" lon="6.35269001"><ele>1291.670044</ele><time>2008-08-06T17:31:34Z</time></trkpt>
<trkpt lat="46.63502701" lon="6.35261600"><ele>1294.550049</ele><time>2008-08-06T17:31:48Z</time></trkpt>
<trkpt lat="46.63481704" lon="6.35251801"><ele>1297.439941</ele><time>2008-08-06T17:32:02Z</time></trkpt>
<trkpt lat="46.63467002" lon="6.35235197"><ele>1299.359985</ele><time>2008-08-06T17:32:12Z</time></trkpt>
<trkpt lat="46.63454203" lon="6.35220302"><ele>1300.800049</ele><time>2008-08-06T17:32:21Z</time></trkpt>
<trkpt lat="46.63438898" lon="6.35197101"><ele>1302.23999</ele><time>2008-08-06T17:32:32Z</time></trkpt>
<trkpt lat="46.63411296" lon="6.35167798"><ele>1302.719971</ele><time>2008-08-06T17:32:44Z</time></trkpt>
<trkpt lat="46.63381599" lon="6.35131999"><ele>1303.689941</ele><time>2008-08-06T17:32:57Z</time></trkpt>
<trkpt lat="46.63339396" lon="6.35091799"><ele>1304.650024</ele><time>2008-08-06T17:33:11Z</time></trkpt>
<trkpt lat="46.63298501" lon="6.35074499"><ele>1305.130005</ele><time>2008-08-06T17:33:22Z</time></trkpt>
<trkpt lat="46.63277303" lon="6.35063100"><ele>1305.130005</ele><time>2008-08-06T17:33:27Z</time></trkpt>
<trkpt lat="46.63230599" lon="6.35025096"><ele>1305.609985</ele><time>2008-08-06T17:33:40Z</time></trkpt>
<trkpt lat="46.63202603" lon="6.34967403"><ele>1307.050049</ele><time>2008-08-06T17:33:53Z</time></trkpt>
<trkpt lat="46.63181498" lon="6.34925896"><ele>1307.530029</ele><time>2008-08-06T17:34:04Z</time></trkpt>
<trkpt lat="46.63128197" lon="6.34894498"><ele>1305.609985</ele><time>2008-08-06T17:34:16Z</time></trkpt>
<trkpt lat="46.63103102" lon="6.34880500"><ele>1304.170044</ele><time>2008-08-06T17:34:20Z</time></trkpt>
<trkpt lat="46.63066297" lon="6.34874197"><ele>1301.76001</ele><time>2008-08-06T17:34:25Z</time></trkpt>
<trkpt lat="46.63045904" lon="6.34878103"><ele>1298.880005</ele><time>2008-08-06T17:34:28Z</time></trkpt>
<trkpt lat="46.63033901" lon="6.34911899"><ele>1298.400024</ele><time>2008-08-06T17:34:35Z</time></trkpt>
<trkpt lat="46.63050304" lon="6.34944001"><ele>1298.400024</ele><time>2008-08-06T17:34:43Z</time></trkpt>
<trkpt lat="46.63076598" lon="6.34978501"><ele>1301.76001</ele><time>2008-08-06T17:34:55Z</time></trkpt>
<trkpt lat="46.63068602" lon="6.34986699"><ele>1303.199951</ele><time>2008-08-06T17:35:00Z</time></trkpt>
<trkpt lat="46.63035401" lon="6.34997704"><ele>1306.569946</ele><time>2008-08-06T17:35:15Z</time></trkpt>
<trkpt lat="46.63008403" lon="6.35007997"><ele>1308.969971</ele><time>2008-08-06T17:35:30Z</time></trkpt>
<trkpt lat="46.62983903" lon="6.35020000"><ele>1311.859985</ele><time>2008-08-06T17:35:46Z</time></trkpt>
<trkpt lat="46.62971498" lon="6.35029002"><ele>1312.819946</ele><time>2008-08-06T17:35:54Z</time></trkpt>
<trkpt lat="46.62941700" lon="6.35047702"><ele>1314.26001</ele><time>2008-08-06T17:36:10Z</time></trkpt>
<trkpt lat="46.62917803" lon="6.35053603"><ele>1316.180054</ele><time>2008-08-06T17:36:23Z</time></trkpt>
<trkpt lat="46.62891400" lon="6.35050200"><ele>1319.069946</ele><time>2008-08-06T17:36:38Z</time></trkpt>
<trkpt lat="46.62863103" lon="6.35049001"><ele>1321.469971</ele><time>2008-08-06T17:36:53Z</time></trkpt>
<trkpt lat="46.62834596" lon="6.35049496"><ele>1324.829956</ele><time>2008-08-06T17:37:11Z</time></trkpt>
<trkpt lat="46.62820296" lon="6.35053896"><ele>1326.280029</ele><time>2008-08-06T17:37:20Z</time></trkpt>
<trkpt lat="46.62808796" lon="6.35056998"><ele>1327.719971</ele><time>2008-08-06T17:37:28Z</time></trkpt>
<trkpt lat="46.62797799" lon="6.35062102"><ele>1329.160034</ele><time>2008-08-06T17:37:36Z</time></trkpt>
<trkpt lat="46.62772402" lon="6.35068900"><ele>1333.01001</ele><time>2008-08-06T17:37:54Z</time></trkpt>
<trkpt lat="46.62756301" lon="6.35075203"><ele>1336.369995</ele><time>2008-08-06T17:38:09Z</time></trkpt>
<trkpt lat="46.62747600" lon="6.35092202"><ele>1339.25</ele><time>2008-08-06T17:38:28Z</time></trkpt>
<trkpt lat="46.62756200" lon="6.35098496"><ele>1341.180054</ele><time>2008-08-06T17:38:39Z</time></trkpt>
<trkpt lat="46.62771799" lon="6.35114296"><ele>1343.579956</ele><time>2008-08-06T17:38:54Z</time></trkpt>
<trkpt lat="46.62790398" lon="6.35130096"><ele>1345.97998</ele><time>2008-08-06T17:39:08Z</time></trkpt>
<trkpt lat="46.62810900" lon="6.35151604"><ele>1347.910034</ele><time>2008-08-06T17:39:24Z</time></trkpt>
<trkpt lat="46.62840899" lon="6.35174797"><ele>1349.829956</ele><time>2008-08-06T17:39:41Z</time></trkpt>
<trkpt lat="46.62865701" lon="6.35186498"><ele>1351.75</ele><time>2008-08-06T17:39:55Z</time></trkpt>
<trkpt lat="46.62891702" lon="6.35200999"><ele>1354.150024</ele><time>2008-08-06T17:40:10Z</time></trkpt>
<trkpt lat="46.62908901" lon="6.35208702"><ele>1356.560059</ele><time>2008-08-06T17:40:21Z</time></trkpt>
<trkpt lat="46.62911902" lon="6.35241802"><ele>1361.359985</ele><time>2008-08-06T17:40:39Z</time></trkpt>
<trkpt lat="46.62892599" lon="6.35254500"><ele>1364.25</ele><time>2008-08-06T17:40:55Z</time></trkpt>
<trkpt lat="46.62875198" lon="6.35263201"><ele>1366.650024</ele><time>2008-08-06T17:41:09Z</time></trkpt>
<trkpt lat="46.62866497" lon="6.35267903"><ele>1367.609985</ele><time>2008-08-06T17:41:15Z</time></trkpt>
<trkpt lat="46.62856699" lon="6.35272698"><ele>1369.050049</ele><time>2008-08-06T17:41:24Z</time></trkpt>
<trkpt lat="46.62822803" lon="6.35286000"><ele>1372.900024</ele><time>2008-08-06T17:41:46Z</time></trkpt>
<trkpt lat="46.62799501" lon="6.35295999"><ele>1375.780029</ele><time>2008-08-06T17:42:01Z</time></trkpt>
<trkpt lat="46.62775001" lon="6.35309000"><ele>1378.670044</ele><time>2008-08-06T17:42:18Z</time></trkpt>
<trkpt lat="46.62751297" lon="6.35331002"><ele>1381.550049</ele><time>2008-08-06T17:42:33Z</time></trkpt>
<trkpt lat="46.62738204" lon="6.35345000"><ele>1382.51001</ele><time>2008-08-06T17:42:43Z</time></trkpt>
<trkpt lat="46.62743803" lon="6.35343902"><ele>1382.030029</ele><time>2008-08-06T17:43:07Z</time></trkpt>
<trkpt lat="46.62751297" lon="6.35329703"><ele>1383.469971</ele><time>2008-08-06T17:47:33Z</time></trkpt>
<trkpt lat="46.62801898" lon="6.35296100"><ele>1379.150024</ele><time>2008-08-06T17:47:41Z</time></trkpt>
<trkpt lat="46.62842902" lon="6.35279302"><ele>1375.300049</ele><time>2008-08-06T17:47:45Z</time></trkpt>
<trkpt lat="46.62877201" lon="6.35265900"><ele>1371.939941</ele><time>2008-08-06T17:47:48Z</time></trkpt>
<trkpt lat="46.62897896" lon="6.35254199"><ele>1369.050049</ele><time>2008-08-06T17:47:50Z</time></trkpt>
<trkpt lat="46.62907602" lon="6.35248398"><ele>1368.089966</ele><time>2008-08-06T17:47:51Z</time></trkpt>
<trkpt lat="46.62919999" lon="6.35220202"><ele>1362.329956</ele><time>2008-08-06T17:47:55Z</time></trkpt>
<trkpt lat="46.62895499" lon="6.35197302"><ele>1359.439941</ele><time>2008-08-06T17:47:58Z</time></trkpt>
<trkpt lat="46.62841796" lon="6.35171897"><ele>1355.599976</ele><time>2008-08-06T17:48:03Z</time></trkpt>
<trkpt lat="46.62804798" lon="6.35145100"><ele>1352.22998</ele><time>2008-08-06T17:48:07Z</time></trkpt>
<trkpt lat="46.62772302" lon="6.35118999"><ele>1348.390015</ele><time>2008-08-06T17:48:11Z</time></trkpt>
<trkpt lat="46.62747399" lon="6.35101497"><ele>1344.540039</ele><time>2008-08-06T17:48:15Z</time></trkpt>
<trkpt lat="46.62761003" lon="6.35076896"><ele>1339.72998</ele><time>2008-08-06T17:48:20Z</time></trkpt>
<trkpt lat="46.62771103" lon="6.35076804"><ele>1337.810059</ele><time>2008-08-06T17:48:21Z</time></trkpt>
<trkpt lat="46.62825803" lon="6.35056696"><ele>1332.52002</ele><time>2008-08-06T17:48:26Z</time></trkpt>
<trkpt lat="46.62862197" lon="6.35049697"><ele>1328.680054</ele><time>2008-08-06T17:48:29Z</time></trkpt>
<trkpt lat="46.62873304" lon="6.35047702"><ele>1327.23999</ele><time>2008-08-06T17:48:30Z</time></trkpt>
<trkpt lat="46.62922396" lon="6.35055598"><ele>1321.949951</ele><time>2008-08-06T17:48:34Z</time></trkpt>
<trkpt lat="46.62981598" lon="6.35025700"><ele>1317.619995</ele><time>2008-08-06T17:48:40Z</time></trkpt>
<trkpt lat="46.63000298" lon="6.35015499"><ele>1316.180054</ele><time>2008-08-06T17:48:42Z</time></trkpt>
<trkpt lat="46.63030003" lon="6.35005600"><ele>1313.300049</ele><time>2008-08-06T17:48:45Z</time></trkpt>
<trkpt lat="46.63061301" lon="6.34996003"><ele>1309.930054</ele><time>2008-08-06T17:48:48Z</time></trkpt>
<trkpt lat="46.63087101" lon="6.34986296"><ele>1307.050049</ele><time>2008-08-06T17:48:51Z</time></trkpt>
<trkpt lat="46.63120402" lon="6.34989096"><ele>1303.689941</ele><time>2008-08-06T17:48:55Z</time></trkpt>
<trkpt lat="46.63135800" lon="6.34997101"><ele>1303.199951</ele><time>2008-08-06T17:48:57Z</time></trkpt>
<trkpt lat="46.63168103" lon="6.35046998"><ele>1300.319946</ele><time>2008-08-06T17:49:02Z</time></trkpt>
<trkpt lat="46.63178899" lon="6.35089302"><ele>1298.400024</ele><time>2008-08-06T17:49:05Z</time></trkpt>
<trkpt lat="46.63191397" lon="6.35125000"><ele>1294.550049</ele><time>2008-08-06T17:49:08Z</time></trkpt>
<trkpt lat="46.63238998" lon="6.35207604"><ele>1291.670044</ele><time>2008-08-06T17:49:18Z</time></trkpt>
<trkpt lat="46.63319598" lon="6.35319603"><ele>1288.300049</ele><time>2008-08-06T17:49:30Z</time></trkpt>
<trkpt lat="46.63373603" lon="6.35384001"><ele>1285.420044</ele><time>2008-08-06T17:49:37Z</time></trkpt>
<trkpt lat="46.63396703" lon="6.35423002"><ele>1283.5</ele><time>2008-08-06T17:49:41Z</time></trkpt>
<trkpt lat="46.63426300" lon="6.35459798"><ele>1280.130005</ele><time>2008-08-06T17:49:45Z</time></trkpt>
<trkpt lat="46.63463498" lon="6.35478700"><ele>1274.359985</ele><time>2008-08-06T17:49:49Z</time></trkpt>
<trkpt lat="46.63501804" lon="6.35493703"><ele>1271</ele><time>2008-08-06T17:49:52Z</time></trkpt>
<trkpt lat="46.63542699" lon="6.35511800"><ele>1266.670044</ele><time>2008-08-06T17:49:55Z</time></trkpt>
<trkpt lat="46.63577400" lon="6.35539100"><ele>1261.869995</ele><time>2008-08-06T17:49:58Z</time></trkpt>
<trkpt lat="46.63616301" lon="6.35558596"><ele>1257.540039</ele><time>2008-08-06T17:50:01Z</time></trkpt>
<trkpt lat="46.63645101" lon="6.35576902"><ele>1254.180054</ele><time>2008-08-06T17:50:03Z</time></trkpt>
<trkpt lat="46.63658503" lon="6.35588000"><ele>1253.219971</ele><time>2008-08-06T17:50:04Z</time></trkpt>
<trkpt lat="46.63699902" lon="6.35609197"><ele>1247.930054</ele><time>2008-08-06T17:50:07Z</time></trkpt>
<trkpt lat="46.63739297" lon="6.35639699"><ele>1243.599976</ele><time>2008-08-06T17:50:10Z</time></trkpt>
<trkpt lat="46.63758600" lon="6.35654200"><ele>1241.199951</ele><time>2008-08-06T17:50:12Z</time></trkpt>
<trkpt lat="46.63781801" lon="6.35674601"><ele>1237.349976</ele><time>2008-08-06T17:50:16Z</time></trkpt>
<trkpt lat="46.63773797" lon="6.35706302"><ele>1234.469971</ele><time>2008-08-06T17:50:20Z</time></trkpt>
<trkpt lat="46.63762699" lon="6.35740701"><ele>1231.109985</ele><time>2008-08-06T17:50:23Z</time></trkpt>
<trkpt lat="46.63742700" lon="6.35772401"><ele>1226.300049</ele><time>2008-08-06T17:50:26Z</time></trkpt>
<trkpt lat="46.63716297" lon="6.35802702"><ele>1221.01001</ele><time>2008-08-06T17:50:29Z</time></trkpt>
<trkpt lat="46.63707303" lon="6.35811000"><ele>1219.569946</ele><time>2008-08-06T17:50:30Z</time></trkpt>
<trkpt lat="46.63689399" lon="6.35846699"><ele>1214.76001</ele><time>2008-08-06T17:50:33Z</time></trkpt>
<trkpt lat="46.63654304" lon="6.35885800"><ele>1208.51001</ele><time>2008-08-06T17:50:37Z</time></trkpt>
<trkpt lat="46.63628999" lon="6.35899303"><ele>1205.150024</ele><time>2008-08-06T17:50:39Z</time></trkpt>
<trkpt lat="46.63591901" lon="6.35911197"><ele>1200.339966</ele><time>2008-08-06T17:50:42Z</time></trkpt>
<trkpt lat="46.63559597" lon="6.35933502"><ele>1197.459961</ele><time>2008-08-06T17:50:45Z</time></trkpt>
<trkpt lat="46.63530604" lon="6.35960802"><ele>1192.650024</ele><time>2008-08-06T17:50:48Z</time></trkpt>
<trkpt lat="46.63489600" lon="6.35985998"><ele>1185.920044</ele><time>2008-08-06T17:50:52Z</time></trkpt>
<trkpt lat="46.63476197" lon="6.36014898"><ele>1181.119995</ele><time>2008-08-06T17:50:56Z</time></trkpt>
<trkpt lat="46.63494101" lon="6.36041402"><ele>1178.22998</ele><time>2008-08-06T17:51:00Z</time></trkpt>
<trkpt lat="46.63535499" lon="6.36047403"><ele>1172.949951</ele><time>2008-08-06T17:51:05Z</time></trkpt>
<trkpt lat="46.63564500" lon="6.36053799"><ele>1169.579956</ele><time>2008-08-06T17:51:08Z</time></trkpt>
<trkpt lat="46.63568197" lon="6.36075600"><ele>1168.619995</ele><time>2008-08-06T17:51:10Z</time></trkpt>
<trkpt lat="46.63568297" lon="6.36100503"><ele>1167.660034</ele><time>2008-08-06T17:51:12Z</time></trkpt>
<trkpt lat="46.63583603" lon="6.36194003"><ele>1165.26001</ele><time>2008-08-06T17:51:19Z</time></trkpt>
<trkpt lat="46.63593703" lon="6.36221504"><ele>1163.329956</ele><time>2008-08-06T17:51:21Z</time></trkpt>
<trkpt lat="46.63596896" lon="6.36272298"><ele>1159.969971</ele><time>2008-08-06T17:51:25Z</time></trkpt>
<trkpt lat="46.63589302" lon="6.36313797"><ele>1155.640015</ele><time>2008-08-06T17:51:28Z</time></trkpt>
<trkpt lat="46.63584701" lon="6.36368698"><ele>1150.349976</ele><time>2008-08-06T17:51:31Z</time></trkpt>
<trkpt lat="46.63583896" lon="6.36406400"><ele>1145.550049</ele><time>2008-08-06T17:51:33Z</time></trkpt>
<trkpt lat="46.63583603" lon="6.36441696"><ele>1140.73999</ele><time>2008-08-06T17:51:35Z</time></trkpt>
<trkpt lat="46.63582404" lon="6.36473296"><ele>1137.859985</ele><time>2008-08-06T17:51:37Z</time></trkpt>
<trkpt lat="46.63582102" lon="6.36503404"><ele>1134.969971</ele><time>2008-08-06T17:51:39Z</time></trkpt>
<trkpt lat="46.63580099" lon="6.36533403"><ele>1133.530029</ele><time>2008-08-06T17:51:41Z</time></trkpt>
<trkpt lat="46.63564400" lon="6.36600500"><ele>1129.689941</ele><time>2008-08-06T17:51:46Z</time></trkpt>
<trkpt lat="46.63561097" lon="6.36613098"><ele>1128.72998</ele><time>2008-08-06T17:51:47Z</time></trkpt>
<trkpt lat="46.63529397" lon="6.36667999"><ele>1124.880005</ele><time>2008-08-06T17:51:52Z</time></trkpt>
<trkpt lat="46.63493900" lon="6.36710504"><ele>1121.030029</ele><time>2008-08-06T17:51:56Z</time></trkpt>
<trkpt lat="46.63453499" lon="6.36757200"><ele>1117.189941</ele><time>2008-08-06T17:52:00Z</time></trkpt>
<trkpt lat="46.63425604" lon="6.36771801"><ele>1115.27002</ele><time>2008-08-06T17:52:03Z</time></trkpt>
<trkpt lat="46.63364902" lon="6.36746303"><ele>1112.859985</ele><time>2008-08-06T17:52:09Z</time></trkpt>
<trkpt lat="46.63336798" lon="6.36716103"><ele>1111.900024</ele><time>2008-08-06T17:52:12Z</time></trkpt>
<trkpt lat="46.63296296" lon="6.36690698"><ele>1110.459961</ele><time>2008-08-06T17:52:16Z</time></trkpt>
<trkpt lat="46.63187097" lon="6.36711300"><ele>1108.060059</ele><time>2008-08-06T17:52:28Z</time></trkpt>
<trkpt lat="46.63160501" lon="6.36706598"><ele>1107.579956</ele><time>2008-08-06T17:52:32Z</time></trkpt>
<trkpt lat="46.63123302" lon="6.36690698"><ele>1106.609985</ele><time>2008-08-06T17:52:38Z</time></trkpt>
<trkpt lat="46.63068602" lon="6.36703002"><ele>1104.689941</ele><time>2008-08-06T17:52:45Z</time></trkpt>
<trkpt lat="46.63027497" lon="6.36752799"><ele>1101.810059</ele><time>2008-08-06T17:52:50Z</time></trkpt>
<trkpt lat="46.63011697" lon="6.36774399"><ele>1100.369995</ele><time>2008-08-06T17:52:52Z</time></trkpt>
<trkpt lat="46.63001999" lon="6.36802596"><ele>1099.890015</ele><time>2008-08-06T17:52:54Z</time></trkpt>
<trkpt lat="46.62980399" lon="6.36872099"><ele>1097.959961</ele><time>2008-08-06T17:52:59Z</time></trkpt>
<trkpt lat="46.62923503" lon="6.37008699"><ele>1094.119995</ele><time>2008-08-06T17:53:09Z</time></trkpt>
<trkpt lat="46.62886698" lon="6.37147201"><ele>1091.709961</ele><time>2008-08-06T17:53:19Z</time></trkpt>
<trkpt lat="46.62871501" lon="6.37194400"><ele>1091.709961</ele><time>2008-08-06T17:53:23Z</time></trkpt>
<trkpt lat="46.62828200" lon="6.37221096"><ele>1091.709961</ele><time>2008-08-06T17:53:29Z</time></trkpt>
<trkpt lat="46.62804798" lon="6.37219797"><ele>1091.709961</ele><time>2008-08-06T17:53:32Z</time></trkpt>
<trkpt lat="46.62773903" lon="6.37198096"><ele>1091.22998</ele><time>2008-08-06T17:53:37Z</time></trkpt>
<trkpt lat="46.62725296" lon="6.37081202"><ele>1090.75</ele><time>2008-08-06T17:53:51Z</time></trkpt>
<trkpt lat="46.62650202" lon="6.36999998"><ele>1089.790039</ele><time>2008-08-06T17:54:04Z</time></trkpt>
<trkpt lat="46.62587497" lon="6.36972497"><ele>1089.310059</ele><time>2008-08-06T17:54:13Z</time></trkpt>
<trkpt lat="46.62510904" lon="6.36937000"><ele>1086.910034</ele><time>2008-08-06T17:54:24Z</time></trkpt>
<trkpt lat="46.62466999" lon="6.36923597"><ele>1084.98999</ele><time>2008-08-06T17:54:29Z</time></trkpt>
<trkpt lat="46.62410597" lon="6.36918400"><ele>1083.060059</ele><time>2008-08-06T17:54:35Z</time></trkpt>
<trkpt lat="46.62361404" lon="6.36935499"><ele>1079.219971</ele><time>2008-08-06T17:54:40Z</time></trkpt>
<trkpt lat="46.62341597" lon="6.36949103"><ele>1076.329956</ele><time>2008-08-06T17:54:42Z</time></trkpt>
<trkpt lat="46.62301498" lon="6.36962598"><ele>1072.48999</ele><time>2008-08-06T17:54:46Z</time></trkpt>
<trkpt lat="46.62267501" lon="6.36959899"><ele>1069.119995</ele><time>2008-08-06T17:54:49Z</time></trkpt>
<trkpt lat="46.62230697" lon="6.36953697"><ele>1066.23999</ele><time>2008-08-06T17:54:52Z</time></trkpt>
<trkpt lat="46.62185401" lon="6.36959497"><ele>1059.98999</ele><time>2008-08-06T17:54:56Z</time></trkpt>
<trkpt lat="46.62150599" lon="6.36960796"><ele>1056.630005</ele><time>2008-08-06T17:54:59Z</time></trkpt>
<trkpt lat="46.62127398" lon="6.36953504"><ele>1055.180054</ele><time>2008-08-06T17:55:01Z</time></trkpt>
<trkpt lat="46.62103702" lon="6.36944904"><ele>1052.300049</ele><time>2008-08-06T17:55:03Z</time></trkpt>
<trkpt lat="46.62061600" lon="6.36936304"><ele>1048.939941</ele><time>2008-08-06T17:55:06Z</time></trkpt>
<trkpt lat="46.62033102" lon="6.36928299"><ele>1045.089966</ele><time>2008-08-06T17:55:08Z</time></trkpt>
<trkpt lat="46.61997302" lon="6.36917604"><ele>1039.800049</ele><time>2008-08-06T17:55:11Z</time></trkpt>
<trkpt lat="46.61945502" lon="6.36940302"><ele>1034.52002</ele><time>2008-08-06T17:55:16Z</time></trkpt>
<trkpt lat="46.61893501" lon="6.36965297"><ele>1028.75</ele><time>2008-08-06T17:55:21Z</time></trkpt>
<trkpt lat="46.61869302" lon="6.36974500"><ele>1025.380005</ele><time>2008-08-06T17:55:23Z</time></trkpt>
<trkpt lat="46.61841801" lon="6.36980200"><ele>1021.539978</ele><time>2008-08-06T17:55:26Z</time></trkpt>
<trkpt lat="46.61815700" lon="6.36956404"><ele>1018.169983</ele><time>2008-08-06T17:55:30Z</time></trkpt>
<trkpt lat="46.61787403" lon="6.36956102"><ele>1013.369995</ele><time>2008-08-06T17:55:35Z</time></trkpt>
<trkpt lat="46.61786498" lon="6.36969203"><ele>1011.929993</ele><time>2008-08-06T17:55:36Z</time></trkpt>
<trkpt lat="46.61787998" lon="6.37006201"><ele>1010.47998</ele><time>2008-08-06T17:55:39Z</time></trkpt>
<trkpt lat="46.61796698" lon="6.37038304"><ele>1009.039978</ele><time>2008-08-06T17:55:42Z</time></trkpt>
<trkpt lat="46.61807503" lon="6.37054497"><ele>1007.119995</ele><time>2008-08-06T17:55:44Z</time></trkpt>
<trkpt lat="46.61845297" lon="6.37088000"><ele>1003.27002</ele><time>2008-08-06T17:55:48Z</time></trkpt>
<trkpt lat="46.61871096" lon="6.37102098"><ele>998.950012</ele><time>2008-08-06T17:55:51Z</time></trkpt>
<trkpt lat="46.61886401" lon="6.37108603"><ele>997.02002</ele><time>2008-08-06T17:55:53Z</time></trkpt>
<trkpt lat="46.61928596" lon="6.37153898"><ele>991.73999</ele><time>2008-08-06T17:55:58Z</time></trkpt>
<trkpt lat="46.61947497" lon="6.37189798"><ele>988.369995</ele><time>2008-08-06T17:56:01Z</time></trkpt>
<trkpt lat="46.61966600" lon="6.37228900"><ele>984.049988</ele><time>2008-08-06T17:56:04Z</time></trkpt>
<trkpt lat="46.61985702" lon="6.37256501"><ele>980.679993</ele><time>2008-08-06T17:56:07Z</time></trkpt>
<trkpt lat="46.61995299" lon="6.37278101"><ele>979.23999</ele><time>2008-08-06T17:56:08Z</time></trkpt>
<trkpt lat="46.61995299" lon="6.37298000"><ele>975.390015</ele><time>2008-08-06T17:56:14Z</time></trkpt>
<trkpt lat="46.61983900" lon="6.37294597"><ele>974.429993</ele><time>2008-08-06T17:56:16Z</time></trkpt>
<trkpt lat="46.61945703" lon="6.37279401"><ele>971.070007</ele><time>2008-08-06T17:56:21Z</time></trkpt>
<trkpt lat="46.61901900" lon="6.37283801"><ele>966.26001</ele><time>2008-08-06T17:56:26Z</time></trkpt>
<trkpt lat="46.61859898" lon="6.37262000"><ele>962.419983</ele><time>2008-08-06T17:56:31Z</time></trkpt>
<trkpt lat="46.61834199" lon="6.37243501"><ele>959.049988</ele><time>2008-08-06T17:56:34Z</time></trkpt>
<trkpt lat="46.61827904" lon="6.37259804"><ele>957.609985</ele><time>2008-08-06T17:56:37Z</time></trkpt>
<trkpt lat="46.61834601" lon="6.37279702"><ele>955.690002</ele><time>2008-08-06T17:56:40Z</time></trkpt>
<trkpt lat="46.61853704" lon="6.37320396"><ele>952.799988</ele><time>2008-08-06T17:56:44Z</time></trkpt>
<trkpt lat="46.61880501" lon="6.37349599"><ele>948</ele><time>2008-08-06T17:56:48Z</time></trkpt>
<trkpt lat="46.61897600" lon="6.37383102"><ele>945.590027</ele><time>2008-08-06T17:56:51Z</time></trkpt>
<trkpt lat="46.61901397" lon="6.37396102"><ele>944.150024</ele><time>2008-08-06T17:56:52Z</time></trkpt>
<trkpt lat="46.61919401" lon="6.37425204"><ele>941.27002</ele><time>2008-08-06T17:56:55Z</time></trkpt>
<trkpt lat="46.61921103" lon="6.37463199"><ele>935.97998</ele><time>2008-08-06T17:56:59Z</time></trkpt>
<trkpt lat="46.61911103" lon="6.37459603"><ele>935.02002</ele><time>2008-08-06T17:57:01Z</time></trkpt>
<trkpt lat="46.61862102" lon="6.37434600"><ele>928.77002</ele><time>2008-08-06T17:57:06Z</time></trkpt>
<trkpt lat="46.61811601" lon="6.37422999"><ele>922.52002</ele><time>2008-08-06T17:57:10Z</time></trkpt>
<trkpt lat="46.61766004" lon="6.37419797"><ele>918.679993</ele><time>2008-08-06T17:57:13Z</time></trkpt>
<trkpt lat="46.61725896" lon="6.37398901"><ele>915.789978</ele><time>2008-08-06T17:57:16Z</time></trkpt>
<trkpt lat="46.61661498" lon="6.37371501"><ele>912.429993</ele><time>2008-08-06T17:57:21Z</time></trkpt>
<trkpt lat="46.61637099" lon="6.37358601"><ele>910.98999</ele><time>2008-08-06T17:57:23Z</time></trkpt>
<trkpt lat="46.61604803" lon="6.37341804"><ele>907.619995</ele><time>2008-08-06T17:57:26Z</time></trkpt>
<trkpt lat="46.61568702" lon="6.37353698"><ele>904.26001</ele><time>2008-08-06T17:57:30Z</time></trkpt>
<trkpt lat="46.61547496" lon="6.37364804"><ele>902.820007</ele><time>2008-08-06T17:57:32Z</time></trkpt>
<trkpt lat="46.61526499" lon="6.37365500"><ele>900.409973</ele><time>2008-08-06T17:57:34Z</time></trkpt>
<trkpt lat="46.61484699" lon="6.37399999"><ele>895.119995</ele><time>2008-08-06T17:57:38Z</time></trkpt>
<trkpt lat="46.61476300" lon="6.37406101"><ele>893.679993</ele><time>2008-08-06T17:57:39Z</time></trkpt>
<trkpt lat="46.61432203" lon="6.37424801"><ele>887.909973</ele><time>2008-08-06T17:57:43Z</time></trkpt>
<trkpt lat="46.61410804" lon="6.37429303"><ele>884.549988</ele><time>2008-08-06T17:57:45Z</time></trkpt>
<trkpt lat="46.61378601" lon="6.37424500"><ele>879.73999</ele><time>2008-08-06T17:57:48Z</time></trkpt>
<trkpt lat="46.61357897" lon="6.37420602"><ele>876.859985</ele><time>2008-08-06T17:57:50Z</time></trkpt>
<trkpt lat="46.61338502" lon="6.37416101"><ele>873.5</ele><time>2008-08-06T17:57:52Z</time></trkpt>
<trkpt lat="46.61321796" lon="6.37408901"><ele>870.130005</ele><time>2008-08-06T17:57:54Z</time></trkpt>
<trkpt lat="46.61288001" lon="6.37405397"><ele>865.799988</ele><time>2008-08-06T17:57:57Z</time></trkpt>
<trkpt lat="46.61264800" lon="6.37409898"><ele>863.400024</ele><time>2008-08-06T17:57:59Z</time></trkpt>
<trkpt lat="46.61224097" lon="6.37422002"><ele>858.590027</ele><time>2008-08-06T17:58:02Z</time></trkpt>
<trkpt lat="46.61187703" lon="6.37442202"><ele>853.789978</ele><time>2008-08-06T17:58:05Z</time></trkpt>
<trkpt lat="46.61163798" lon="6.37458103"><ele>850.900024</ele><time>2008-08-06T17:58:07Z</time></trkpt>
<trkpt lat="46.61114302" lon="6.37471799"><ele>845.619995</ele><time>2008-08-06T17:58:11Z</time></trkpt>
<trkpt lat="46.61089500" lon="6.37475696"><ele>842.72998</ele><time>2008-08-06T17:58:13Z</time></trkpt>
<trkpt lat="46.61052503" lon="6.37501102"><ele>837.929993</ele><time>2008-08-06T17:58:16Z</time></trkpt>
<trkpt lat="46.61040902" lon="6.37511303"><ele>836</ele><time>2008-08-06T17:58:17Z</time></trkpt>
<trkpt lat="46.60991097" lon="6.37539600"><ele>830.719971</ele><time>2008-08-06T17:58:21Z</time></trkpt>
<trkpt lat="46.60949003" lon="6.37556599"><ele>827.349976</ele><time>2008-08-06T17:58:24Z</time></trkpt>
<trkpt lat="46.60907596" lon="6.37575600"><ele>823.98999</ele><time>2008-08-06T17:58:27Z</time></trkpt>
<trkpt lat="46.60867103" lon="6.37596002"><ele>820.140015</ele><time>2008-08-06T17:58:30Z</time></trkpt>
<trkpt lat="46.60827599" lon="6.37617300"><ele>816.780029</ele><time>2008-08-06T17:58:33Z</time></trkpt>
<trkpt lat="46.60802303" lon="6.37631600"><ele>813.409973</ele><time>2008-08-06T17:58:35Z</time></trkpt>
<trkpt lat="46.60764500" lon="6.37654600"><ele>809.570007</ele><time>2008-08-06T17:58:38Z</time></trkpt>
<trkpt lat="46.60746999" lon="6.37671296"><ele>806.200012</ele><time>2008-08-06T17:58:40Z</time></trkpt>
<trkpt lat="46.60706799" lon="6.37726801"><ele>801.400024</ele><time>2008-08-06T17:58:46Z</time></trkpt>
<trkpt lat="46.60679801" lon="6.37759499"><ele>796.590027</ele><time>2008-08-06T17:58:49Z</time></trkpt>
<trkpt lat="46.60648503" lon="6.37792801"><ele>792.26001</ele><time>2008-08-06T17:58:52Z</time></trkpt>
<trkpt lat="46.60615001" lon="6.37828901"><ele>788.419983</ele><time>2008-08-06T17:58:55Z</time></trkpt>
<trkpt lat="46.60605202" lon="6.37837803"><ele>787.460022</ele><time>2008-08-06T17:58:56Z</time></trkpt>
<trkpt lat="46.60569403" lon="6.37861398"><ele>781.690002</ele><time>2008-08-06T17:59:00Z</time></trkpt>
<trkpt lat="46.60533898" lon="6.37872504"><ele>779.289978</ele><time>2008-08-06T17:59:04Z</time></trkpt>
<trkpt lat="46.60514703" lon="6.37867198"><ele>777.840027</ele><time>2008-08-06T17:59:06Z</time></trkpt>
<trkpt lat="46.60387097" lon="6.37816102"><ele>775.440002</ele><time>2008-08-06T17:59:21Z</time></trkpt>
<trkpt lat="46.60349303" lon="6.37807100"><ele>774.960022</ele><time>2008-08-06T17:59:26Z</time></trkpt>
<trkpt lat="46.60266800" lon="6.37832900"><ele>773.039978</ele><time>2008-08-06T17:59:38Z</time></trkpt>
<trkpt lat="46.60247002" lon="6.37837401"><ele>773.039978</ele><time>2008-08-06T17:59:41Z</time></trkpt>
<trkpt lat="46.60184297" lon="6.37826303"><ele>774.960022</ele><time>2008-08-06T17:59:54Z</time></trkpt>
<trkpt lat="46.60125598" lon="6.37801803"><ele>776.880005</ele><time>2008-08-06T18:00:09Z</time></trkpt>
<trkpt lat="46.60105197" lon="6.37788903"><ele>775.919983</ele><time>2008-08-06T18:00:14Z</time></trkpt>
<trkpt lat="46.60096698" lon="6.37782298"><ele>775.919983</ele><time>2008-08-06T18:00:16Z</time></trkpt>
<trkpt lat="46.60072600" lon="6.37755099"><ele>775.919983</ele><time>2008-08-06T18:00:22Z</time></trkpt>
<trkpt lat="46.60043498" lon="6.37700600"><ele>776.880005</ele><time>2008-08-06T18:00:33Z</time></trkpt>
<trkpt lat="46.60027899" lon="6.37666502"><ele>776.880005</ele><time>2008-08-06T18:00:43Z</time></trkpt>
<trkpt lat="46.60010297" lon="6.37646704"><ele>775.440002</ele><time>2008-08-06T18:01:44Z</time></trkpt>
<trkpt lat="46.59995704" lon="6.37627501"><ele>774</ele><time>2008-08-06T18:01:47Z</time></trkpt>
<trkpt lat="46.59986299" lon="6.37609203"><ele>773.039978</ele><time>2008-08-06T18:01:49Z</time></trkpt>
<trkpt lat="46.59979904" lon="6.37573102"><ele>771.599976</ele><time>2008-08-06T18:01:52Z</time></trkpt>
<trkpt lat="46.59970097" lon="6.37448799"><ele>768.710022</ele><time>2008-08-06T18:02:01Z</time></trkpt>
<trkpt lat="46.59964297" lon="6.37420803"><ele>767.75</ele><time>2008-08-06T18:02:03Z</time></trkpt>
<trkpt lat="46.59946402" lon="6.37377997"><ele>766.789978</ele><time>2008-08-06T18:02:07Z</time></trkpt>
<trkpt lat="46.59921499" lon="6.37347302"><ele>766.789978</ele><time>2008-08-06T18:02:11Z</time></trkpt>
<trkpt lat="46.59897703" lon="6.37331603"><ele>766.309998</ele><time>2008-08-06T18:02:15Z</time></trkpt>
<trkpt lat="46.59866396" lon="6.37321503"><ele>764.869995</ele><time>2008-08-06T18:02:20Z</time></trkpt>
<trkpt lat="46.59772997" lon="6.37293600"><ele>761.5</ele><time>2008-08-06T18:02:32Z</time></trkpt>
<trkpt lat="46.59665801" lon="6.37256199"><ele>758.619995</ele><time>2008-08-06T18:02:44Z</time></trkpt>
<trkpt lat="46.59612701" lon="6.37218196"><ele>757.659973</ele><time>2008-08-06T18:02:51Z</time></trkpt>
<trkpt lat="46.59595099" lon="6.37156203"><ele>757.659973</ele><time>2008-08-06T18:02:57Z</time></trkpt>
<trkpt lat="46.59586902" lon="6.37127697"><ele>757.659973</ele><time>2008-08-06T18:03:00Z</time></trkpt>
<trkpt lat="46.59571001" lon="6.37101302"><ele>758.140015</ele><time>2008-08-06T18:03:04Z</time></trkpt>
<trkpt lat="46.59533501" lon="6.37050097"><ele>761.02002</ele><time>2008-08-06T18:03:15Z</time></trkpt>
<trkpt lat="46.59517902" lon="6.37016200"><ele>763.419983</ele><time>2008-08-06T18:03:23Z</time></trkpt>
<trkpt lat="46.59500401" lon="6.36971701"><ele>765.830017</ele><time>2008-08-06T18:03:38Z</time></trkpt>
<trkpt lat="46.59479999" lon="6.36941803"><ele>767.75</ele><time>2008-08-06T18:03:51Z</time></trkpt>
<trkpt lat="46.59448500" lon="6.36904897"><ele>769.190002</ele><time>2008-08-06T18:04:07Z</time></trkpt>
<trkpt lat="46.59434997" lon="6.36855000"><ele>771.599976</ele><time>2008-08-06T18:04:22Z</time></trkpt>
<trkpt lat="46.59414603" lon="6.36833701"><ele>773.039978</ele><time>2008-08-06T18:04:34Z</time></trkpt>
<trkpt lat="46.59386700" lon="6.36833500"><ele>774.960022</ele><time>2008-08-06T18:04:49Z</time></trkpt>
<trkpt lat="46.59376700" lon="6.36861303"><ele>776.880005</ele><time>2008-08-06T18:05:01Z</time></trkpt>
<trkpt lat="46.59374697" lon="6.36878503"><ele>777.840027</ele><time>2008-08-06T18:05:06Z</time></trkpt>
<trkpt lat="46.59368201" lon="6.36889399"><ele>778.809998</ele><time>2008-08-06T18:05:11Z</time></trkpt>
<trkpt lat="46.59336501" lon="6.36902098"><ele>780.25</ele><time>2008-08-06T18:05:24Z</time></trkpt>
<trkpt lat="46.59323702" lon="6.36900597"><ele>779.77002</ele><time>2008-08-06T18:05:34Z</time></trkpt>
<trkpt lat="46.59300299" lon="6.36894302"><ele>781.210022</ele><time>2008-08-06T18:06:49Z</time></trkpt>
<trkpt lat="46.59267903" lon="6.36884797"><ele>782.169983</ele><time>2008-08-06T18:07:01Z</time></trkpt>
<trkpt lat="46.59234099" lon="6.36867899"><ele>781.690002</ele><time>2008-08-06T18:07:11Z</time></trkpt>
<trkpt lat="46.59218199" lon="6.36846098"><ele>782.650024</ele><time>2008-08-06T18:07:16Z</time></trkpt>
<trkpt lat="46.59204704" lon="6.36800601"><ele>781.210022</ele><time>2008-08-06T18:07:26Z</time></trkpt>
<trkpt lat="46.59193598" lon="6.36761399"><ele>780.72998</ele><time>2008-08-06T18:07:29Z</time></trkpt>
<trkpt lat="46.59165200" lon="6.36731501"><ele>778.320007</ele><time>2008-08-06T18:07:39Z</time></trkpt>
<trkpt lat="46.59123399" lon="6.36714301"><ele>777.840027</ele><time>2008-08-06T18:07:49Z</time></trkpt>
<trkpt lat="46.59083200" lon="6.36702902"><ele>780.25</ele><time>2008-08-06T18:08:00Z</time></trkpt>
<trkpt lat="46.59046596" lon="6.36685903"><ele>781.210022</ele><time>2008-08-06T18:08:12Z</time></trkpt>
<trkpt lat="46.59013504" lon="6.36673498"><ele>781.690002</ele><time>2008-08-06T18:08:25Z</time></trkpt>
<trkpt lat="46.58980597" lon="6.36658603"><ele>782.169983</ele><time>2008-08-06T18:08:36Z</time></trkpt>
<trkpt lat="46.58947798" lon="6.36647296"><ele>781.210022</ele><time>2008-08-06T18:08:47Z</time></trkpt>
<trkpt lat="46.58932602" lon="6.36638202"><ele>781.210022</ele><time>2008-08-06T18:08:53Z</time></trkpt>
<trkpt lat="46.58901899" lon="6.36617599"><ele>780.72998</ele><time>2008-08-06T18:09:05Z</time></trkpt>
<trkpt lat="46.58875102" lon="6.36601497"><ele>779.77002</ele><time>2008-08-06T18:09:14Z</time></trkpt>
<trkpt lat="46.58851599" lon="6.36589201"><ele>780.25</ele><time>2008-08-06T18:09:42Z</time></trkpt>
<trkpt lat="46.58814903" lon="6.36561197"><ele>780.25</ele><time>2008-08-06T18:09:53Z</time></trkpt>
<trkpt lat="46.58787402" lon="6.36543402"><ele>779.77002</ele><time>2008-08-06T18:10:01Z</time></trkpt>
<trkpt lat="46.58756901" lon="6.36524904"><ele>778.809998</ele><time>2008-08-06T18:10:09Z</time></trkpt>
<trkpt lat="46.58744001" lon="6.36517201"><ele>778.809998</ele><time>2008-08-06T18:10:12Z</time></trkpt>
<trkpt lat="46.58694204" lon="6.36504703"><ele>778.320007</ele><time>2008-08-06T18:10:21Z</time></trkpt>
<trkpt lat="46.58674699" lon="6.36503697"><ele>777.359985</ele><time>2008-08-06T18:10:24Z</time></trkpt>
<trkpt lat="46.58615297" lon="6.36491602"><ele>776.400024</ele><time>2008-08-06T18:10:33Z</time></trkpt>
<trkpt lat="46.58553304" lon="6.36483396"><ele>775.440002</ele><time>2008-08-06T18:10:44Z</time></trkpt>
<trkpt lat="46.58476400" lon="6.36462802"><ele>772.080017</ele><time>2008-08-06T18:10:55Z</time></trkpt>
<trkpt lat="46.58383797" lon="6.36450204"><ele>770.150024</ele><time>2008-08-06T18:11:08Z</time></trkpt>
<trkpt lat="46.58344796" lon="6.36459500"><ele>768.22998</ele><time>2008-08-06T18:11:14Z</time></trkpt>
<trkpt lat="46.58320103" lon="6.36464898"><ele>767.27002</ele><time>2008-08-06T18:11:18Z</time></trkpt>
<trkpt lat="46.58274497" lon="6.36463397"><ele>766.789978</ele><time>2008-08-06T18:11:26Z</time></trkpt>
<trkpt lat="46.58212496" lon="6.36463699"><ele>767.27002</ele><time>2008-08-06T18:11:38Z</time></trkpt>
<trkpt lat="46.58146203" lon="6.36472399"><ele>764.390015</ele><time>2008-08-06T18:11:49Z</time></trkpt>
<trkpt lat="46.58137201" lon="6.36479096"><ele>763.419983</ele><time>2008-08-06T18:11:51Z</time></trkpt>
<trkpt lat="46.58116104" lon="6.36483598"><ele>763.419983</ele><time>2008-08-06T18:11:56Z</time></trkpt>
<trkpt lat="46.58008799" lon="6.36462802"><ele>762.460022</ele><time>2008-08-06T18:12:13Z</time></trkpt>
<trkpt lat="46.57882098" lon="6.36434899"><ele>759.099976</ele><time>2008-08-06T18:12:29Z</time></trkpt>
<trkpt lat="46.57791004" lon="6.36414698"><ele>757.659973</ele><time>2008-08-06T18:12:40Z</time></trkpt>
<trkpt lat="46.57758700" lon="6.36425796"><ele>756.210022</ele><time>2008-08-06T18:12:46Z</time></trkpt>
<trkpt lat="46.57757602" lon="6.36459600"><ele>755.72998</ele><time>2008-08-06T18:12:52Z</time></trkpt>
<trkpt lat="46.57779202" lon="6.36486196"><ele>754.289978</ele><time>2008-08-06T18:12:56Z</time></trkpt>
<trkpt lat="46.57846802" lon="6.36530503"><ele>750.929993</ele><time>2008-08-06T18:13:04Z</time></trkpt>
<trkpt lat="46.57860297" lon="6.36578204"><ele>747.559998</ele><time>2008-08-06T18:13:09Z</time></trkpt>
<trkpt lat="46.57841404" lon="6.36633198"><ele>744.200012</ele><time>2008-08-06T18:13:13Z</time></trkpt>
<trkpt lat="46.57856600" lon="6.36713203"><ele>739.869995</ele><time>2008-08-06T18:13:19Z</time></trkpt>
<trkpt lat="46.57908702" lon="6.36770099"><ele>736.030029</ele><time>2008-08-06T18:13:25Z</time></trkpt>
<trkpt lat="46.57929800" lon="6.36808899"><ele>734.580017</ele><time>2008-08-06T18:13:28Z</time></trkpt>
<trkpt lat="46.57939699" lon="6.36838202"><ele>733.619995</ele><time>2008-08-06T18:13:30Z</time></trkpt>
<trkpt lat="46.57950704" lon="6.36866198"><ele>732.659973</ele><time>2008-08-06T18:13:32Z</time></trkpt>
<trkpt lat="46.57963797" lon="6.36892400"><ele>730.73999</ele><time>2008-08-06T18:13:34Z</time></trkpt>
<trkpt lat="46.57970200" lon="6.36923798"><ele>729.299988</ele><time>2008-08-06T18:13:36Z</time></trkpt>
<trkpt lat="46.57967099" lon="6.36957502"><ele>727.369995</ele><time>2008-08-06T18:13:38Z</time></trkpt>
<trkpt lat="46.57958499" lon="6.37009101"><ele>725.450012</ele><time>2008-08-06T18:13:41Z</time></trkpt>
<trkpt lat="46.57949799" lon="6.37081797"><ele>722.570007</ele><time>2008-08-06T18:13:45Z</time></trkpt>
<trkpt lat="46.57944099" lon="6.37156203"><ele>719.200012</ele><time>2008-08-06T18:13:49Z</time></trkpt>
<trkpt lat="46.57943001" lon="6.37174803"><ele>718.719971</ele><time>2008-08-06T18:13:50Z</time></trkpt>
<trkpt lat="46.57949497" lon="6.37228296"><ele>716.320007</ele><time>2008-08-06T18:13:53Z</time></trkpt>
<trkpt lat="46.57936497" lon="6.37301596"><ele>713.919983</ele><time>2008-08-06T18:13:58Z</time></trkpt>
<trkpt lat="46.57889600" lon="6.37382397"><ele>712.469971</ele><time>2008-08-06T18:14:05Z</time></trkpt>
<trkpt lat="46.57874797" lon="6.37435103"><ele>711.98999</ele><time>2008-08-06T18:14:09Z</time></trkpt>
<trkpt lat="46.57832402" lon="6.37506299"><ele>712.469971</ele><time>2008-08-06T18:14:18Z</time></trkpt>
<trkpt lat="46.57783996" lon="6.37549901"><ele>711.98999</ele><time>2008-08-06T18:14:26Z</time></trkpt>
<trkpt lat="46.57767098" lon="6.37593102"><ele>711.98999</ele><time>2008-08-06T18:14:31Z</time></trkpt>
<trkpt lat="46.57744601" lon="6.37711597"><ele>710.549988</ele><time>2008-08-06T18:14:42Z</time></trkpt>
<trkpt lat="46.57726496" lon="6.37748896"><ele>710.549988</ele><time>2008-08-06T18:14:46Z</time></trkpt>
<trkpt lat="46.57711904" lon="6.37786900"><ele>710.549988</ele><time>2008-08-06T18:14:50Z</time></trkpt>
<trkpt lat="46.57683204" lon="6.37934899"><ele>710.070007</ele><time>2008-08-06T18:15:06Z</time></trkpt>
<trkpt lat="46.57664898" lon="6.38027896"><ele>707.190002</ele><time>2008-08-06T18:15:14Z</time></trkpt>
<trkpt lat="46.57653297" lon="6.38064399"><ele>705.75</ele><time>2008-08-06T18:15:17Z</time></trkpt>
<trkpt lat="46.57645200" lon="6.38090702"><ele>704.780029</ele><time>2008-08-06T18:15:19Z</time></trkpt>
<trkpt lat="46.57622896" lon="6.38176097"><ele>701.419983</ele><time>2008-08-06T18:15:25Z</time></trkpt>
<trkpt lat="46.57619602" lon="6.38189499"><ele>700.940002</ele><time>2008-08-06T18:15:26Z</time></trkpt>
<trkpt lat="46.57574901" lon="6.38258901"><ele>697.570007</ele><time>2008-08-06T18:15:34Z</time></trkpt>
<trkpt lat="46.57552203" lon="6.38304901"><ele>694.690002</ele><time>2008-08-06T18:15:40Z</time></trkpt>
<trkpt lat="46.57544903" lon="6.38322403"><ele>692.289978</ele><time>2008-08-06T18:15:43Z</time></trkpt>
<trkpt lat="46.57525599" lon="6.38354396"><ele>688.919983</ele><time>2008-08-06T18:15:48Z</time></trkpt>
<trkpt lat="46.57515398" lon="6.38370699"><ele>688.440002</ele><time>2008-08-06T18:15:50Z</time></trkpt>
<trkpt lat="46.57501702" lon="6.38420002"><ele>686.039978</ele><time>2008-08-06T18:15:54Z</time></trkpt>
<trkpt lat="46.57474704" lon="6.38509101"><ele>684.599976</ele><time>2008-08-06T18:16:04Z</time></trkpt>
<trkpt lat="46.57465400" lon="6.38541900"><ele>684.119995</ele><time>2008-08-06T18:16:08Z</time></trkpt>
<trkpt lat="46.57460799" lon="6.38563600"><ele>684.119995</ele><time>2008-08-06T18:16:11Z</time></trkpt>
<trkpt lat="46.57457303" lon="6.38585896"><ele>684.119995</ele><time>2008-08-06T18:16:14Z</time></trkpt>
<trkpt lat="46.57443901" lon="6.38635400"><ele>683.630005</ele><time>2008-08-06T18:16:21Z</time></trkpt>
<trkpt lat="46.57438897" lon="6.38665298"><ele>683.630005</ele><time>2008-08-06T18:16:26Z</time></trkpt>
<trkpt lat="46.57436298" lon="6.38677997"><ele>684.119995</ele><time>2008-08-06T18:16:29Z</time></trkpt>
<trkpt lat="46.57409904" lon="6.38742202"><ele>686.039978</ele><time>2008-08-06T18:16:41Z</time></trkpt>
<trkpt lat="46.57404204" lon="6.38760500"><ele>686.52002</ele><time>2008-08-06T18:16:43Z</time></trkpt>
<trkpt lat="46.57378899" lon="6.38789803"><ele>689.880005</ele><time>2008-08-06T18:16:52Z</time></trkpt>
<trkpt lat="46.57359998" lon="6.38831503"><ele>691.330017</ele><time>2008-08-06T18:17:05Z</time></trkpt>
<trkpt lat="46.57349696" lon="6.38860303"><ele>691.330017</ele><time>2008-08-06T18:17:09Z</time></trkpt>
<trkpt lat="46.57334601" lon="6.38937701"><ele>692.289978</ele><time>2008-08-06T18:17:20Z</time></trkpt>
<trkpt lat="46.57334601" lon="6.38962604"><ele>693.25</ele><time>2008-08-06T18:17:23Z</time></trkpt>
<trkpt lat="46.57307401" lon="6.39018201"><ele>692.77002</ele><time>2008-08-06T18:17:32Z</time></trkpt>
<trkpt lat="46.57287100" lon="6.39080403"><ele>692.289978</ele><time>2008-08-06T18:17:40Z</time></trkpt>
<trkpt lat="46.57271996" lon="6.39123604"><ele>691.809998</ele><time>2008-08-06T18:17:46Z</time></trkpt>
<trkpt lat="46.57265902" lon="6.39159202"><ele>691.809998</ele><time>2008-08-06T18:17:51Z</time></trkpt>
<trkpt lat="46.57267897" lon="6.39188899"><ele>692.289978</ele><time>2008-08-06T18:17:56Z</time></trkpt>
<trkpt lat="46.57274301" lon="6.39225796"><ele>691.330017</ele><time>2008-08-06T18:18:01Z</time></trkpt>
<trkpt lat="46.57283404" lon="6.39296497"><ele>690.359985</ele><time>2008-08-06T18:18:09Z</time></trkpt>
<trkpt lat="46.57287997" lon="6.39357702"><ele>689.400024</ele><time>2008-08-06T18:18:19Z</time></trkpt>
<trkpt lat="46.57293202" lon="6.39383401"><ele>688.440002</ele><time>2008-08-06T18:18:22Z</time></trkpt>
<trkpt lat="46.57296597" lon="6.39466097"><ele>688.440002</ele><time>2008-08-06T18:18:30Z</time></trkpt>
<trkpt lat="46.57297301" lon="6.39481402"><ele>688.440002</ele><time>2008-08-06T18:18:32Z</time></trkpt>
<trkpt lat="46.57297502" lon="6.39543101"><ele>688.440002</ele><time>2008-08-06T18:18:39Z</time></trkpt>
<trkpt lat="46.57298299" lon="6.39581499"><ele>688.440002</ele><time>2008-08-06T18:18:42Z</time></trkpt>
<trkpt lat="46.57293898" lon="6.39618999"><ele>687.960022</ele><time>2008-08-06T18:18:46Z</time></trkpt>
<trkpt lat="46.57270898" lon="6.39707403"><ele>686.52002</ele><time>2008-08-06T18:18:54Z</time></trkpt>
<trkpt lat="46.57264402" lon="6.39727604"><ele>686.039978</ele><time>2008-08-06T18:18:56Z</time></trkpt>
<trkpt lat="46.57244897" lon="6.39776202"><ele>685.080017</ele><time>2008-08-06T18:19:00Z</time></trkpt>
<trkpt lat="46.57202703" lon="6.39803703"><ele>684.599976</ele><time>2008-08-06T18:19:06Z</time></trkpt>
<trkpt lat="46.57157801" lon="6.39815496"><ele>685.080017</ele><time>2008-08-06T18:19:13Z</time></trkpt>
<trkpt lat="46.57135698" lon="6.39840198"><ele>685.559998</ele><time>2008-08-06T18:19:18Z</time></trkpt>
<trkpt lat="46.57118498" lon="6.39882702"><ele>684.599976</ele><time>2008-08-06T18:19:23Z</time></trkpt>
<trkpt lat="46.57089799" lon="6.39911897"><ele>684.119995</ele><time>2008-08-06T18:19:29Z</time></trkpt>
<trkpt lat="46.57060102" lon="6.39910698"><ele>684.599976</ele><time>2008-08-06T18:19:35Z</time></trkpt>
<trkpt lat="46.57034897" lon="6.39915199"><ele>685.080017</ele><time>2008-08-06T18:19:40Z</time></trkpt>
<trkpt lat="46.56981002" lon="6.39917403"><ele>687</ele><time>2008-08-06T18:19:51Z</time></trkpt>
<trkpt lat="46.56919998" lon="6.39912902"><ele>689.400024</ele><time>2008-08-06T18:20:05Z</time></trkpt>
<trkpt lat="46.56872900" lon="6.39898603"><ele>689.400024</ele><time>2008-08-06T18:20:15Z</time></trkpt>
<trkpt lat="46.56851803" lon="6.39888704"><ele>690.359985</ele><time>2008-08-06T18:20:20Z</time></trkpt>
<trkpt lat="46.56829499" lon="6.39868503"><ele>691.330017</ele><time>2008-08-06T18:20:26Z</time></trkpt>
<trkpt lat="46.56810103" lon="6.39857196"><ele>691.330017</ele><time>2008-08-06T18:20:30Z</time></trkpt>
<trkpt lat="46.56791604" lon="6.39841396"><ele>692.289978</ele><time>2008-08-06T18:20:35Z</time></trkpt>
<trkpt lat="46.56755998" lon="6.39816603"><ele>692.289978</ele><time>2008-08-06T18:20:43Z</time></trkpt>
<trkpt lat="46.56740198" lon="6.39810400"><ele>691.809998</ele><time>2008-08-06T18:20:46Z</time></trkpt>
<trkpt lat="46.56719897" lon="6.39811196"><ele>691.330017</ele><time>2008-08-06T18:20:50Z</time></trkpt>
<trkpt lat="46.56709302" lon="6.39815697"><ele>691.809998</ele><time>2008-08-06T18:20:52Z</time></trkpt>
<trkpt lat="46.56674299" lon="6.39844003"><ele>692.77002</ele><time>2008-08-06T18:21:01Z</time></trkpt>
<trkpt lat="46.56641501" lon="6.39891604"><ele>694.690002</ele><time>2008-08-06T18:21:13Z</time></trkpt>
<trkpt lat="46.56609097" lon="6.39939800"><ele>695.650024</ele><time>2008-08-06T18:21:26Z</time></trkpt>
<trkpt lat="46.56600103" lon="6.39958802"><ele>694.690002</ele><time>2008-08-06T18:21:29Z</time></trkpt>
<trkpt lat="46.56582501" lon="6.39995196"><ele>692.77002</ele><time>2008-08-06T18:21:34Z</time></trkpt>
<trkpt lat="46.56537700" lon="6.40120799"><ele>688.919983</ele><time>2008-08-06T18:21:47Z</time></trkpt>
<trkpt lat="46.56522302" lon="6.40184300"><ele>688.440002</ele><time>2008-08-06T18:21:56Z</time></trkpt>
<trkpt lat="46.56496201" lon="6.40250400"><ele>690.359985</ele><time>2008-08-06T18:22:07Z</time></trkpt>
<trkpt lat="46.56495899" lon="6.40266602"><ele>689.880005</ele><time>2008-08-06T18:22:10Z</time></trkpt>
<trkpt lat="46.56509503" lon="6.40297104"><ele>687.960022</ele><time>2008-08-06T18:22:15Z</time></trkpt>
<trkpt lat="46.56518999" lon="6.40321696"><ele>686.52002</ele><time>2008-08-06T18:22:19Z</time></trkpt>
<trkpt lat="46.56528697" lon="6.40336004"><ele>686.039978</ele><time>2008-08-06T18:22:21Z</time></trkpt>
<trkpt lat="46.56519100" lon="6.40351603"><ele>685.559998</ele><time>2008-08-06T18:22:25Z</time></trkpt>
<trkpt lat="46.56477300" lon="6.40366104"><ele>687</ele><time>2008-08-06T18:22:36Z</time></trkpt>
<trkpt lat="46.56439204" lon="6.40379003"><ele>688.919983</ele><time>2008-08-06T18:22:47Z</time></trkpt>
<trkpt lat="46.56393598" lon="6.40391300"><ele>688.919983</ele><time>2008-08-06T18:23:00Z</time></trkpt>
<trkpt lat="46.56350800" lon="6.40396496"><ele>686.039978</ele><time>2008-08-06T18:23:11Z</time></trkpt>
<trkpt lat="46.56332502" lon="6.40406697"><ele>685.559998</ele><time>2008-08-06T18:23:16Z</time></trkpt>
<trkpt lat="46.56306401" lon="6.40429798"><ele>686.52002</ele><time>2008-08-06T18:23:25Z</time></trkpt>
<trkpt lat="46.56297298" lon="6.40442496"><ele>686.52002</ele><time>2008-08-06T18:23:28Z</time></trkpt>
<trkpt lat="46.56268104" lon="6.40434500"><ele>686.039978</ele><time>2008-08-06T18:23:35Z</time></trkpt>
<trkpt lat="46.56223504" lon="6.40397301"><ele>685.559998</ele><time>2008-08-06T18:23:46Z</time></trkpt>
<trkpt lat="46.56178996" lon="6.40372298"><ele>686.52002</ele><time>2008-08-06T18:23:56Z</time></trkpt>
<trkpt lat="46.56144697" lon="6.40369901"><ele>687.47998</ele><time>2008-08-06T18:24:05Z</time></trkpt>
<trkpt lat="46.56098899" lon="6.40367302"><ele>687</ele><time>2008-08-06T18:24:14Z</time></trkpt>
<trkpt lat="46.56058104" lon="6.40368601"><ele>687</ele><time>2008-08-06T18:24:23Z</time></trkpt>
<trkpt lat="46.56022296" lon="6.40367897"><ele>686.039978</ele><time>2008-08-06T18:24:30Z</time></trkpt>
<trkpt lat="46.56008801" lon="6.40364897"><ele>686.039978</ele><time>2008-08-06T18:24:32Z</time></trkpt>
<trkpt lat="46.55992901" lon="6.40361502"><ele>686.039978</ele><time>2008-08-06T18:24:35Z</time></trkpt>
<trkpt lat="46.55976397" lon="6.40355702"><ele>686.039978</ele><time>2008-08-06T18:24:38Z</time></trkpt>
<trkpt lat="46.55959298" lon="6.40352097"><ele>686.039978</ele><time>2008-08-06T18:24:41Z</time></trkpt>
<trkpt lat="46.55941796" lon="6.40346196"><ele>685.559998</ele><time>2008-08-06T18:24:44Z</time></trkpt>
<trkpt lat="46.55916600" lon="6.40338804"><ele>685.080017</ele><time>2008-08-06T18:24:50Z</time></trkpt>
<trkpt lat="46.55916299" lon="6.40361301"><ele>685.080017</ele><time>2008-08-06T18:24:57Z</time></trkpt>
<trkpt lat="46.55920900" lon="6.40407703"><ele>686.52002</ele><time>2008-08-06T18:25:07Z</time></trkpt>
<trkpt lat="46.55925200" lon="6.40459000"><ele>687.47998</ele><time>2008-08-06T18:25:18Z</time></trkpt>
<trkpt lat="46.55926198" lon="6.40504598"><ele>687.47998</ele><time>2008-08-06T18:25:27Z</time></trkpt>
<trkpt lat="46.55933599" lon="6.40576498"><ele>688.440002</ele><time>2008-08-06T18:25:39Z</time></trkpt>
<trkpt lat="46.55926701" lon="6.40635900"><ele>688.440002</ele><time>2008-08-06T18:25:49Z</time></trkpt>
<trkpt lat="46.55912904" lon="6.40694196"><ele>686.039978</ele><time>2008-08-06T18:25:57Z</time></trkpt>
<trkpt lat="46.55900298" lon="6.40764504"><ele>682.190002</ele><time>2008-08-06T18:26:05Z</time></trkpt>
<trkpt lat="46.55897004" lon="6.40801401"><ele>679.789978</ele><time>2008-08-06T18:26:09Z</time></trkpt>
<trkpt lat="46.55896098" lon="6.40830603"><ele>678.349976</ele><time>2008-08-06T18:26:13Z</time></trkpt>
<trkpt lat="46.55888697" lon="6.40898002"><ele>675.460022</ele><time>2008-08-06T18:26:21Z</time></trkpt>
<trkpt lat="46.55881497" lon="6.40952803"><ele>674.5</ele><time>2008-08-06T18:26:29Z</time></trkpt>
<trkpt lat="46.55888102" lon="6.40977798"><ele>674.5</ele><time>2008-08-06T18:26:32Z</time></trkpt>
<trkpt lat="46.55941897" lon="6.41056999"><ele>673.059998</ele><time>2008-08-06T18:26:45Z</time></trkpt>
<trkpt lat="46.55971603" lon="6.41077903"><ele>673.059998</ele><time>2008-08-06T18:26:50Z</time></trkpt>
<trkpt lat="46.55991501" lon="6.41114800"><ele>672.580017</ele><time>2008-08-06T18:26:54Z</time></trkpt>
<trkpt lat="46.56050501" lon="6.41165603"><ele>673.059998</ele><time>2008-08-06T18:27:05Z</time></trkpt>
<trkpt lat="46.56073401" lon="6.41182300"><ele>673.059998</ele><time>2008-08-06T18:27:09Z</time></trkpt>
<trkpt lat="46.56090500" lon="6.41188804"><ele>673.059998</ele><time>2008-08-06T18:27:12Z</time></trkpt>
<trkpt lat="46.56144002" lon="6.41210999"><ele>672.580017</ele><time>2008-08-06T18:27:21Z</time></trkpt>
<trkpt lat="46.56153297" lon="6.41214302"><ele>672.099976</ele><time>2008-08-06T18:27:23Z</time></trkpt>
<trkpt lat="46.56194100" lon="6.41226296"><ele>670.659973</ele><time>2008-08-06T18:27:28Z</time></trkpt>
<trkpt lat="46.56221802" lon="6.41242197"><ele>669.700012</ele><time>2008-08-06T18:27:32Z</time></trkpt>
<trkpt lat="46.56322503" lon="6.41352503"><ele>668.25</ele><time>2008-08-06T18:27:47Z</time></trkpt>
<trkpt lat="46.56373498" lon="6.41412802"><ele>669.219971</ele><time>2008-08-06T18:27:58Z</time></trkpt>
<trkpt lat="46.56412700" lon="6.41459598"><ele>669.700012</ele><time>2008-08-06T18:28:07Z</time></trkpt>
<trkpt lat="46.56445398" lon="6.41510803"><ele>671.140015</ele><time>2008-08-06T18:28:15Z</time></trkpt>
<trkpt lat="46.56446597" lon="6.41542898"><ele>671.619995</ele><time>2008-08-06T18:28:21Z</time></trkpt>
<trkpt lat="46.56401703" lon="6.41608201"><ele>674.02002</ele><time>2008-08-06T18:28:34Z</time></trkpt>
<trkpt lat="46.56355100" lon="6.41632902"><ele>675.940002</ele><time>2008-08-06T18:28:46Z</time></trkpt>
<trkpt lat="46.56299796" lon="6.41659196"><ele>678.349976</ele><time>2008-08-06T18:28:56Z</time></trkpt>
<trkpt lat="46.56239304" lon="6.41680101"><ele>679.309998</ele><time>2008-08-06T18:29:09Z</time></trkpt>
<trkpt lat="46.56156700" lon="6.41704400"><ele>676.419983</ele><time>2008-08-06T18:29:21Z</time></trkpt>
<trkpt lat="46.56069797" lon="6.41753702"><ele>674.02002</ele><time>2008-08-06T18:29:32Z</time></trkpt>
<trkpt lat="46.55971703" lon="6.41846398"><ele>673.539978</ele><time>2008-08-06T18:29:48Z</time></trkpt>
<trkpt lat="46.55943699" lon="6.41871904"><ele>673.539978</ele><time>2008-08-06T18:29:53Z</time></trkpt>
<trkpt lat="46.55914203" lon="6.41895197"><ele>672.580017</ele><time>2008-08-06T18:29:58Z</time></trkpt>
<trkpt lat="46.55896400" lon="6.41923402"><ele>673.059998</ele><time>2008-08-06T18:30:02Z</time></trkpt>
<trkpt lat="46.55878304" lon="6.41974297"><ele>673.539978</ele><time>2008-08-06T18:30:09Z</time></trkpt>
<trkpt lat="46.55867600" lon="6.42014204"><ele>673.059998</ele><time>2008-08-06T18:30:14Z</time></trkpt>
<trkpt lat="46.55861498" lon="6.42032702"><ele>672.580017</ele><time>2008-08-06T18:30:16Z</time></trkpt>
<trkpt lat="46.55839504" lon="6.42136797"><ele>669.219971</ele><time>2008-08-06T18:30:25Z</time></trkpt>
<trkpt lat="46.55824802" lon="6.42221899"><ele>666.330017</ele><time>2008-08-06T18:30:31Z</time></trkpt>
<trkpt lat="46.55816001" lon="6.42261897"><ele>665.369995</ele><time>2008-08-06T18:30:34Z</time></trkpt>
<trkpt lat="46.55772901" lon="6.42349899"><ele>662.01001</ele><time>2008-08-06T18:30:42Z</time></trkpt>
<trkpt lat="46.55752097" lon="6.42382597"><ele>660.080017</ele><time>2008-08-06T18:30:45Z</time></trkpt>
<trkpt lat="46.55738804" lon="6.42449501"><ele>657.679993</ele><time>2008-08-06T18:30:50Z</time></trkpt>
<trkpt lat="46.55745300" lon="6.42543504"><ele>653.349976</ele><time>2008-08-06T18:30:56Z</time></trkpt>
<trkpt lat="46.55747202" lon="6.42576998"><ele>652.390015</ele><time>2008-08-06T18:30:58Z</time></trkpt>
<trkpt lat="46.55760999" lon="6.42636401"><ele>649.98999</ele><time>2008-08-06T18:31:02Z</time></trkpt>
<trkpt lat="46.55801701" lon="6.42781399"><ele>647.590027</ele><time>2008-08-06T18:31:13Z</time></trkpt>
<trkpt lat="46.55839998" lon="6.42909097"><ele>647.099976</ele><time>2008-08-06T18:31:24Z</time></trkpt>
<trkpt lat="46.55872998" lon="6.43044499"><ele>643.73999</ele><time>2008-08-06T18:31:35Z</time></trkpt>
<trkpt lat="46.55898001" lon="6.43118603"><ele>639.409973</ele><time>2008-08-06T18:31:40Z</time></trkpt>
<trkpt lat="46.55909903" lon="6.43152500"><ele>635.090027</ele><time>2008-08-06T18:31:43Z</time></trkpt>
<trkpt lat="46.55917003" lon="6.43168903"><ele>633.169983</ele><time>2008-08-06T18:31:45Z</time></trkpt>
<trkpt lat="46.55938896" lon="6.43189900"><ele>632.679993</ele><time>2008-08-06T18:31:50Z</time></trkpt>
<trkpt lat="46.55957596" lon="6.43188399"><ele>632.679993</ele><time>2008-08-06T18:31:53Z</time></trkpt>
<trkpt lat="46.55979599" lon="6.43195800"><ele>632.679993</ele><time>2008-08-06T18:31:57Z</time></trkpt>
<trkpt lat="46.56023998" lon="6.43223796"><ele>631.719971</ele><time>2008-08-06T18:32:05Z</time></trkpt>
<trkpt lat="46.56047802" lon="6.43228004"><ele>631.719971</ele><time>2008-08-06T18:32:08Z</time></trkpt>
<trkpt lat="46.56058196" lon="6.43226403"><ele>631.719971</ele><time>2008-08-06T18:32:10Z</time></trkpt>
<trkpt lat="46.56086602" lon="6.43228297"><ele>632.200012</ele><time>2008-08-06T18:32:16Z</time></trkpt>
<trkpt lat="46.56114799" lon="6.43236796"><ele>631.719971</ele><time>2008-08-06T18:32:21Z</time></trkpt>
<trkpt lat="46.56127900" lon="6.43242404"><ele>631.23999</ele><time>2008-08-06T18:32:23Z</time></trkpt>
<trkpt lat="46.56181896" lon="6.43267097"><ele>630.76001</ele><time>2008-08-06T18:32:31Z</time></trkpt>
<trkpt lat="46.56230503" lon="6.43267097"><ele>631.23999</ele><time>2008-08-06T18:32:38Z</time></trkpt>
<trkpt lat="46.56273896" lon="6.43270198"><ele>630.76001</ele><time>2008-08-06T18:32:44Z</time></trkpt>
<trkpt lat="46.56298899" lon="6.43277901"><ele>630.280029</ele><time>2008-08-06T18:32:48Z</time></trkpt>
<trkpt lat="46.56313199" lon="6.43282704"><ele>629.799988</ele><time>2008-08-06T18:32:51Z</time></trkpt>
<trkpt lat="46.56337900" lon="6.43286199"><ele>629.320007</ele><time>2008-08-06T18:32:54Z</time></trkpt>
<trkpt lat="46.56367002" lon="6.43272604"><ele>629.320007</ele><time>2008-08-06T18:32:58Z</time></trkpt>
<trkpt lat="46.56403698" lon="6.43252999"><ele>629.799988</ele><time>2008-08-06T18:33:04Z</time></trkpt>
<trkpt lat="46.56454300" lon="6.43251196"><ele>629.799988</ele><time>2008-08-06T18:33:14Z</time></trkpt>
<trkpt lat="46.56491599" lon="6.43267499"><ele>629.320007</ele><time>2008-08-06T18:33:20Z</time></trkpt>
<trkpt lat="46.56545604" lon="6.43302703"><ele>630.280029</ele><time>2008-08-06T18:33:30Z</time></trkpt>
<trkpt lat="46.56570498" lon="6.43314899"><ele>630.76001</ele><time>2008-08-06T18:33:35Z</time></trkpt>
<trkpt lat="46.56594998" lon="6.43319299"><ele>631.719971</ele><time>2008-08-06T18:33:40Z</time></trkpt>
<trkpt lat="46.56644803" lon="6.43319501"><ele>631.23999</ele><time>2008-08-06T18:33:49Z</time></trkpt>
<trkpt lat="46.56669304" lon="6.43318696"><ele>629.320007</ele><time>2008-08-06T18:33:54Z</time></trkpt>
<trkpt lat="46.56679798" lon="6.43338201"><ele>627.400024</ele><time>2008-08-06T18:33:59Z</time></trkpt>
<trkpt lat="46.56693201" lon="6.43349499"><ele>626.919983</ele><time>2008-08-06T18:34:03Z</time></trkpt>
<trkpt lat="46.56724700" lon="6.43353397"><ele>626.919983</ele><time>2008-08-06T18:34:09Z</time></trkpt>
<trkpt lat="46.56738798" lon="6.43390202"><ele>625.960022</ele><time>2008-08-06T18:34:15Z</time></trkpt>
<trkpt lat="46.56730802" lon="6.43456997"><ele>625.960022</ele><time>2008-08-06T18:34:22Z</time></trkpt>
<trkpt lat="46.56758504" lon="6.43500198"><ele>625.960022</ele><time>2008-08-06T18:34:30Z</time></trkpt>
<trkpt lat="46.56878298" lon="6.43504003"><ele>624.51001</ele><time>2008-08-06T18:34:49Z</time></trkpt>
<trkpt lat="46.56891801" lon="6.43533499"><ele>623.549988</ele><time>2008-08-06T18:34:56Z</time></trkpt>
<trkpt lat="46.56887300" lon="6.43693602"><ele>625.960022</ele><time>2008-08-06T18:35:16Z</time></trkpt>
<trkpt lat="46.56883998" lon="6.43833697"><ele>624.030029</ele><time>2008-08-06T18:35:31Z</time></trkpt>
<trkpt lat="46.56904500" lon="6.43867903"><ele>622.590027</ele><time>2008-08-06T18:35:38Z</time></trkpt>
<trkpt lat="46.57012501" lon="6.43848600"><ele>622.109985</ele><time>2008-08-06T18:35:53Z</time></trkpt>
<trkpt lat="46.57118398" lon="6.43839598"><ele>622.109985</ele><time>2008-08-06T18:36:09Z</time></trkpt>
<trkpt lat="46.57207103" lon="6.43851098"><ele>618.75</ele><time>2008-08-06T18:36:22Z</time></trkpt>
<trkpt lat="46.57308700" lon="6.43874802"><ele>615.859985</ele><time>2008-08-06T18:36:36Z</time></trkpt>
<trkpt lat="46.57388303" lon="6.43885002"><ele>613.940002</ele><time>2008-08-06T18:36:48Z</time></trkpt>
<trkpt lat="46.57481099" lon="6.43850997"><ele>611.539978</ele><time>2008-08-06T18:37:01Z</time></trkpt>
<trkpt lat="46.57491703" lon="6.43844702"><ele>612.5</ele><time>2008-08-06T18:37:03Z</time></trkpt>
<trkpt lat="46.57507896" lon="6.43859496"><ele>613.460022</ele><time>2008-08-06T18:37:10Z</time></trkpt>
<trkpt lat="46.57508399" lon="6.43883804"><ele>613.460022</ele><time>2008-08-06T18:37:15Z</time></trkpt>
<trkpt lat="46.57507301" lon="6.43895497"><ele>613.460022</ele><time>2008-08-06T18:37:34Z</time></trkpt>
<trkpt lat="46.57521903" lon="6.43872002"><ele>613.940002</ele><time>2008-08-06T18:37:47Z</time></trkpt>
<trkpt lat="46.57533000" lon="6.43877098"><ele>614.419983</ele><time>2008-08-06T18:37:50Z</time></trkpt>
<trkpt lat="46.57549303" lon="6.43882102"><ele>615.380005</ele><time>2008-08-06T18:37:54Z</time></trkpt>
<trkpt lat="46.57583803" lon="6.43892596"><ele>615.380005</ele><time>2008-08-06T18:38:05Z</time></trkpt>
<trkpt lat="46.57593501" lon="6.43875699"><ele>615.859985</ele><time>2008-08-06T18:38:11Z</time></trkpt>
<trkpt lat="46.57596401" lon="6.43845398"><ele>617.299988</ele><time>2008-08-06T18:38:16Z</time></trkpt>
<trkpt lat="46.57601003" lon="6.43827897"><ele>617.780029</ele><time>2008-08-06T18:38:19Z</time></trkpt>
<trkpt lat="46.57636902" lon="6.43836698"><ele>618.26001</ele><time>2008-08-06T18:38:30Z</time></trkpt>
<trkpt lat="46.57702097" lon="6.43842498"><ele>618.75</ele><time>2008-08-06T18:38:43Z</time></trkpt>
<trkpt lat="46.57730604" lon="6.43846597"><ele>618.75</ele><time>2008-08-06T18:38:48Z</time></trkpt>
<trkpt lat="46.57748197" lon="6.43857401"><ele>619.22998</ele><time>2008-08-06T18:38:52Z</time></trkpt>
<trkpt lat="46.57843399" lon="6.43932100"><ele>618.75</ele><time>2008-08-06T18:39:08Z</time></trkpt>
<trkpt lat="46.57893397" lon="6.43962904"><ele>616.340027</ele><time>2008-08-06T18:39:15Z</time></trkpt>
<trkpt lat="46.57921602" lon="6.44024704"><ele>613.460022</ele><time>2008-08-06T18:39:21Z</time></trkpt>
<trkpt lat="46.57931602" lon="6.44088297"><ele>612.97998</ele><time>2008-08-06T18:39:27Z</time></trkpt>
<trkpt lat="46.57910303" lon="6.44186097"><ele>612.5</ele><time>2008-08-06T18:39:37Z</time></trkpt>
<trkpt lat="46.57909297" lon="6.44221896"><ele>612.02002</ele><time>2008-08-06T18:39:41Z</time></trkpt>
<trkpt lat="46.57920898" lon="6.44288599"><ele>611.539978</ele><time>2008-08-06T18:39:49Z</time></trkpt>
<trkpt lat="46.57931602" lon="6.44357096"><ele>608.169983</ele><time>2008-08-06T18:39:56Z</time></trkpt>
<trkpt lat="46.57932700" lon="6.44370298"><ele>607.210022</ele><time>2008-08-06T18:39:58Z</time></trkpt>
<trkpt lat="46.57948701" lon="6.44363299"><ele>607.210022</ele><time>2008-08-06T18:40:09Z</time></trkpt>
<trkpt lat="46.57977300" lon="6.44334398"><ele>607.690002</ele><time>2008-08-06T18:40:51Z</time></trkpt>
<trkpt lat="46.57988800" lon="6.44326997"><ele>607.690002</ele><time>2008-08-06T18:40:54Z</time></trkpt>
<trkpt lat="46.58050700" lon="6.44302497"><ele>609.130005</ele><time>2008-08-06T18:41:07Z</time></trkpt>
<trkpt lat="46.58096499" lon="6.44284903"><ele>610.090027</ele><time>2008-08-06T18:41:16Z</time></trkpt>
<trkpt lat="46.58163403" lon="6.44240303"><ele>611.059998</ele><time>2008-08-06T18:41:29Z</time></trkpt>
<trkpt lat="46.58171701" lon="6.44232902"><ele>612.02002</ele><time>2008-08-06T18:41:31Z</time></trkpt>
<trkpt lat="46.58212798" lon="6.44178797"><ele>612.02002</ele><time>2008-08-06T18:41:43Z</time></trkpt>
<trkpt lat="46.58224801" lon="6.44194496"><ele>612.5</ele><time>2008-08-06T18:41:49Z</time></trkpt>
<trkpt lat="46.58230098" lon="6.44262901"><ele>616.340027</ele><time>2008-08-06T18:42:00Z</time></trkpt>
<trkpt lat="46.58239000" lon="6.44369602"><ele>618.75</ele><time>2008-08-06T18:42:16Z</time></trkpt>
<trkpt lat="46.58247398" lon="6.44486203"><ele>616.340027</ele><time>2008-08-06T18:42:29Z</time></trkpt>
<trkpt lat="46.58254196" lon="6.44564297"><ele>615.380005</ele><time>2008-08-06T18:42:38Z</time></trkpt>
<trkpt lat="46.58259502" lon="6.44611504"><ele>612.97998</ele><time>2008-08-06T18:42:42Z</time></trkpt>
<trkpt lat="46.58272100" lon="6.44767298"><ele>610.570007</ele><time>2008-08-06T18:42:54Z</time></trkpt>
<trkpt lat="46.58272603" lon="6.44792997"><ele>609.609985</ele><time>2008-08-06T18:42:56Z</time></trkpt>
<trkpt lat="46.58279199" lon="6.44881200"><ele>606.72998</ele><time>2008-08-06T18:43:04Z</time></trkpt>
<trkpt lat="46.58283901" lon="6.44920897"><ele>606.72998</ele><time>2008-08-06T18:43:09Z</time></trkpt>
<trkpt lat="46.58288000" lon="6.44977399"><ele>609.609985</ele><time>2008-08-06T18:43:20Z</time></trkpt>
<trkpt lat="46.58293298" lon="6.45025402"><ele>611.059998</ele><time>2008-08-06T18:43:31Z</time></trkpt>
<trkpt lat="46.58291202" lon="6.45065702"><ele>610.090027</ele><time>2008-08-06T18:43:38Z</time></trkpt>
<trkpt lat="46.58266299" lon="6.45090999"><ele>610.090027</ele><time>2008-08-06T18:43:44Z</time></trkpt>
<trkpt lat="46.58199697" lon="6.45106003"><ele>611.059998</ele><time>2008-08-06T18:43:56Z</time></trkpt>
<trkpt lat="46.58101000" lon="6.45117301"><ele>612.02002</ele><time>2008-08-06T18:44:14Z</time></trkpt>
<trkpt lat="46.58021003" lon="6.45127201"><ele>608.650024</ele><time>2008-08-06T18:44:26Z</time></trkpt>
<trkpt lat="46.57936002" lon="6.45132196"><ele>605.289978</ele><time>2008-08-06T18:44:35Z</time></trkpt>
<trkpt lat="46.57779596" lon="6.45140503"><ele>603.359985</ele><time>2008-08-06T18:44:53Z</time></trkpt>
<trkpt lat="46.57763897" lon="6.45141601"><ele>602.880005</ele><time>2008-08-06T18:44:55Z</time></trkpt>
<trkpt lat="46.57744803" lon="6.45172002"><ele>601.440002</ele><time>2008-08-06T18:45:00Z</time></trkpt>
<trkpt lat="46.57746001" lon="6.45191398"><ele>601.440002</ele><time>2008-08-06T18:45:02Z</time></trkpt>
<trkpt lat="46.57746999" lon="6.45256097"><ele>599.039978</ele><time>2008-08-06T18:45:08Z</time></trkpt>
<trkpt lat="46.57745196" lon="6.45383704"><ele>596.150024</ele><time>2008-08-06T18:45:18Z</time></trkpt>
<trkpt lat="46.57743696" lon="6.45451698"><ele>594.22998</ele><time>2008-08-06T18:45:24Z</time></trkpt>
<trkpt lat="46.57730998" lon="6.45461001"><ele>594.22998</ele><time>2008-08-06T18:45:29Z</time></trkpt>
<trkpt lat="46.57664202" lon="6.45455704"><ele>594.22998</ele><time>2008-08-06T18:45:42Z</time></trkpt>
<trkpt lat="46.57649500" lon="6.45456098"><ele>594.22998</ele><time>2008-08-06T18:45:46Z</time></trkpt>
<trkpt lat="46.57648000" lon="6.45517797"><ele>592.309998</ele><time>2008-08-06T18:45:55Z</time></trkpt>
<trkpt lat="46.57646198" lon="6.45537503"><ele>591.830017</ele><time>2008-08-06T18:46:03Z</time></trkpt>
<trkpt lat="46.57646701" lon="6.45576202"><ele>590.869995</ele><time>2008-08-06T18:46:11Z</time></trkpt>
<trkpt lat="46.57646399" lon="6.45661304"><ele>587.5</ele><time>2008-08-06T18:46:22Z</time></trkpt>
<trkpt lat="46.57647103" lon="6.45677104"><ele>587.02002</ele><time>2008-08-06T18:46:24Z</time></trkpt>
<trkpt lat="46.57647396" lon="6.45739398"><ele>586.059998</ele><time>2008-08-06T18:46:30Z</time></trkpt>
<trkpt lat="46.57649299" lon="6.45820702"><ele>585.099976</ele><time>2008-08-06T18:46:37Z</time></trkpt>
<trkpt lat="46.57674101" lon="6.45879904"><ele>585.580017</ele><time>2008-08-06T18:46:43Z</time></trkpt>
<trkpt lat="46.57708400" lon="6.45993001"><ele>587.97998</ele><time>2008-08-06T18:46:56Z</time></trkpt>
<trkpt lat="46.57743503" lon="6.46130498"><ele>587.02002</ele><time>2008-08-06T18:47:10Z</time></trkpt>
<trkpt lat="46.57749899" lon="6.46289804"><ele>585.099976</ele><time>2008-08-06T18:47:25Z</time></trkpt>
<trkpt lat="46.57751902" lon="6.46327799"><ele>581.72998</ele><time>2008-08-06T18:47:28Z</time></trkpt>
<trkpt lat="46.57753402" lon="6.46342199"><ele>580.289978</ele><time>2008-08-06T18:47:29Z</time></trkpt>
<trkpt lat="46.57754702" lon="6.46416203"><ele>575.48999</ele><time>2008-08-06T18:47:33Z</time></trkpt>
<trkpt lat="46.57756797" lon="6.46495102"><ele>572.119995</ele><time>2008-08-06T18:47:37Z</time></trkpt>
<trkpt lat="46.57758297" lon="6.46534396"><ele>571.159973</ele><time>2008-08-06T18:47:39Z</time></trkpt>
<trkpt lat="46.57761801" lon="6.46629799"><ele>568.280029</ele><time>2008-08-06T18:47:44Z</time></trkpt>
<trkpt lat="46.57763897" lon="6.46690803"><ele>564.429993</ele><time>2008-08-06T18:47:47Z</time></trkpt>
<trkpt lat="46.57767199" lon="6.46772300"><ele>562.51001</ele><time>2008-08-06T18:47:51Z</time></trkpt>
<trkpt lat="46.57773402" lon="6.46961002"><ele>560.590027</ele><time>2008-08-06T18:48:02Z</time></trkpt>
<trkpt lat="46.57776101" lon="6.47054904"><ele>560.590027</ele><time>2008-08-06T18:48:09Z</time></trkpt>
<trkpt lat="46.57792797" lon="6.47082497"><ele>561.070007</ele><time>2008-08-06T18:48:14Z</time></trkpt>
<trkpt lat="46.57847196" lon="6.47086596"><ele>562.51001</ele><time>2008-08-06T18:48:24Z</time></trkpt>
<trkpt lat="46.57930504" lon="6.47055298"><ele>563.950012</ele><time>2008-08-06T18:48:39Z</time></trkpt>
<trkpt lat="46.57953604" lon="6.47046899"><ele>563.950012</ele><time>2008-08-06T18:48:43Z</time></trkpt>
<trkpt lat="46.57962497" lon="6.47073001"><ele>564.429993</ele><time>2008-08-06T18:48:49Z</time></trkpt>
<trkpt lat="46.57956798" lon="6.47100803"><ele>565.390015</ele><time>2008-08-06T18:48:53Z</time></trkpt>
<trkpt lat="46.57943596" lon="6.47204597"><ele>568.76001</ele><time>2008-08-06T18:49:06Z</time></trkpt>
<trkpt lat="46.57935801" lon="6.47246799"><ele>570.200012</ele><time>2008-08-06T18:49:12Z</time></trkpt>
<trkpt lat="46.57931099" lon="6.47282900"><ele>569.23999</ele><time>2008-08-06T18:49:17Z</time></trkpt>
<trkpt lat="46.57893699" lon="6.47338598"><ele>566.830017</ele><time>2008-08-06T18:49:24Z</time></trkpt>
<trkpt lat="46.57767802" lon="6.47408000"><ele>564.429993</ele><time>2008-08-06T18:49:39Z</time></trkpt>
<trkpt lat="46.57728198" lon="6.47424898"><ele>564.429993</ele><time>2008-08-06T18:49:44Z</time></trkpt>
<trkpt lat="46.57691200" lon="6.47464201"><ele>564.429993</ele><time>2008-08-06T18:49:50Z</time></trkpt>
<trkpt lat="46.57648000" lon="6.47544097"><ele>564.909973</ele><time>2008-08-06T18:50:00Z</time></trkpt>
<trkpt lat="46.57621698" lon="6.47637002"><ele>566.830017</ele><time>2008-08-06T18:50:12Z</time></trkpt>
<trkpt lat="46.57600097" lon="6.47697000"><ele>564.429993</ele><time>2008-08-06T18:50:19Z</time></trkpt>
<trkpt lat="46.57584096" lon="6.47758800"><ele>561.549988</ele><time>2008-08-06T18:50:24Z</time></trkpt>
<trkpt lat="46.57576201" lon="6.47785999"><ele>560.590027</ele><time>2008-08-06T18:50:26Z</time></trkpt>
<trkpt lat="46.57548004" lon="6.47859902"><ele>558.179993</ele><time>2008-08-06T18:50:32Z</time></trkpt>
<trkpt lat="46.57497101" lon="6.47906204"><ele>555.299988</ele><time>2008-08-06T18:50:38Z</time></trkpt>
<trkpt lat="46.57465702" lon="6.47915399"><ele>552.900024</ele><time>2008-08-06T18:50:41Z</time></trkpt>
<trkpt lat="46.57433004" lon="6.47956302"><ele>550.48999</ele><time>2008-08-06T18:50:45Z</time></trkpt>
<trkpt lat="46.57390097" lon="6.48078402"><ele>546.650024</ele><time>2008-08-06T18:50:54Z</time></trkpt>
<trkpt lat="46.57385898" lon="6.48095702"><ele>545.690002</ele><time>2008-08-06T18:50:56Z</time></trkpt>
<trkpt lat="46.57364801" lon="6.48116799"><ele>543.76001</ele><time>2008-08-06T18:51:00Z</time></trkpt>
<trkpt lat="46.57345396" lon="6.48126396"><ele>541.359985</ele><time>2008-08-06T18:51:03Z</time></trkpt>
<trkpt lat="46.57331600" lon="6.48155800"><ele>539.440002</ele><time>2008-08-06T18:51:07Z</time></trkpt>
<trkpt lat="46.57322598" lon="6.48182496"><ele>537.51001</ele><time>2008-08-06T18:51:10Z</time></trkpt>
<trkpt lat="46.57318398" lon="6.48198497"><ele>536.070007</ele><time>2008-08-06T18:51:13Z</time></trkpt>
<trkpt lat="46.57326696" lon="6.48216703"><ele>536.070007</ele><time>2008-08-06T18:51:17Z</time></trkpt>
<trkpt lat="46.57382897" lon="6.48286499"><ele>535.590027</ele><time>2008-08-06T18:51:30Z</time></trkpt>
<trkpt lat="46.57375898" lon="6.48317898"><ele>535.109985</ele><time>2008-08-06T18:51:37Z</time></trkpt>
<trkpt lat="46.57359797" lon="6.48339900"><ele>534.630005</ele><time>2008-08-06T18:51:46Z</time></trkpt>
<trkpt lat="46.57372302" lon="6.48321703"><ele>535.109985</ele><time>2008-08-06T18:58:02Z</time></trkpt>
<trkpt lat="46.57379502" lon="6.48308703"><ele>535.109985</ele><time>2008-08-06T18:58:06Z</time></trkpt>
<trkpt lat="46.57407003" lon="6.48320002"><ele>535.590027</ele><time>2008-08-06T18:58:14Z</time></trkpt>
<trkpt lat="46.57453800" lon="6.48395497"><ele>535.590027</ele><time>2008-08-06T18:58:29Z</time></trkpt>
<trkpt lat="46.57513596" lon="6.48489702"><ele>536.070007</ele><time>2008-08-06T18:58:45Z</time></trkpt>
<trkpt lat="46.57563200" lon="6.48547403"><ele>539.440002</ele><time>2008-08-06T18:59:01Z</time></trkpt>
<trkpt lat="46.57601204" lon="6.48605900"><ele>541.359985</ele><time>2008-08-06T18:59:14Z</time></trkpt>
<trkpt lat="46.57610499" lon="6.48620099"><ele>541.359985</ele><time>2008-08-06T18:59:17Z</time></trkpt>
<trkpt lat="46.57658502" lon="6.48694396"><ele>541.840027</ele><time>2008-08-06T18:59:32Z</time></trkpt>
<trkpt lat="46.57722901" lon="6.48732299"><ele>541.840027</ele><time>2008-08-06T18:59:45Z</time></trkpt>
<trkpt lat="46.57784097" lon="6.48776002"><ele>541.359985</ele><time>2008-08-06T18:59:56Z</time></trkpt>
<trkpt lat="46.57876801" lon="6.48786496"><ele>538.47998</ele><time>2008-08-06T19:00:07Z</time></trkpt>
<trkpt lat="46.58026099" lon="6.48775700"><ele>537.98999</ele><time>2008-08-06T19:00:25Z</time></trkpt>
<trkpt lat="46.58108703" lon="6.48767704"><ele>535.109985</ele><time>2008-08-06T19:00:35Z</time></trkpt>
<trkpt lat="46.58176797" lon="6.48734897"><ele>531.75</ele><time>2008-08-06T19:00:42Z</time></trkpt>
<trkpt lat="46.58209596" lon="6.48722702"><ele>530.299988</ele><time>2008-08-06T19:00:45Z</time></trkpt>
<trkpt lat="46.58244004" lon="6.48714596"><ele>528.859985</ele><time>2008-08-06T19:00:48Z</time></trkpt>
<trkpt lat="46.58335400" lon="6.48706801"><ele>530.299988</ele><time>2008-08-06T19:00:59Z</time></trkpt>
<trkpt lat="46.58345701" lon="6.48705603"><ele>530.789978</ele><time>2008-08-06T19:01:01Z</time></trkpt>
<trkpt lat="46.58369103" lon="6.48709198"><ele>531.75</ele><time>2008-08-06T19:01:05Z</time></trkpt>
<trkpt lat="46.58396001" lon="6.48727203"><ele>534.630005</ele><time>2008-08-06T19:01:12Z</time></trkpt>
<trkpt lat="46.58431699" lon="6.48757797"><ele>537.98999</ele><time>2008-08-06T19:01:24Z</time></trkpt>
<trkpt lat="46.58461899" lon="6.48779598"><ele>540.400024</ele><time>2008-08-06T19:01:36Z</time></trkpt>
<trkpt lat="46.58506399" lon="6.48803302"><ele>543.280029</ele><time>2008-08-06T19:01:52Z</time></trkpt>
<trkpt lat="46.58547797" lon="6.48828900"><ele>545.200012</ele><time>2008-08-06T19:02:08Z</time></trkpt>
<trkpt lat="46.58603897" lon="6.48850702"><ele>546.650024</ele><time>2008-08-06T19:02:26Z</time></trkpt>
<trkpt lat="46.58621902" lon="6.48849201"><ele>546.169983</ele><time>2008-08-06T19:02:30Z</time></trkpt>
<trkpt lat="46.58682997" lon="6.48897297"><ele>544.719971</ele><time>2008-08-06T19:02:42Z</time></trkpt>
<trkpt lat="46.58726198" lon="6.48922702"><ele>544.719971</ele><time>2008-08-06T19:02:49Z</time></trkpt>
<trkpt lat="46.58750103" lon="6.48937798"><ele>545.690002</ele><time>2008-08-06T19:02:53Z</time></trkpt>
<trkpt lat="46.58759197" lon="6.48943900"><ele>546.650024</ele><time>2008-08-06T19:02:55Z</time></trkpt>
<trkpt lat="46.58768803" lon="6.48951301"><ele>547.609985</ele><time>2008-08-06T19:02:57Z</time></trkpt>
<trkpt lat="46.58768702" lon="6.48984200"><ele>548.090027</ele><time>2008-08-06T19:03:02Z</time></trkpt>
<trkpt lat="46.58752701" lon="6.49029999"><ele>547.130005</ele><time>2008-08-06T19:03:08Z</time></trkpt>
<trkpt lat="46.58749097" lon="6.49082503"><ele>546.169983</ele><time>2008-08-06T19:03:14Z</time></trkpt>
<trkpt lat="46.58746599" lon="6.49124396"><ele>546.169983</ele><time>2008-08-06T19:03:17Z</time></trkpt>
<trkpt lat="46.58742601" lon="6.49143498"><ele>545.690002</ele><time>2008-08-06T19:03:19Z</time></trkpt>
<trkpt lat="46.58735703" lon="6.49162198"><ele>545.200012</ele><time>2008-08-06T19:03:21Z</time></trkpt>
<trkpt lat="46.58719299" lon="6.49188903"><ele>544.719971</ele><time>2008-08-06T19:03:24Z</time></trkpt>
<trkpt lat="46.58702401" lon="6.49221500"><ele>544.719971</ele><time>2008-08-06T19:03:28Z</time></trkpt>
<trkpt lat="46.58697498" lon="6.49276804"><ele>544.719971</ele><time>2008-08-06T19:03:35Z</time></trkpt>
<trkpt lat="46.58699401" lon="6.49292403"><ele>544.719971</ele><time>2008-08-06T19:03:37Z</time></trkpt>
<trkpt lat="46.58696199" lon="6.49351303"><ele>544.719971</ele><time>2008-08-06T19:03:42Z</time></trkpt>
<trkpt lat="46.58684196" lon="6.49396800"><ele>544.23999</ele><time>2008-08-06T19:03:46Z</time></trkpt>
<trkpt lat="46.58651196" lon="6.49437502"><ele>542.320007</ele><time>2008-08-06T19:03:51Z</time></trkpt>
<trkpt lat="46.58618197" lon="6.49451802"><ele>541.359985</ele><time>2008-08-06T19:03:55Z</time></trkpt>
<trkpt lat="46.58605096" lon="6.49477500"><ele>540.400024</ele><time>2008-08-06T19:03:58Z</time></trkpt>
<trkpt lat="46.58580696" lon="6.49630202"><ele>537.98999</ele><time>2008-08-06T19:04:10Z</time></trkpt>
<trkpt lat="46.58567696" lon="6.49768998"><ele>539.440002</ele><time>2008-08-06T19:04:22Z</time></trkpt>
<trkpt lat="46.58564997" lon="6.49798301"><ele>540.400024</ele><time>2008-08-06T19:04:25Z</time></trkpt>
<trkpt lat="46.58563899" lon="6.49898398"><ele>543.76001</ele><time>2008-08-06T19:04:37Z</time></trkpt>
<trkpt lat="46.58560102" lon="6.49976199"><ele>546.650024</ele><time>2008-08-06T19:04:47Z</time></trkpt>
<trkpt lat="46.58558199" lon="6.50050202"><ele>543.280029</ele><time>2008-08-06T19:04:55Z</time></trkpt>
<trkpt lat="46.58554503" lon="6.50091802"><ele>540.880005</ele><time>2008-08-06T19:04:58Z</time></trkpt>
<trkpt lat="46.58528100" lon="6.50171103"><ele>536.070007</ele><time>2008-08-06T19:05:03Z</time></trkpt>
<trkpt lat="46.58510003" lon="6.50219802"><ele>534.630005</ele><time>2008-08-06T19:05:06Z</time></trkpt>
<trkpt lat="46.58477599" lon="6.50326001"><ele>532.22998</ele><time>2008-08-06T19:05:13Z</time></trkpt>
<trkpt lat="46.58466803" lon="6.50349302"><ele>531.27002</ele><time>2008-08-06T19:05:15Z</time></trkpt>
<trkpt lat="46.58453803" lon="6.50398999"><ele>529.340027</ele><time>2008-08-06T19:05:19Z</time></trkpt>
<trkpt lat="46.58461698" lon="6.50458099"><ele>525.02002</ele><time>2008-08-06T19:05:23Z</time></trkpt>
<trkpt lat="46.58477498" lon="6.50492700"><ele>521.169983</ele><time>2008-08-06T19:05:26Z</time></trkpt>
<trkpt lat="46.58481999" lon="6.50544098"><ele>518.289978</ele><time>2008-08-06T19:05:31Z</time></trkpt>
<trkpt lat="46.58478001" lon="6.50563301"><ele>516.849976</ele><time>2008-08-06T19:05:33Z</time></trkpt>
<trkpt lat="46.58462998" lon="6.50586602"><ele>515.880005</ele><time>2008-08-06T19:05:41Z</time></trkpt>
<trkpt lat="46.58456803" lon="6.50578103"><ele>515.400024</ele><time>2008-08-06T19:06:05Z</time></trkpt>
</trkseg></trk></gpx>